<?xml version="1.0" encoding="UTF-8" standalone="no" ?>
<gpx xmlns="http://www.topografix.com/GPX/1/1" xmlns:xsi="http://www.w3.org/2001/XMLSchema-instance" xsi:schemaLocation="http://www.topografix.com/GPX/1/1 http://www.topografix.com/GPX/1/1/gpx.xsd" version="1.1" creator="VisuGPX - https://www.visugpx.com">
  <metadata>
    <name>EH Minahouet</name>
    <desc><![CDATA[Bravo tout le monde]]></desc>
  </metadata>
  <wpt lat="47.66068" lon="-3.50304">
    <name><![CDATA[002]]></name>
  </wpt>
  <wpt lat="47.66068" lon="-3.50304">
    <name><![CDATA[003]]></name>
  </wpt>
  <trk>
    <name><![CDATA[ACTIVE LOG: 10 FEV 2013 09:36]]></name>
    <trkseg>
      <trkpt lat="47.70324" lon="-3.37319">
        <ele>-11.4</ele>
        <time>2013-02-10T08:36:09Z</time>
      </trkpt>
      <trkpt lat="47.70286" lon="-3.3735">
        <ele>-16.69</ele>
        <time>2013-02-10T08:36:26Z</time>
      </trkpt>
      <trkpt lat="47.70259" lon="-3.37359">
        <ele>-18.13</ele>
        <time>2013-02-10T08:36:37Z</time>
      </trkpt>
      <trkpt lat="47.70238" lon="-3.37379">
        <ele>-17.17</ele>
        <time>2013-02-10T08:36:46Z</time>
      </trkpt>
      <trkpt lat="47.70218" lon="-3.37395">
        <ele>-15.72</ele>
        <time>2013-02-10T08:36:54Z</time>
      </trkpt>
      <trkpt lat="47.70197" lon="-3.37414">
        <ele>-13.8</ele>
        <time>2013-02-10T08:37:02Z</time>
      </trkpt>
      <trkpt lat="47.70174" lon="-3.37433">
        <ele>-12.84</ele>
        <time>2013-02-10T08:37:11Z</time>
      </trkpt>
      <trkpt lat="47.70155" lon="-3.37452">
        <ele>-12.36</ele>
        <time>2013-02-10T08:37:19Z</time>
      </trkpt>
      <trkpt lat="47.70133" lon="-3.37469">
        <ele>-9.48</ele>
        <time>2013-02-10T08:37:29Z</time>
      </trkpt>
      <trkpt lat="47.70116" lon="-3.37482">
        <ele>-7.55</ele>
        <time>2013-02-10T08:37:38Z</time>
      </trkpt>
      <trkpt lat="47.70102" lon="-3.37491">
        <ele>-7.07</ele>
        <time>2013-02-10T08:37:45Z</time>
      </trkpt>
      <trkpt lat="47.70089" lon="-3.37499">
        <ele>-6.11</ele>
        <time>2013-02-10T08:37:52Z</time>
      </trkpt>
      <trkpt lat="47.70079" lon="-3.37507">
        <ele>-8.51</ele>
        <time>2013-02-10T08:37:59Z</time>
      </trkpt>
      <trkpt lat="47.7007" lon="-3.37512">
        <ele>-10.92</ele>
        <time>2013-02-10T08:38:07Z</time>
      </trkpt>
      <trkpt lat="47.70056" lon="-3.37513">
        <ele>-13.32</ele>
        <time>2013-02-10T08:38:14Z</time>
      </trkpt>
      <trkpt lat="47.70043" lon="-3.37515">
        <ele>-11.88</ele>
        <time>2013-02-10T08:38:20Z</time>
      </trkpt>
      <trkpt lat="47.70024" lon="-3.3752">
        <ele>-13.32</ele>
        <time>2013-02-10T08:38:28Z</time>
      </trkpt>
      <trkpt lat="47.70008" lon="-3.37524">
        <ele>-14.28</ele>
        <time>2013-02-10T08:38:34Z</time>
      </trkpt>
      <trkpt lat="47.69993" lon="-3.37529">
        <ele>-13.8</ele>
        <time>2013-02-10T08:38:40Z</time>
      </trkpt>
      <trkpt lat="47.69976" lon="-3.37535">
        <ele>-11.88</ele>
        <time>2013-02-10T08:38:48Z</time>
      </trkpt>
      <trkpt lat="47.6996" lon="-3.37541">
        <ele>-10.92</ele>
        <time>2013-02-10T08:38:56Z</time>
      </trkpt>
      <trkpt lat="47.69947" lon="-3.37547">
        <ele>-12.84</ele>
        <time>2013-02-10T08:39:03Z</time>
      </trkpt>
      <trkpt lat="47.69937" lon="-3.3755">
        <ele>-12.36</ele>
        <time>2013-02-10T08:39:09Z</time>
      </trkpt>
      <trkpt lat="47.69925" lon="-3.37552">
        <ele>-12.84</ele>
        <time>2013-02-10T08:39:17Z</time>
      </trkpt>
      <trkpt lat="47.69915" lon="-3.37552">
        <ele>-12.36</ele>
        <time>2013-02-10T08:39:23Z</time>
      </trkpt>
      <trkpt lat="47.69905" lon="-3.37553">
        <ele>-14.28</ele>
        <time>2013-02-10T08:39:30Z</time>
      </trkpt>
      <trkpt lat="47.69892" lon="-3.37556">
        <ele>-16.69</ele>
        <time>2013-02-10T08:39:38Z</time>
      </trkpt>
      <trkpt lat="47.69875" lon="-3.37557">
        <ele>-18.13</ele>
        <time>2013-02-10T08:39:46Z</time>
      </trkpt>
      <trkpt lat="47.69857" lon="-3.37561">
        <ele>-17.65</ele>
        <time>2013-02-10T08:39:54Z</time>
      </trkpt>
      <trkpt lat="47.69844" lon="-3.37562">
        <ele>-18.61</ele>
        <time>2013-02-10T08:40:01Z</time>
      </trkpt>
      <trkpt lat="47.69827" lon="-3.37567">
        <ele>-19.09</ele>
        <time>2013-02-10T08:40:09Z</time>
      </trkpt>
      <trkpt lat="47.69805" lon="-3.37571">
        <ele>-17.65</ele>
        <time>2013-02-10T08:40:20Z</time>
      </trkpt>
      <trkpt lat="47.69788" lon="-3.37573">
        <ele>-16.69</ele>
        <time>2013-02-10T08:40:28Z</time>
      </trkpt>
      <trkpt lat="47.69772" lon="-3.37578">
        <ele>-13.8</ele>
        <time>2013-02-10T08:40:35Z</time>
      </trkpt>
      <trkpt lat="47.69758" lon="-3.37582">
        <ele>-11.4</ele>
        <time>2013-02-10T08:40:41Z</time>
      </trkpt>
      <trkpt lat="47.69749" lon="-3.37583">
        <ele>-10.44</ele>
        <time>2013-02-10T08:40:46Z</time>
      </trkpt>
      <trkpt lat="47.69746" lon="-3.37586">
        <ele>-9.96</ele>
        <time>2013-02-10T08:40:49Z</time>
      </trkpt>
      <trkpt lat="47.69733" lon="-3.3759">
        <ele>-7.07</ele>
        <time>2013-02-10T08:40:56Z</time>
      </trkpt>
      <trkpt lat="47.69723" lon="-3.37591">
        <ele>-5.63</ele>
        <time>2013-02-10T08:41:01Z</time>
      </trkpt>
      <trkpt lat="47.69701" lon="-3.3759">
        <ele>-6.11</ele>
        <time>2013-02-10T08:41:11Z</time>
      </trkpt>
      <trkpt lat="47.69691" lon="-3.37593">
        <ele>-8.03</ele>
        <time>2013-02-10T08:41:16Z</time>
      </trkpt>
      <trkpt lat="47.69684" lon="-3.37596">
        <ele>-11.4</ele>
        <time>2013-02-10T08:41:19Z</time>
      </trkpt>
      <trkpt lat="47.69666" lon="-3.37599">
        <ele>-10.44</ele>
        <time>2013-02-10T08:41:27Z</time>
      </trkpt>
      <trkpt lat="47.69656" lon="-3.376">
        <ele>-8.51</ele>
        <time>2013-02-10T08:41:32Z</time>
      </trkpt>
      <trkpt lat="47.69648" lon="-3.37601">
        <ele>-7.55</ele>
        <time>2013-02-10T08:41:37Z</time>
      </trkpt>
      <trkpt lat="47.69634" lon="-3.37605">
        <ele>-8.03</ele>
        <time>2013-02-10T08:41:46Z</time>
      </trkpt>
      <trkpt lat="47.69624" lon="-3.37604">
        <ele>-6.11</ele>
        <time>2013-02-10T08:41:52Z</time>
      </trkpt>
      <trkpt lat="47.6961" lon="-3.37605">
        <ele>-2.27</ele>
        <time>2013-02-10T08:41:59Z</time>
      </trkpt>
      <trkpt lat="47.696" lon="-3.37606">
        <ele>-3.71</ele>
        <time>2013-02-10T08:42:04Z</time>
      </trkpt>
      <trkpt lat="47.69584" lon="-3.3761">
        <ele>-6.11</ele>
        <time>2013-02-10T08:42:11Z</time>
      </trkpt>
      <trkpt lat="47.69564" lon="-3.37613">
        <ele>-8.51</ele>
        <time>2013-02-10T08:42:21Z</time>
      </trkpt>
      <trkpt lat="47.69555" lon="-3.37614">
        <ele>-9.48</ele>
        <time>2013-02-10T08:42:27Z</time>
      </trkpt>
      <trkpt lat="47.69541" lon="-3.3762">
        <ele>-9</ele>
        <time>2013-02-10T08:42:35Z</time>
      </trkpt>
      <trkpt lat="47.6953" lon="-3.37623">
        <ele>-11.88</ele>
        <time>2013-02-10T08:42:42Z</time>
      </trkpt>
      <trkpt lat="47.69517" lon="-3.37627">
        <ele>-13.32</ele>
        <time>2013-02-10T08:42:50Z</time>
      </trkpt>
      <trkpt lat="47.69501" lon="-3.37634">
        <ele>-13.32</ele>
        <time>2013-02-10T08:42:59Z</time>
      </trkpt>
      <trkpt lat="47.69491" lon="-3.37638">
        <ele>-13.8</ele>
        <time>2013-02-10T08:43:05Z</time>
      </trkpt>
      <trkpt lat="47.69479" lon="-3.37641">
        <ele>-10.44</ele>
        <time>2013-02-10T08:43:13Z</time>
      </trkpt>
      <trkpt lat="47.69462" lon="-3.37644">
        <ele>-8.51</ele>
        <time>2013-02-10T08:43:24Z</time>
      </trkpt>
      <trkpt lat="47.69454" lon="-3.37645">
        <ele>-7.55</ele>
        <time>2013-02-10T08:43:29Z</time>
      </trkpt>
      <trkpt lat="47.69451" lon="-3.37643">
        <ele>-6.59</ele>
        <time>2013-02-10T08:43:32Z</time>
      </trkpt>
      <trkpt lat="47.69442" lon="-3.37649">
        <ele>-8.03</ele>
        <time>2013-02-10T08:43:36Z</time>
      </trkpt>
      <trkpt lat="47.69436" lon="-3.37647">
        <ele>-9</ele>
        <time>2013-02-10T08:43:40Z</time>
      </trkpt>
      <trkpt lat="47.69427" lon="-3.37646">
        <ele>-5.15</ele>
        <time>2013-02-10T08:43:45Z</time>
      </trkpt>
      <trkpt lat="47.69414" lon="-3.37649">
        <ele>-3.71</ele>
        <time>2013-02-10T08:43:52Z</time>
      </trkpt>
      <trkpt lat="47.69406" lon="-3.37654">
        <ele>-6.59</ele>
        <time>2013-02-10T08:43:57Z</time>
      </trkpt>
      <trkpt lat="47.69399" lon="-3.37664">
        <ele>-8.51</ele>
        <time>2013-02-10T08:44:03Z</time>
      </trkpt>
      <trkpt lat="47.69398" lon="-3.37667">
        <ele>-11.4</ele>
        <time>2013-02-10T08:44:05Z</time>
      </trkpt>
      <trkpt lat="47.69393" lon="-3.37683">
        <ele>-12.36</ele>
        <time>2013-02-10T08:44:13Z</time>
      </trkpt>
      <trkpt lat="47.69386" lon="-3.37693">
        <ele>-11.4</ele>
        <time>2013-02-10T08:44:19Z</time>
      </trkpt>
      <trkpt lat="47.69378" lon="-3.37703">
        <ele>-9</ele>
        <time>2013-02-10T08:44:26Z</time>
      </trkpt>
      <trkpt lat="47.69373" lon="-3.37711">
        <ele>-8.51</ele>
        <time>2013-02-10T08:44:30Z</time>
      </trkpt>
      <trkpt lat="47.69369" lon="-3.37717">
        <ele>-8.03</ele>
        <time>2013-02-10T08:44:34Z</time>
      </trkpt>
      <trkpt lat="47.69367" lon="-3.37719">
        <ele>-7.07</ele>
        <time>2013-02-10T08:44:37Z</time>
      </trkpt>
      <trkpt lat="47.69363" lon="-3.37727">
        <ele>-6.59</ele>
        <time>2013-02-10T08:44:41Z</time>
      </trkpt>
      <trkpt lat="47.69357" lon="-3.37738">
        <ele>-7.07</ele>
        <time>2013-02-10T08:44:47Z</time>
      </trkpt>
      <trkpt lat="47.69351" lon="-3.37747">
        <ele>-7.07</ele>
        <time>2013-02-10T08:44:55Z</time>
      </trkpt>
      <trkpt lat="47.69347" lon="-3.37759">
        <ele>-5.15</ele>
        <time>2013-02-10T08:45:02Z</time>
      </trkpt>
      <trkpt lat="47.69341" lon="-3.37773">
        <ele>-5.63</ele>
        <time>2013-02-10T08:45:10Z</time>
      </trkpt>
      <trkpt lat="47.69331" lon="-3.37792">
        <ele>-5.15</ele>
        <time>2013-02-10T08:45:19Z</time>
      </trkpt>
      <trkpt lat="47.6933" lon="-3.37794">
        <ele>-5.63</ele>
        <time>2013-02-10T08:45:20Z</time>
      </trkpt>
      <trkpt lat="47.69325" lon="-3.37801">
        <ele>-5.15</ele>
        <time>2013-02-10T08:45:24Z</time>
      </trkpt>
      <trkpt lat="47.69319" lon="-3.37813">
        <ele>-4.67</ele>
        <time>2013-02-10T08:45:29Z</time>
      </trkpt>
      <trkpt lat="47.6931" lon="-3.37829">
        <ele>-3.71</ele>
        <time>2013-02-10T08:45:36Z</time>
      </trkpt>
      <trkpt lat="47.69301" lon="-3.37837">
        <ele>-1.79</ele>
        <time>2013-02-10T08:45:43Z</time>
      </trkpt>
      <trkpt lat="47.69297" lon="-3.37843">
        <ele>-3.23</ele>
        <time>2013-02-10T08:45:49Z</time>
      </trkpt>
      <trkpt lat="47.6929" lon="-3.3785">
        <ele>-4.67</ele>
        <time>2013-02-10T08:45:55Z</time>
      </trkpt>
      <trkpt lat="47.69275" lon="-3.37853">
        <ele>-5.15</ele>
        <time>2013-02-10T08:46:03Z</time>
      </trkpt>
      <trkpt lat="47.6926" lon="-3.37856">
        <ele>-7.55</ele>
        <time>2013-02-10T08:46:10Z</time>
      </trkpt>
      <trkpt lat="47.69241" lon="-3.37858">
        <ele>-7.07</ele>
        <time>2013-02-10T08:46:19Z</time>
      </trkpt>
      <trkpt lat="47.69234" lon="-3.37854">
        <ele>-8.51</ele>
        <time>2013-02-10T08:46:23Z</time>
      </trkpt>
      <trkpt lat="47.69223" lon="-3.37852">
        <ele>-10.92</ele>
        <time>2013-02-10T08:46:29Z</time>
      </trkpt>
      <trkpt lat="47.69208" lon="-3.37849">
        <ele>-11.88</ele>
        <time>2013-02-10T08:46:36Z</time>
      </trkpt>
      <trkpt lat="47.69187" lon="-3.3785">
        <ele>-13.32</ele>
        <time>2013-02-10T08:46:44Z</time>
      </trkpt>
      <trkpt lat="47.69169" lon="-3.3785">
        <ele>-9.96</ele>
        <time>2013-02-10T08:46:50Z</time>
      </trkpt>
      <trkpt lat="47.69146" lon="-3.37847">
        <ele>-10.44</ele>
        <time>2013-02-10T08:46:58Z</time>
      </trkpt>
      <trkpt lat="47.69121" lon="-3.37848">
        <ele>-7.07</ele>
        <time>2013-02-10T08:47:06Z</time>
      </trkpt>
      <trkpt lat="47.69093" lon="-3.37844">
        <ele>-9.48</ele>
        <time>2013-02-10T08:47:16Z</time>
      </trkpt>
      <trkpt lat="47.69067" lon="-3.37847">
        <ele>-7.55</ele>
        <time>2013-02-10T08:47:25Z</time>
      </trkpt>
      <trkpt lat="47.69035" lon="-3.3785">
        <ele>-6.59</ele>
        <time>2013-02-10T08:47:36Z</time>
      </trkpt>
      <trkpt lat="47.69023" lon="-3.37854">
        <ele>-6.11</ele>
        <time>2013-02-10T08:47:41Z</time>
      </trkpt>
      <trkpt lat="47.69018" lon="-3.37877">
        <ele>-7.07</ele>
        <time>2013-02-10T08:47:48Z</time>
      </trkpt>
      <trkpt lat="47.69027" lon="-3.37904">
        <ele>-9</ele>
        <time>2013-02-10T08:47:56Z</time>
      </trkpt>
      <trkpt lat="47.69044" lon="-3.3793">
        <ele>-8.51</ele>
        <time>2013-02-10T08:48:04Z</time>
      </trkpt>
      <trkpt lat="47.69068" lon="-3.37956">
        <ele>-12.84</ele>
        <time>2013-02-10T08:48:13Z</time>
      </trkpt>
      <trkpt lat="47.69083" lon="-3.37978">
        <ele>-12.36</ele>
        <time>2013-02-10T08:48:20Z</time>
      </trkpt>
      <trkpt lat="47.69082" lon="-3.37995">
        <ele>-13.8</ele>
        <time>2013-02-10T08:48:24Z</time>
      </trkpt>
      <trkpt lat="47.69091" lon="-3.38019">
        <ele>-13.8</ele>
        <time>2013-02-10T08:48:31Z</time>
      </trkpt>
      <trkpt lat="47.69105" lon="-3.38038">
        <ele>-10.92</ele>
        <time>2013-02-10T08:48:38Z</time>
      </trkpt>
      <trkpt lat="47.69121" lon="-3.38053">
        <ele>-11.88</ele>
        <time>2013-02-10T08:48:44Z</time>
      </trkpt>
      <trkpt lat="47.6914" lon="-3.38063">
        <ele>-12.36</ele>
        <time>2013-02-10T08:48:50Z</time>
      </trkpt>
      <trkpt lat="47.69169" lon="-3.38078">
        <ele>-11.4</ele>
        <time>2013-02-10T08:49:00Z</time>
      </trkpt>
      <trkpt lat="47.69187" lon="-3.38072">
        <ele>-11.88</ele>
        <time>2013-02-10T08:49:07Z</time>
      </trkpt>
      <trkpt lat="47.69203" lon="-3.38066">
        <ele>-10.44</ele>
        <time>2013-02-10T08:49:14Z</time>
      </trkpt>
      <trkpt lat="47.69223" lon="-3.38064">
        <ele>-10.44</ele>
        <time>2013-02-10T08:49:21Z</time>
      </trkpt>
      <trkpt lat="47.69234" lon="-3.38059">
        <ele>-10.44</ele>
        <time>2013-02-10T08:49:26Z</time>
      </trkpt>
      <trkpt lat="47.69255" lon="-3.38054">
        <ele>-9</ele>
        <time>2013-02-10T08:49:33Z</time>
      </trkpt>
      <trkpt lat="47.69272" lon="-3.38047">
        <ele>-8.51</ele>
        <time>2013-02-10T08:49:40Z</time>
      </trkpt>
      <trkpt lat="47.69288" lon="-3.38038">
        <ele>-8.51</ele>
        <time>2013-02-10T08:49:47Z</time>
      </trkpt>
      <trkpt lat="47.69293" lon="-3.38036">
        <ele>-8.03</ele>
        <time>2013-02-10T08:49:49Z</time>
      </trkpt>
      <trkpt lat="47.69313" lon="-3.38029">
        <ele>-8.03</ele>
        <time>2013-02-10T08:49:58Z</time>
      </trkpt>
      <trkpt lat="47.69332" lon="-3.38016">
        <ele>-8.51</ele>
        <time>2013-02-10T08:50:07Z</time>
      </trkpt>
      <trkpt lat="47.69343" lon="-3.38001">
        <ele>-9</ele>
        <time>2013-02-10T08:50:14Z</time>
      </trkpt>
      <trkpt lat="47.69345" lon="-3.37999">
        <ele>-9.48</ele>
        <time>2013-02-10T08:50:15Z</time>
      </trkpt>
      <trkpt lat="47.69365" lon="-3.37986">
        <ele>-9</ele>
        <time>2013-02-10T08:50:25Z</time>
      </trkpt>
      <trkpt lat="47.69385" lon="-3.37982">
        <ele>-9</ele>
        <time>2013-02-10T08:50:34Z</time>
      </trkpt>
      <trkpt lat="47.69402" lon="-3.37978">
        <ele>-9</ele>
        <time>2013-02-10T08:50:40Z</time>
      </trkpt>
      <trkpt lat="47.69419" lon="-3.37973">
        <ele>-9</ele>
        <time>2013-02-10T08:50:46Z</time>
      </trkpt>
      <trkpt lat="47.69436" lon="-3.37974">
        <ele>-9</ele>
        <time>2013-02-10T08:50:52Z</time>
      </trkpt>
      <trkpt lat="47.69459" lon="-3.37979">
        <ele>-8.51</ele>
        <time>2013-02-10T08:50:59Z</time>
      </trkpt>
      <trkpt lat="47.69487" lon="-3.37984">
        <ele>-8.51</ele>
        <time>2013-02-10T08:51:08Z</time>
      </trkpt>
      <trkpt lat="47.69501" lon="-3.37985">
        <ele>-9.48</ele>
        <time>2013-02-10T08:51:12Z</time>
      </trkpt>
      <trkpt lat="47.69521" lon="-3.37981">
        <ele>-9</ele>
        <time>2013-02-10T08:51:18Z</time>
      </trkpt>
      <trkpt lat="47.69538" lon="-3.37984">
        <ele>-9.96</ele>
        <time>2013-02-10T08:51:24Z</time>
      </trkpt>
      <trkpt lat="47.69559" lon="-3.37985">
        <ele>-9.96</ele>
        <time>2013-02-10T08:51:31Z</time>
      </trkpt>
      <trkpt lat="47.69576" lon="-3.37986">
        <ele>-9.48</ele>
        <time>2013-02-10T08:51:37Z</time>
      </trkpt>
      <trkpt lat="47.69597" lon="-3.37997">
        <ele>-9.48</ele>
        <time>2013-02-10T08:51:45Z</time>
      </trkpt>
      <trkpt lat="47.69618" lon="-3.38003">
        <ele>-8.51</ele>
        <time>2013-02-10T08:51:53Z</time>
      </trkpt>
      <trkpt lat="47.6964" lon="-3.38004">
        <ele>-9</ele>
        <time>2013-02-10T08:52:01Z</time>
      </trkpt>
      <trkpt lat="47.69656" lon="-3.38003">
        <ele>-9.48</ele>
        <time>2013-02-10T08:52:07Z</time>
      </trkpt>
      <trkpt lat="47.69667" lon="-3.38001">
        <ele>-8.03</ele>
        <time>2013-02-10T08:52:12Z</time>
      </trkpt>
      <trkpt lat="47.69678" lon="-3.37991">
        <ele>-7.55</ele>
        <time>2013-02-10T08:52:18Z</time>
      </trkpt>
      <trkpt lat="47.69686" lon="-3.37967">
        <ele>-8.51</ele>
        <time>2013-02-10T08:52:27Z</time>
      </trkpt>
      <trkpt lat="47.69687" lon="-3.37952">
        <ele>-9</ele>
        <time>2013-02-10T08:52:31Z</time>
      </trkpt>
      <trkpt lat="47.69689" lon="-3.37925">
        <ele>-8.51</ele>
        <time>2013-02-10T08:52:39Z</time>
      </trkpt>
      <trkpt lat="47.6969" lon="-3.3791">
        <ele>-7.55</ele>
        <time>2013-02-10T08:52:44Z</time>
      </trkpt>
      <trkpt lat="47.69691" lon="-3.37895">
        <ele>-6.59</ele>
        <time>2013-02-10T08:52:49Z</time>
      </trkpt>
      <trkpt lat="47.69691" lon="-3.37867">
        <ele>-7.55</ele>
        <time>2013-02-10T08:52:56Z</time>
      </trkpt>
      <trkpt lat="47.69691" lon="-3.37845">
        <ele>-8.03</ele>
        <time>2013-02-10T08:53:02Z</time>
      </trkpt>
      <trkpt lat="47.69686" lon="-3.37805">
        <ele>-7.55</ele>
        <time>2013-02-10T08:53:11Z</time>
      </trkpt>
      <trkpt lat="47.69686" lon="-3.3778">
        <ele>-6.59</ele>
        <time>2013-02-10T08:53:18Z</time>
      </trkpt>
      <trkpt lat="47.6969" lon="-3.37755">
        <ele>-6.59</ele>
        <time>2013-02-10T08:53:26Z</time>
      </trkpt>
      <trkpt lat="47.6969" lon="-3.37721">
        <ele>-8.03</ele>
        <time>2013-02-10T08:53:36Z</time>
      </trkpt>
      <trkpt lat="47.69689" lon="-3.37689">
        <ele>-8.51</ele>
        <time>2013-02-10T08:53:44Z</time>
      </trkpt>
      <trkpt lat="47.6969" lon="-3.3766">
        <ele>-8.51</ele>
        <time>2013-02-10T08:53:51Z</time>
      </trkpt>
      <trkpt lat="47.69691" lon="-3.3763">
        <ele>-9.96</ele>
        <time>2013-02-10T08:53:59Z</time>
      </trkpt>
      <trkpt lat="47.69693" lon="-3.37598">
        <ele>-9.96</ele>
        <time>2013-02-10T08:54:07Z</time>
      </trkpt>
      <trkpt lat="47.69693" lon="-3.37577">
        <ele>-8.51</ele>
        <time>2013-02-10T08:54:12Z</time>
      </trkpt>
      <trkpt lat="47.69698" lon="-3.37555">
        <ele>-8.03</ele>
        <time>2013-02-10T08:54:19Z</time>
      </trkpt>
      <trkpt lat="47.69702" lon="-3.37537">
        <ele>-7.07</ele>
        <time>2013-02-10T08:54:25Z</time>
      </trkpt>
      <trkpt lat="47.69712" lon="-3.37527">
        <ele>-8.03</ele>
        <time>2013-02-10T08:54:31Z</time>
      </trkpt>
      <trkpt lat="47.69723" lon="-3.37515">
        <ele>-6.11</ele>
        <time>2013-02-10T08:54:38Z</time>
      </trkpt>
      <trkpt lat="47.69733" lon="-3.37499">
        <ele>-5.63</ele>
        <time>2013-02-10T08:54:45Z</time>
      </trkpt>
      <trkpt lat="47.69744" lon="-3.37489">
        <ele>-5.15</ele>
        <time>2013-02-10T08:54:51Z</time>
      </trkpt>
      <trkpt lat="47.69759" lon="-3.3748">
        <ele>-6.59</ele>
        <time>2013-02-10T08:54:58Z</time>
      </trkpt>
      <trkpt lat="47.69774" lon="-3.37465">
        <ele>-7.07</ele>
        <time>2013-02-10T08:55:06Z</time>
      </trkpt>
      <trkpt lat="47.69798" lon="-3.37445">
        <ele>-9.48</ele>
        <time>2013-02-10T08:55:17Z</time>
      </trkpt>
      <trkpt lat="47.69816" lon="-3.37436">
        <ele>-9.48</ele>
        <time>2013-02-10T08:55:25Z</time>
      </trkpt>
      <trkpt lat="47.69836" lon="-3.37449">
        <ele>-9.48</ele>
        <time>2013-02-10T08:55:33Z</time>
      </trkpt>
      <trkpt lat="47.69855" lon="-3.37477">
        <ele>-9</ele>
        <time>2013-02-10T08:55:41Z</time>
      </trkpt>
      <trkpt lat="47.69877" lon="-3.37511">
        <ele>-8.51</ele>
        <time>2013-02-10T08:55:51Z</time>
      </trkpt>
      <trkpt lat="47.69895" lon="-3.37544">
        <ele>-8.51</ele>
        <time>2013-02-10T08:56:00Z</time>
      </trkpt>
      <trkpt lat="47.69905" lon="-3.37574">
        <ele>-8.03</ele>
        <time>2013-02-10T08:56:07Z</time>
      </trkpt>
      <trkpt lat="47.69913" lon="-3.37605">
        <ele>-8.03</ele>
        <time>2013-02-10T08:56:14Z</time>
      </trkpt>
      <trkpt lat="47.69919" lon="-3.37635">
        <ele>-6.11</ele>
        <time>2013-02-10T08:56:21Z</time>
      </trkpt>
      <trkpt lat="47.69926" lon="-3.37662">
        <ele>-6.11</ele>
        <time>2013-02-10T08:56:27Z</time>
      </trkpt>
      <trkpt lat="47.69932" lon="-3.37694">
        <ele>-6.59</ele>
        <time>2013-02-10T08:56:34Z</time>
      </trkpt>
      <trkpt lat="47.69936" lon="-3.37715">
        <ele>-6.11</ele>
        <time>2013-02-10T08:56:39Z</time>
      </trkpt>
      <trkpt lat="47.69938" lon="-3.37753">
        <ele>-5.63</ele>
        <time>2013-02-10T08:56:47Z</time>
      </trkpt>
      <trkpt lat="47.69932" lon="-3.37767">
        <ele>-7.07</ele>
        <time>2013-02-10T08:56:52Z</time>
      </trkpt>
      <trkpt lat="47.69923" lon="-3.37766">
        <ele>-8.51</ele>
        <time>2013-02-10T08:56:57Z</time>
      </trkpt>
      <trkpt lat="47.69908" lon="-3.37746">
        <ele>-7.55</ele>
        <time>2013-02-10T08:57:04Z</time>
      </trkpt>
      <trkpt lat="47.699" lon="-3.37717">
        <ele>-8.51</ele>
        <time>2013-02-10T08:57:11Z</time>
      </trkpt>
      <trkpt lat="47.69886" lon="-3.37674">
        <ele>-8.03</ele>
        <time>2013-02-10T08:57:21Z</time>
      </trkpt>
      <trkpt lat="47.69876" lon="-3.37648">
        <ele>-7.07</ele>
        <time>2013-02-10T08:57:27Z</time>
      </trkpt>
      <trkpt lat="47.69876" lon="-3.37621">
        <ele>-7.07</ele>
        <time>2013-02-10T08:57:33Z</time>
      </trkpt>
      <trkpt lat="47.69885" lon="-3.37608">
        <ele>-8.51</ele>
        <time>2013-02-10T08:57:38Z</time>
      </trkpt>
      <trkpt lat="47.69892" lon="-3.37606">
        <ele>-9</ele>
        <time>2013-02-10T08:57:41Z</time>
      </trkpt>
      <trkpt lat="47.69906" lon="-3.37622">
        <ele>-7.55</ele>
        <time>2013-02-10T08:57:49Z</time>
      </trkpt>
      <trkpt lat="47.69922" lon="-3.37651">
        <ele>-6.59</ele>
        <time>2013-02-10T08:57:59Z</time>
      </trkpt>
      <trkpt lat="47.69938" lon="-3.37682">
        <ele>-7.07</ele>
        <time>2013-02-10T08:58:08Z</time>
      </trkpt>
      <trkpt lat="47.69952" lon="-3.37712">
        <ele>-7.07</ele>
        <time>2013-02-10T08:58:16Z</time>
      </trkpt>
      <trkpt lat="47.69967" lon="-3.37732">
        <ele>-9.48</ele>
        <time>2013-02-10T08:58:21Z</time>
      </trkpt>
      <trkpt lat="47.69979" lon="-3.37751">
        <ele>-9.96</ele>
        <time>2013-02-10T08:58:26Z</time>
      </trkpt>
      <trkpt lat="47.69986" lon="-3.37768">
        <ele>-9</ele>
        <time>2013-02-10T08:58:31Z</time>
      </trkpt>
      <trkpt lat="47.69994" lon="-3.37793">
        <ele>-10.92</ele>
        <time>2013-02-10T08:58:37Z</time>
      </trkpt>
      <trkpt lat="47.70002" lon="-3.37827">
        <ele>-9.48</ele>
        <time>2013-02-10T08:58:45Z</time>
      </trkpt>
      <trkpt lat="47.7" lon="-3.37852">
        <ele>-10.44</ele>
        <time>2013-02-10T08:58:53Z</time>
      </trkpt>
      <trkpt lat="47.69999" lon="-3.37853">
        <ele>-10.92</ele>
        <time>2013-02-10T08:58:54Z</time>
      </trkpt>
      <trkpt lat="47.69977" lon="-3.37854">
        <ele>-12.84</ele>
        <time>2013-02-10T08:59:03Z</time>
      </trkpt>
      <trkpt lat="47.69962" lon="-3.37858">
        <ele>-11.4</ele>
        <time>2013-02-10T08:59:10Z</time>
      </trkpt>
      <trkpt lat="47.69954" lon="-3.3786">
        <ele>-8.51</ele>
        <time>2013-02-10T08:59:15Z</time>
      </trkpt>
      <trkpt lat="47.69933" lon="-3.37861">
        <ele>-8.03</ele>
        <time>2013-02-10T08:59:23Z</time>
      </trkpt>
      <trkpt lat="47.69913" lon="-3.37862">
        <ele>-7.07</ele>
        <time>2013-02-10T08:59:30Z</time>
      </trkpt>
      <trkpt lat="47.69904" lon="-3.37865">
        <ele>-7.07</ele>
        <time>2013-02-10T08:59:33Z</time>
      </trkpt>
      <trkpt lat="47.69876" lon="-3.37871">
        <ele>-7.07</ele>
        <time>2013-02-10T08:59:42Z</time>
      </trkpt>
      <trkpt lat="47.69855" lon="-3.37874">
        <ele>-7.07</ele>
        <time>2013-02-10T08:59:49Z</time>
      </trkpt>
      <trkpt lat="47.69827" lon="-3.37883">
        <ele>-6.59</ele>
        <time>2013-02-10T08:59:59Z</time>
      </trkpt>
      <trkpt lat="47.69808" lon="-3.37887">
        <ele>-5.63</ele>
        <time>2013-02-10T09:00:06Z</time>
      </trkpt>
      <trkpt lat="47.69792" lon="-3.3789">
        <ele>-4.67</ele>
        <time>2013-02-10T09:00:12Z</time>
      </trkpt>
      <trkpt lat="47.69764" lon="-3.37897">
        <ele>-5.63</ele>
        <time>2013-02-10T09:00:22Z</time>
      </trkpt>
      <trkpt lat="47.69747" lon="-3.379">
        <ele>-8.51</ele>
        <time>2013-02-10T09:00:28Z</time>
      </trkpt>
      <trkpt lat="47.69731" lon="-3.37904">
        <ele>-12.84</ele>
        <time>2013-02-10T09:00:34Z</time>
      </trkpt>
      <trkpt lat="47.69713" lon="-3.37909">
        <ele>-6.59</ele>
        <time>2013-02-10T09:00:40Z</time>
      </trkpt>
      <trkpt lat="47.69704" lon="-3.37912">
        <ele>-6.11</ele>
        <time>2013-02-10T09:00:44Z</time>
      </trkpt>
      <trkpt lat="47.6968" lon="-3.37919">
        <ele>-4.67</ele>
        <time>2013-02-10T09:00:52Z</time>
      </trkpt>
      <trkpt lat="47.6966" lon="-3.37929">
        <ele>-6.59</ele>
        <time>2013-02-10T09:00:59Z</time>
      </trkpt>
      <trkpt lat="47.69641" lon="-3.37932">
        <ele>-7.07</ele>
        <time>2013-02-10T09:01:05Z</time>
      </trkpt>
      <trkpt lat="47.69615" lon="-3.37935">
        <ele>-7.55</ele>
        <time>2013-02-10T09:01:13Z</time>
      </trkpt>
      <trkpt lat="47.69585" lon="-3.37941">
        <ele>-6.59</ele>
        <time>2013-02-10T09:01:22Z</time>
      </trkpt>
      <trkpt lat="47.69568" lon="-3.37945">
        <ele>-6.59</ele>
        <time>2013-02-10T09:01:27Z</time>
      </trkpt>
      <trkpt lat="47.69538" lon="-3.37954">
        <ele>-7.07</ele>
        <time>2013-02-10T09:01:36Z</time>
      </trkpt>
      <trkpt lat="47.69519" lon="-3.37958">
        <ele>-7.55</ele>
        <time>2013-02-10T09:01:42Z</time>
      </trkpt>
      <trkpt lat="47.69495" lon="-3.37969">
        <ele>-7.55</ele>
        <time>2013-02-10T09:01:50Z</time>
      </trkpt>
      <trkpt lat="47.69477" lon="-3.37975">
        <ele>-7.55</ele>
        <time>2013-02-10T09:01:56Z</time>
      </trkpt>
      <trkpt lat="47.69455" lon="-3.3798">
        <ele>-8.51</ele>
        <time>2013-02-10T09:02:03Z</time>
      </trkpt>
      <trkpt lat="47.69436" lon="-3.37987">
        <ele>-7.07</ele>
        <time>2013-02-10T09:02:09Z</time>
      </trkpt>
      <trkpt lat="47.69417" lon="-3.37996">
        <ele>-6.59</ele>
        <time>2013-02-10T09:02:15Z</time>
      </trkpt>
      <trkpt lat="47.69388" lon="-3.38005">
        <ele>-7.07</ele>
        <time>2013-02-10T09:02:24Z</time>
      </trkpt>
      <trkpt lat="47.69365" lon="-3.38013">
        <ele>-7.07</ele>
        <time>2013-02-10T09:02:31Z</time>
      </trkpt>
      <trkpt lat="47.69342" lon="-3.3802">
        <ele>-7.55</ele>
        <time>2013-02-10T09:02:38Z</time>
      </trkpt>
      <trkpt lat="47.69316" lon="-3.38026">
        <ele>-8.03</ele>
        <time>2013-02-10T09:02:46Z</time>
      </trkpt>
      <trkpt lat="47.69293" lon="-3.38033">
        <ele>-7.55</ele>
        <time>2013-02-10T09:02:53Z</time>
      </trkpt>
      <trkpt lat="47.69263" lon="-3.38045">
        <ele>-8.03</ele>
        <time>2013-02-10T09:03:02Z</time>
      </trkpt>
      <trkpt lat="47.69233" lon="-3.38052">
        <ele>-8.51</ele>
        <time>2013-02-10T09:03:11Z</time>
      </trkpt>
      <trkpt lat="47.6921" lon="-3.38057">
        <ele>-8.03</ele>
        <time>2013-02-10T09:03:18Z</time>
      </trkpt>
      <trkpt lat="47.6918" lon="-3.38065">
        <ele>-8.51</ele>
        <time>2013-02-10T09:03:27Z</time>
      </trkpt>
      <trkpt lat="47.69153" lon="-3.38071">
        <ele>-8.03</ele>
        <time>2013-02-10T09:03:35Z</time>
      </trkpt>
      <trkpt lat="47.69126" lon="-3.38076">
        <ele>-9.48</ele>
        <time>2013-02-10T09:03:43Z</time>
      </trkpt>
      <trkpt lat="47.69099" lon="-3.38079">
        <ele>-9</ele>
        <time>2013-02-10T09:03:51Z</time>
      </trkpt>
      <trkpt lat="47.69076" lon="-3.38084">
        <ele>-6.59</ele>
        <time>2013-02-10T09:03:57Z</time>
      </trkpt>
      <trkpt lat="47.69057" lon="-3.3809">
        <ele>-6.59</ele>
        <time>2013-02-10T09:04:03Z</time>
      </trkpt>
      <trkpt lat="47.69046" lon="-3.38106">
        <ele>-5.63</ele>
        <time>2013-02-10T09:04:09Z</time>
      </trkpt>
      <trkpt lat="47.6905" lon="-3.38119">
        <ele>-5.63</ele>
        <time>2013-02-10T09:04:14Z</time>
      </trkpt>
      <trkpt lat="47.69055" lon="-3.38134">
        <ele>-4.67</ele>
        <time>2013-02-10T09:04:19Z</time>
      </trkpt>
      <trkpt lat="47.69057" lon="-3.38157">
        <ele>-3.23</ele>
        <time>2013-02-10T09:04:26Z</time>
      </trkpt>
      <trkpt lat="47.69063" lon="-3.38191">
        <ele>-6.11</ele>
        <time>2013-02-10T09:04:36Z</time>
      </trkpt>
      <trkpt lat="47.69063" lon="-3.38212">
        <ele>-7.55</ele>
        <time>2013-02-10T09:04:43Z</time>
      </trkpt>
      <trkpt lat="47.69065" lon="-3.38233">
        <ele>-7.07</ele>
        <time>2013-02-10T09:04:49Z</time>
      </trkpt>
      <trkpt lat="47.69066" lon="-3.38254">
        <ele>-7.07</ele>
        <time>2013-02-10T09:04:55Z</time>
      </trkpt>
      <trkpt lat="47.69071" lon="-3.38279">
        <ele>-6.59</ele>
        <time>2013-02-10T09:05:02Z</time>
      </trkpt>
      <trkpt lat="47.69076" lon="-3.38309">
        <ele>-7.07</ele>
        <time>2013-02-10T09:05:10Z</time>
      </trkpt>
      <trkpt lat="47.69086" lon="-3.38334">
        <ele>-7.07</ele>
        <time>2013-02-10T09:05:17Z</time>
      </trkpt>
      <trkpt lat="47.69092" lon="-3.38362">
        <ele>-7.07</ele>
        <time>2013-02-10T09:05:24Z</time>
      </trkpt>
      <trkpt lat="47.69095" lon="-3.38396">
        <ele>-7.07</ele>
        <time>2013-02-10T09:05:32Z</time>
      </trkpt>
      <trkpt lat="47.691" lon="-3.38417">
        <ele>-7.07</ele>
        <time>2013-02-10T09:05:37Z</time>
      </trkpt>
      <trkpt lat="47.69103" lon="-3.38443">
        <ele>-7.07</ele>
        <time>2013-02-10T09:05:43Z</time>
      </trkpt>
      <trkpt lat="47.69108" lon="-3.38495">
        <ele>-7.55</ele>
        <time>2013-02-10T09:05:54Z</time>
      </trkpt>
      <trkpt lat="47.69111" lon="-3.38534">
        <ele>-7.55</ele>
        <time>2013-02-10T09:06:02Z</time>
      </trkpt>
      <trkpt lat="47.69115" lon="-3.38569">
        <ele>-7.55</ele>
        <time>2013-02-10T09:06:09Z</time>
      </trkpt>
      <trkpt lat="47.69117" lon="-3.38612">
        <ele>-7.55</ele>
        <time>2013-02-10T09:06:18Z</time>
      </trkpt>
      <trkpt lat="47.69119" lon="-3.38644">
        <ele>-7.07</ele>
        <time>2013-02-10T09:06:25Z</time>
      </trkpt>
      <trkpt lat="47.69119" lon="-3.38676">
        <ele>-7.07</ele>
        <time>2013-02-10T09:06:32Z</time>
      </trkpt>
      <trkpt lat="47.69121" lon="-3.38713">
        <ele>-7.55</ele>
        <time>2013-02-10T09:06:40Z</time>
      </trkpt>
      <trkpt lat="47.69122" lon="-3.38753">
        <ele>-7.07</ele>
        <time>2013-02-10T09:06:49Z</time>
      </trkpt>
      <trkpt lat="47.69122" lon="-3.38799">
        <ele>-6.59</ele>
        <time>2013-02-10T09:06:59Z</time>
      </trkpt>
      <trkpt lat="47.69123" lon="-3.3885">
        <ele>-7.07</ele>
        <time>2013-02-10T09:07:10Z</time>
      </trkpt>
      <trkpt lat="47.69125" lon="-3.38887">
        <ele>-7.07</ele>
        <time>2013-02-10T09:07:18Z</time>
      </trkpt>
      <trkpt lat="47.69126" lon="-3.3891">
        <ele>-7.55</ele>
        <time>2013-02-10T09:07:24Z</time>
      </trkpt>
      <trkpt lat="47.69131" lon="-3.38946">
        <ele>-7.55</ele>
        <time>2013-02-10T09:07:32Z</time>
      </trkpt>
      <trkpt lat="47.69137" lon="-3.38978">
        <ele>-6.59</ele>
        <time>2013-02-10T09:07:39Z</time>
      </trkpt>
      <trkpt lat="47.69141" lon="-3.39009">
        <ele>-7.07</ele>
        <time>2013-02-10T09:07:46Z</time>
      </trkpt>
      <trkpt lat="47.69149" lon="-3.39058">
        <ele>-7.07</ele>
        <time>2013-02-10T09:07:57Z</time>
      </trkpt>
      <trkpt lat="47.69154" lon="-3.39095">
        <ele>-6.59</ele>
        <time>2013-02-10T09:08:05Z</time>
      </trkpt>
      <trkpt lat="47.69157" lon="-3.39116">
        <ele>-8.03</ele>
        <time>2013-02-10T09:08:10Z</time>
      </trkpt>
      <trkpt lat="47.69159" lon="-3.39145">
        <ele>-7.55</ele>
        <time>2013-02-10T09:08:17Z</time>
      </trkpt>
      <trkpt lat="47.69162" lon="-3.39182">
        <ele>-7.07</ele>
        <time>2013-02-10T09:08:26Z</time>
      </trkpt>
      <trkpt lat="47.69163" lon="-3.39206">
        <ele>-7.07</ele>
        <time>2013-02-10T09:08:32Z</time>
      </trkpt>
      <trkpt lat="47.69165" lon="-3.39215">
        <ele>-7.07</ele>
        <time>2013-02-10T09:08:34Z</time>
      </trkpt>
      <trkpt lat="47.69172" lon="-3.39246">
        <ele>-7.07</ele>
        <time>2013-02-10T09:08:42Z</time>
      </trkpt>
      <trkpt lat="47.69177" lon="-3.39284">
        <ele>-7.07</ele>
        <time>2013-02-10T09:08:51Z</time>
      </trkpt>
      <trkpt lat="47.69185" lon="-3.39322">
        <ele>-7.07</ele>
        <time>2013-02-10T09:08:59Z</time>
      </trkpt>
      <trkpt lat="47.69191" lon="-3.39356">
        <ele>-8.03</ele>
        <time>2013-02-10T09:09:06Z</time>
      </trkpt>
      <trkpt lat="47.69198" lon="-3.39388">
        <ele>-8.03</ele>
        <time>2013-02-10T09:09:13Z</time>
      </trkpt>
      <trkpt lat="47.69214" lon="-3.39421">
        <ele>-7.55</ele>
        <time>2013-02-10T09:09:21Z</time>
      </trkpt>
      <trkpt lat="47.69233" lon="-3.39457">
        <ele>-7.07</ele>
        <time>2013-02-10T09:09:30Z</time>
      </trkpt>
      <trkpt lat="47.69243" lon="-3.39489">
        <ele>-7.55</ele>
        <time>2013-02-10T09:09:37Z</time>
      </trkpt>
      <trkpt lat="47.69251" lon="-3.39531">
        <ele>-7.07</ele>
        <time>2013-02-10T09:09:46Z</time>
      </trkpt>
      <trkpt lat="47.69258" lon="-3.39575">
        <ele>-7.07</ele>
        <time>2013-02-10T09:09:55Z</time>
      </trkpt>
      <trkpt lat="47.69262" lon="-3.39604">
        <ele>-7.07</ele>
        <time>2013-02-10T09:10:01Z</time>
      </trkpt>
      <trkpt lat="47.69269" lon="-3.39657">
        <ele>-7.07</ele>
        <time>2013-02-10T09:10:12Z</time>
      </trkpt>
      <trkpt lat="47.69274" lon="-3.39695">
        <ele>-7.55</ele>
        <time>2013-02-10T09:10:20Z</time>
      </trkpt>
      <trkpt lat="47.69279" lon="-3.39723">
        <ele>-7.07</ele>
        <time>2013-02-10T09:10:26Z</time>
      </trkpt>
      <trkpt lat="47.69282" lon="-3.3975">
        <ele>-7.55</ele>
        <time>2013-02-10T09:10:32Z</time>
      </trkpt>
      <trkpt lat="47.6929" lon="-3.39795">
        <ele>-7.55</ele>
        <time>2013-02-10T09:10:42Z</time>
      </trkpt>
      <trkpt lat="47.693" lon="-3.3984">
        <ele>-7.55</ele>
        <time>2013-02-10T09:10:52Z</time>
      </trkpt>
      <trkpt lat="47.69307" lon="-3.39866">
        <ele>-8.03</ele>
        <time>2013-02-10T09:10:58Z</time>
      </trkpt>
      <trkpt lat="47.69314" lon="-3.39891">
        <ele>-7.55</ele>
        <time>2013-02-10T09:11:04Z</time>
      </trkpt>
      <trkpt lat="47.69319" lon="-3.39922">
        <ele>-7.55</ele>
        <time>2013-02-10T09:11:11Z</time>
      </trkpt>
      <trkpt lat="47.69325" lon="-3.39956">
        <ele>-8.03</ele>
        <time>2013-02-10T09:11:19Z</time>
      </trkpt>
      <trkpt lat="47.6933" lon="-3.3998">
        <ele>-7.55</ele>
        <time>2013-02-10T09:11:24Z</time>
      </trkpt>
      <trkpt lat="47.69336" lon="-3.4001">
        <ele>-7.55</ele>
        <time>2013-02-10T09:11:31Z</time>
      </trkpt>
      <trkpt lat="47.69336" lon="-3.40014">
        <ele>-8.03</ele>
        <time>2013-02-10T09:11:32Z</time>
      </trkpt>
      <trkpt lat="47.69343" lon="-3.40055">
        <ele>-8.03</ele>
        <time>2013-02-10T09:11:42Z</time>
      </trkpt>
      <trkpt lat="47.69349" lon="-3.40093">
        <ele>-7.55</ele>
        <time>2013-02-10T09:11:50Z</time>
      </trkpt>
      <trkpt lat="47.69355" lon="-3.40126">
        <ele>-6.59</ele>
        <time>2013-02-10T09:11:57Z</time>
      </trkpt>
      <trkpt lat="47.69359" lon="-3.40156">
        <ele>-5.63</ele>
        <time>2013-02-10T09:12:03Z</time>
      </trkpt>
      <trkpt lat="47.69367" lon="-3.40211">
        <ele>-6.59</ele>
        <time>2013-02-10T09:12:14Z</time>
      </trkpt>
      <trkpt lat="47.69377" lon="-3.40255">
        <ele>-6.59</ele>
        <time>2013-02-10T09:12:23Z</time>
      </trkpt>
      <trkpt lat="47.6938" lon="-3.40293">
        <ele>-7.07</ele>
        <time>2013-02-10T09:12:32Z</time>
      </trkpt>
      <trkpt lat="47.69385" lon="-3.40318">
        <ele>-6.59</ele>
        <time>2013-02-10T09:12:38Z</time>
      </trkpt>
      <trkpt lat="47.69391" lon="-3.40343">
        <ele>-6.11</ele>
        <time>2013-02-10T09:12:43Z</time>
      </trkpt>
      <trkpt lat="47.69394" lon="-3.40374">
        <ele>-7.07</ele>
        <time>2013-02-10T09:12:50Z</time>
      </trkpt>
      <trkpt lat="47.69393" lon="-3.40405">
        <ele>-7.55</ele>
        <time>2013-02-10T09:12:58Z</time>
      </trkpt>
      <trkpt lat="47.69386" lon="-3.4041">
        <ele>-7.07</ele>
        <time>2013-02-10T09:13:03Z</time>
      </trkpt>
      <trkpt lat="47.69374" lon="-3.40408">
        <ele>-5.63</ele>
        <time>2013-02-10T09:13:10Z</time>
      </trkpt>
      <trkpt lat="47.69361" lon="-3.4041">
        <ele>-5.15</ele>
        <time>2013-02-10T09:13:16Z</time>
      </trkpt>
      <trkpt lat="47.69343" lon="-3.40415">
        <ele>-6.11</ele>
        <time>2013-02-10T09:13:23Z</time>
      </trkpt>
      <trkpt lat="47.69326" lon="-3.40419">
        <ele>-6.59</ele>
        <time>2013-02-10T09:13:29Z</time>
      </trkpt>
      <trkpt lat="47.69304" lon="-3.40421">
        <ele>-7.07</ele>
        <time>2013-02-10T09:13:36Z</time>
      </trkpt>
      <trkpt lat="47.69284" lon="-3.40426">
        <ele>-7.07</ele>
        <time>2013-02-10T09:13:43Z</time>
      </trkpt>
      <trkpt lat="47.69262" lon="-3.40436">
        <ele>-7.55</ele>
        <time>2013-02-10T09:13:51Z</time>
      </trkpt>
      <trkpt lat="47.6924" lon="-3.40447">
        <ele>-8.51</ele>
        <time>2013-02-10T09:13:59Z</time>
      </trkpt>
      <trkpt lat="47.69222" lon="-3.40451">
        <ele>-8.51</ele>
        <time>2013-02-10T09:14:05Z</time>
      </trkpt>
      <trkpt lat="47.69194" lon="-3.40459">
        <ele>-8.51</ele>
        <time>2013-02-10T09:14:15Z</time>
      </trkpt>
      <trkpt lat="47.69171" lon="-3.40467">
        <ele>-8.03</ele>
        <time>2013-02-10T09:14:23Z</time>
      </trkpt>
      <trkpt lat="47.69152" lon="-3.40477">
        <ele>-8.51</ele>
        <time>2013-02-10T09:14:30Z</time>
      </trkpt>
      <trkpt lat="47.69124" lon="-3.40483">
        <ele>-8.03</ele>
        <time>2013-02-10T09:14:40Z</time>
      </trkpt>
      <trkpt lat="47.69103" lon="-3.40487">
        <ele>-8.03</ele>
        <time>2013-02-10T09:14:47Z</time>
      </trkpt>
      <trkpt lat="47.69079" lon="-3.40491">
        <ele>-8.03</ele>
        <time>2013-02-10T09:14:55Z</time>
      </trkpt>
      <trkpt lat="47.69049" lon="-3.40495">
        <ele>-8.03</ele>
        <time>2013-02-10T09:15:05Z</time>
      </trkpt>
      <trkpt lat="47.69021" lon="-3.40501">
        <ele>-8.03</ele>
        <time>2013-02-10T09:15:14Z</time>
      </trkpt>
      <trkpt lat="47.69002" lon="-3.40503">
        <ele>-9.48</ele>
        <time>2013-02-10T09:15:20Z</time>
      </trkpt>
      <trkpt lat="47.68974" lon="-3.40508">
        <ele>-9</ele>
        <time>2013-02-10T09:15:29Z</time>
      </trkpt>
      <trkpt lat="47.6895" lon="-3.40517">
        <ele>-9</ele>
        <time>2013-02-10T09:15:37Z</time>
      </trkpt>
      <trkpt lat="47.68926" lon="-3.40521">
        <ele>-8.51</ele>
        <time>2013-02-10T09:15:45Z</time>
      </trkpt>
      <trkpt lat="47.68894" lon="-3.40524">
        <ele>-9</ele>
        <time>2013-02-10T09:15:55Z</time>
      </trkpt>
      <trkpt lat="47.68862" lon="-3.40529">
        <ele>-8.51</ele>
        <time>2013-02-10T09:16:05Z</time>
      </trkpt>
      <trkpt lat="47.6884" lon="-3.40532">
        <ele>-8.51</ele>
        <time>2013-02-10T09:16:12Z</time>
      </trkpt>
      <trkpt lat="47.68822" lon="-3.40535">
        <ele>-9</ele>
        <time>2013-02-10T09:16:18Z</time>
      </trkpt>
      <trkpt lat="47.68797" lon="-3.40537">
        <ele>-8.03</ele>
        <time>2013-02-10T09:16:26Z</time>
      </trkpt>
      <trkpt lat="47.68775" lon="-3.40536">
        <ele>-9</ele>
        <time>2013-02-10T09:16:33Z</time>
      </trkpt>
      <trkpt lat="47.68744" lon="-3.40539">
        <ele>-8.03</ele>
        <time>2013-02-10T09:16:43Z</time>
      </trkpt>
      <trkpt lat="47.68716" lon="-3.40537">
        <ele>-8.03</ele>
        <time>2013-02-10T09:16:52Z</time>
      </trkpt>
      <trkpt lat="47.68689" lon="-3.40537">
        <ele>-9</ele>
        <time>2013-02-10T09:17:01Z</time>
      </trkpt>
      <trkpt lat="47.6866" lon="-3.40546">
        <ele>-8.51</ele>
        <time>2013-02-10T09:17:11Z</time>
      </trkpt>
      <trkpt lat="47.68633" lon="-3.40549">
        <ele>-9</ele>
        <time>2013-02-10T09:17:20Z</time>
      </trkpt>
      <trkpt lat="47.68605" lon="-3.40552">
        <ele>-8.03</ele>
        <time>2013-02-10T09:17:29Z</time>
      </trkpt>
      <trkpt lat="47.68587" lon="-3.40555">
        <ele>-8.03</ele>
        <time>2013-02-10T09:17:35Z</time>
      </trkpt>
      <trkpt lat="47.68563" lon="-3.40561">
        <ele>-10.44</ele>
        <time>2013-02-10T09:17:43Z</time>
      </trkpt>
      <trkpt lat="47.68538" lon="-3.40564">
        <ele>-10.92</ele>
        <time>2013-02-10T09:17:51Z</time>
      </trkpt>
      <trkpt lat="47.68515" lon="-3.40562">
        <ele>-10.92</ele>
        <time>2013-02-10T09:17:58Z</time>
      </trkpt>
      <trkpt lat="47.6849" lon="-3.40568">
        <ele>-9.96</ele>
        <time>2013-02-10T09:18:06Z</time>
      </trkpt>
      <trkpt lat="47.68468" lon="-3.40575">
        <ele>-9.48</ele>
        <time>2013-02-10T09:18:13Z</time>
      </trkpt>
      <trkpt lat="47.68441" lon="-3.40577">
        <ele>-9.48</ele>
        <time>2013-02-10T09:18:22Z</time>
      </trkpt>
      <trkpt lat="47.68419" lon="-3.40578">
        <ele>-9.48</ele>
        <time>2013-02-10T09:18:29Z</time>
      </trkpt>
      <trkpt lat="47.68395" lon="-3.40584">
        <ele>-10.44</ele>
        <time>2013-02-10T09:18:37Z</time>
      </trkpt>
      <trkpt lat="47.68371" lon="-3.40589">
        <ele>-9.48</ele>
        <time>2013-02-10T09:18:45Z</time>
      </trkpt>
      <trkpt lat="47.68344" lon="-3.40592">
        <ele>-10.44</ele>
        <time>2013-02-10T09:18:54Z</time>
      </trkpt>
      <trkpt lat="47.68316" lon="-3.40592">
        <ele>-9.96</ele>
        <time>2013-02-10T09:19:03Z</time>
      </trkpt>
      <trkpt lat="47.68299" lon="-3.40595">
        <ele>-9.96</ele>
        <time>2013-02-10T09:19:09Z</time>
      </trkpt>
      <trkpt lat="47.68269" lon="-3.40597">
        <ele>-9.96</ele>
        <time>2013-02-10T09:19:19Z</time>
      </trkpt>
      <trkpt lat="47.68248" lon="-3.40599">
        <ele>-9.48</ele>
        <time>2013-02-10T09:19:26Z</time>
      </trkpt>
      <trkpt lat="47.6823" lon="-3.40602">
        <ele>-9.48</ele>
        <time>2013-02-10T09:19:32Z</time>
      </trkpt>
      <trkpt lat="47.68202" lon="-3.40607">
        <ele>-8.03</ele>
        <time>2013-02-10T09:19:41Z</time>
      </trkpt>
      <trkpt lat="47.68176" lon="-3.40608">
        <ele>-7.55</ele>
        <time>2013-02-10T09:19:49Z</time>
      </trkpt>
      <trkpt lat="47.68153" lon="-3.4061">
        <ele>-8.51</ele>
        <time>2013-02-10T09:19:57Z</time>
      </trkpt>
      <trkpt lat="47.68128" lon="-3.40614">
        <ele>-7.55</ele>
        <time>2013-02-10T09:20:05Z</time>
      </trkpt>
      <trkpt lat="47.6811" lon="-3.40615">
        <ele>-7.55</ele>
        <time>2013-02-10T09:20:11Z</time>
      </trkpt>
      <trkpt lat="47.68097" lon="-3.40622">
        <ele>-6.11</ele>
        <time>2013-02-10T09:20:16Z</time>
      </trkpt>
      <trkpt lat="47.6808" lon="-3.40639">
        <ele>-6.11</ele>
        <time>2013-02-10T09:20:24Z</time>
      </trkpt>
      <trkpt lat="47.6808" lon="-3.40649">
        <ele>-5.63</ele>
        <time>2013-02-10T09:20:28Z</time>
      </trkpt>
      <trkpt lat="47.68089" lon="-3.40673">
        <ele>-8.03</ele>
        <time>2013-02-10T09:20:37Z</time>
      </trkpt>
      <trkpt lat="47.68093" lon="-3.40691">
        <ele>-3.71</ele>
        <time>2013-02-10T09:20:43Z</time>
      </trkpt>
      <trkpt lat="47.68095" lon="-3.40708">
        <ele>-1.3</ele>
        <time>2013-02-10T09:20:49Z</time>
      </trkpt>
      <trkpt lat="47.68101" lon="-3.40724">
        <ele>-1.79</ele>
        <time>2013-02-10T09:20:55Z</time>
      </trkpt>
      <trkpt lat="47.68108" lon="-3.40749">
        <ele>-3.71</ele>
        <time>2013-02-10T09:21:02Z</time>
      </trkpt>
      <trkpt lat="47.68113" lon="-3.40772">
        <ele>-4.19</ele>
        <time>2013-02-10T09:21:08Z</time>
      </trkpt>
      <trkpt lat="47.68118" lon="-3.40794">
        <ele>-4.19</ele>
        <time>2013-02-10T09:21:14Z</time>
      </trkpt>
      <trkpt lat="47.68122" lon="-3.40812">
        <ele>-4.67</ele>
        <time>2013-02-10T09:21:19Z</time>
      </trkpt>
      <trkpt lat="47.68129" lon="-3.40844">
        <ele>-5.63</ele>
        <time>2013-02-10T09:21:27Z</time>
      </trkpt>
      <trkpt lat="47.68133" lon="-3.40869">
        <ele>-5.63</ele>
        <time>2013-02-10T09:21:33Z</time>
      </trkpt>
      <trkpt lat="47.68141" lon="-3.40896">
        <ele>-6.11</ele>
        <time>2013-02-10T09:21:40Z</time>
      </trkpt>
      <trkpt lat="47.68146" lon="-3.40921">
        <ele>-5.63</ele>
        <time>2013-02-10T09:21:46Z</time>
      </trkpt>
      <trkpt lat="47.68151" lon="-3.40953">
        <ele>-6.11</ele>
        <time>2013-02-10T09:21:53Z</time>
      </trkpt>
      <trkpt lat="47.68159" lon="-3.40989">
        <ele>-6.11</ele>
        <time>2013-02-10T09:22:01Z</time>
      </trkpt>
      <trkpt lat="47.68165" lon="-3.41014">
        <ele>-6.11</ele>
        <time>2013-02-10T09:22:07Z</time>
      </trkpt>
      <trkpt lat="47.68179" lon="-3.4105">
        <ele>-7.07</ele>
        <time>2013-02-10T09:22:16Z</time>
      </trkpt>
      <trkpt lat="47.68189" lon="-3.4107">
        <ele>-7.55</ele>
        <time>2013-02-10T09:22:22Z</time>
      </trkpt>
      <trkpt lat="47.68196" lon="-3.41101">
        <ele>-7.55</ele>
        <time>2013-02-10T09:22:30Z</time>
      </trkpt>
      <trkpt lat="47.68199" lon="-3.41113">
        <ele>-7.07</ele>
        <time>2013-02-10T09:22:33Z</time>
      </trkpt>
      <trkpt lat="47.68203" lon="-3.41134">
        <ele>-6.11</ele>
        <time>2013-02-10T09:22:37Z</time>
      </trkpt>
      <trkpt lat="47.6821" lon="-3.41153">
        <ele>-6.11</ele>
        <time>2013-02-10T09:22:42Z</time>
      </trkpt>
      <trkpt lat="47.68219" lon="-3.4118">
        <ele>-6.59</ele>
        <time>2013-02-10T09:22:49Z</time>
      </trkpt>
      <trkpt lat="47.6823" lon="-3.41215">
        <ele>-6.59</ele>
        <time>2013-02-10T09:22:58Z</time>
      </trkpt>
      <trkpt lat="47.68239" lon="-3.41259">
        <ele>-6.59</ele>
        <time>2013-02-10T09:23:08Z</time>
      </trkpt>
      <trkpt lat="47.68246" lon="-3.41286">
        <ele>-6.59</ele>
        <time>2013-02-10T09:23:14Z</time>
      </trkpt>
      <trkpt lat="47.68253" lon="-3.41317">
        <ele>-6.11</ele>
        <time>2013-02-10T09:23:21Z</time>
      </trkpt>
      <trkpt lat="47.68258" lon="-3.41338">
        <ele>-6.59</ele>
        <time>2013-02-10T09:23:26Z</time>
      </trkpt>
      <trkpt lat="47.68266" lon="-3.41377">
        <ele>-7.07</ele>
        <time>2013-02-10T09:23:35Z</time>
      </trkpt>
      <trkpt lat="47.6828" lon="-3.41428">
        <ele>-7.07</ele>
        <time>2013-02-10T09:23:46Z</time>
      </trkpt>
      <trkpt lat="47.68286" lon="-3.41453">
        <ele>-7.07</ele>
        <time>2013-02-10T09:23:52Z</time>
      </trkpt>
      <trkpt lat="47.68293" lon="-3.41478">
        <ele>-7.55</ele>
        <time>2013-02-10T09:23:58Z</time>
      </trkpt>
      <trkpt lat="47.68296" lon="-3.41496">
        <ele>-7.55</ele>
        <time>2013-02-10T09:24:03Z</time>
      </trkpt>
      <trkpt lat="47.68298" lon="-3.41512">
        <ele>-8.03</ele>
        <time>2013-02-10T09:24:07Z</time>
      </trkpt>
      <trkpt lat="47.68299" lon="-3.4153">
        <ele>-8.51</ele>
        <time>2013-02-10T09:24:12Z</time>
      </trkpt>
      <trkpt lat="47.68307" lon="-3.41564">
        <ele>-8.03</ele>
        <time>2013-02-10T09:24:21Z</time>
      </trkpt>
      <trkpt lat="47.68312" lon="-3.41594">
        <ele>-8.03</ele>
        <time>2013-02-10T09:24:29Z</time>
      </trkpt>
      <trkpt lat="47.68315" lon="-3.41619">
        <ele>-8.03</ele>
        <time>2013-02-10T09:24:36Z</time>
      </trkpt>
      <trkpt lat="47.68319" lon="-3.41646">
        <ele>-8.03</ele>
        <time>2013-02-10T09:24:43Z</time>
      </trkpt>
      <trkpt lat="47.68324" lon="-3.41672">
        <ele>-6.11</ele>
        <time>2013-02-10T09:24:50Z</time>
      </trkpt>
      <trkpt lat="47.6833" lon="-3.41694">
        <ele>-6.11</ele>
        <time>2013-02-10T09:24:56Z</time>
      </trkpt>
      <trkpt lat="47.68337" lon="-3.41729">
        <ele>-8.51</ele>
        <time>2013-02-10T09:25:05Z</time>
      </trkpt>
      <trkpt lat="47.6833" lon="-3.41738">
        <ele>-8.51</ele>
        <time>2013-02-10T09:25:11Z</time>
      </trkpt>
      <trkpt lat="47.68328" lon="-3.41738">
        <ele>-8.51</ele>
        <time>2013-02-10T09:25:13Z</time>
      </trkpt>
      <trkpt lat="47.68314" lon="-3.41728">
        <ele>-9</ele>
        <time>2013-02-10T09:25:21Z</time>
      </trkpt>
      <trkpt lat="47.68298" lon="-3.41717">
        <ele>-8.03</ele>
        <time>2013-02-10T09:25:27Z</time>
      </trkpt>
      <trkpt lat="47.68295" lon="-3.41715">
        <ele>-8.51</ele>
        <time>2013-02-10T09:25:28Z</time>
      </trkpt>
      <trkpt lat="47.68278" lon="-3.41703">
        <ele>-8.03</ele>
        <time>2013-02-10T09:25:34Z</time>
      </trkpt>
      <trkpt lat="47.68265" lon="-3.41684">
        <ele>-8.03</ele>
        <time>2013-02-10T09:25:41Z</time>
      </trkpt>
      <trkpt lat="47.68251" lon="-3.41666">
        <ele>-8.03</ele>
        <time>2013-02-10T09:25:48Z</time>
      </trkpt>
      <trkpt lat="47.68242" lon="-3.41647">
        <ele>-7.55</ele>
        <time>2013-02-10T09:25:53Z</time>
      </trkpt>
      <trkpt lat="47.68237" lon="-3.41635">
        <ele>-7.55</ele>
        <time>2013-02-10T09:25:56Z</time>
      </trkpt>
      <trkpt lat="47.68224" lon="-3.41597">
        <ele>-8.03</ele>
        <time>2013-02-10T09:26:05Z</time>
      </trkpt>
      <trkpt lat="47.68211" lon="-3.4157">
        <ele>-8.03</ele>
        <time>2013-02-10T09:26:12Z</time>
      </trkpt>
      <trkpt lat="47.68205" lon="-3.41539">
        <ele>-7.55</ele>
        <time>2013-02-10T09:26:19Z</time>
      </trkpt>
      <trkpt lat="47.68198" lon="-3.41513">
        <ele>-8.51</ele>
        <time>2013-02-10T09:26:25Z</time>
      </trkpt>
      <trkpt lat="47.68192" lon="-3.41481">
        <ele>-8.51</ele>
        <time>2013-02-10T09:26:32Z</time>
      </trkpt>
      <trkpt lat="47.68187" lon="-3.41461">
        <ele>-8.03</ele>
        <time>2013-02-10T09:26:37Z</time>
      </trkpt>
      <trkpt lat="47.68181" lon="-3.41422">
        <ele>-8.51</ele>
        <time>2013-02-10T09:26:45Z</time>
      </trkpt>
      <trkpt lat="47.68174" lon="-3.41388">
        <ele>-8.51</ele>
        <time>2013-02-10T09:26:53Z</time>
      </trkpt>
      <trkpt lat="47.68171" lon="-3.4135">
        <ele>-8.51</ele>
        <time>2013-02-10T09:27:02Z</time>
      </trkpt>
      <trkpt lat="47.68171" lon="-3.4134">
        <ele>-8.51</ele>
        <time>2013-02-10T09:27:04Z</time>
      </trkpt>
      <trkpt lat="47.68162" lon="-3.41329">
        <ele>-7.55</ele>
        <time>2013-02-10T09:27:10Z</time>
      </trkpt>
      <trkpt lat="47.68152" lon="-3.41334">
        <ele>-7.07</ele>
        <time>2013-02-10T09:27:16Z</time>
      </trkpt>
      <trkpt lat="47.68145" lon="-3.41337">
        <ele>-8.03</ele>
        <time>2013-02-10T09:27:20Z</time>
      </trkpt>
      <trkpt lat="47.68137" lon="-3.41345">
        <ele>-9</ele>
        <time>2013-02-10T09:27:27Z</time>
      </trkpt>
      <trkpt lat="47.68135" lon="-3.41351">
        <ele>-7.07</ele>
        <time>2013-02-10T09:27:33Z</time>
      </trkpt>
      <trkpt lat="47.68135" lon="-3.41354">
        <ele>-5.63</ele>
        <time>2013-02-10T09:27:38Z</time>
      </trkpt>
      <trkpt lat="47.68141" lon="-3.41366">
        <ele>-6.59</ele>
        <time>2013-02-10T09:27:44Z</time>
      </trkpt>
      <trkpt lat="47.68147" lon="-3.41372">
        <ele>-7.55</ele>
        <time>2013-02-10T09:27:49Z</time>
      </trkpt>
      <trkpt lat="47.68152" lon="-3.41391">
        <ele>-7.55</ele>
        <time>2013-02-10T09:27:57Z</time>
      </trkpt>
      <trkpt lat="47.68159" lon="-3.41414">
        <ele>-8.03</ele>
        <time>2013-02-10T09:28:05Z</time>
      </trkpt>
      <trkpt lat="47.68165" lon="-3.41442">
        <ele>-8.03</ele>
        <time>2013-02-10T09:28:13Z</time>
      </trkpt>
      <trkpt lat="47.68172" lon="-3.41482">
        <ele>-8.51</ele>
        <time>2013-02-10T09:28:23Z</time>
      </trkpt>
      <trkpt lat="47.68173" lon="-3.41499">
        <ele>-9.48</ele>
        <time>2013-02-10T09:28:28Z</time>
      </trkpt>
      <trkpt lat="47.68173" lon="-3.41518">
        <ele>-9.48</ele>
        <time>2013-02-10T09:28:33Z</time>
      </trkpt>
      <trkpt lat="47.68168" lon="-3.41525">
        <ele>-11.4</ele>
        <time>2013-02-10T09:28:38Z</time>
      </trkpt>
      <trkpt lat="47.68167" lon="-3.41526">
        <ele>-11.88</ele>
        <time>2013-02-10T09:28:40Z</time>
      </trkpt>
      <trkpt lat="47.68158" lon="-3.41518">
        <ele>-12.36</ele>
        <time>2013-02-10T09:28:46Z</time>
      </trkpt>
      <trkpt lat="47.68146" lon="-3.415">
        <ele>-11.4</ele>
        <time>2013-02-10T09:28:52Z</time>
      </trkpt>
      <trkpt lat="47.68139" lon="-3.41472">
        <ele>-11.4</ele>
        <time>2013-02-10T09:28:59Z</time>
      </trkpt>
      <trkpt lat="47.6813" lon="-3.41443">
        <ele>-9.96</ele>
        <time>2013-02-10T09:29:06Z</time>
      </trkpt>
      <trkpt lat="47.68124" lon="-3.41419">
        <ele>-9.96</ele>
        <time>2013-02-10T09:29:12Z</time>
      </trkpt>
      <trkpt lat="47.68114" lon="-3.4139">
        <ele>-10.92</ele>
        <time>2013-02-10T09:29:20Z</time>
      </trkpt>
      <trkpt lat="47.68107" lon="-3.4136">
        <ele>-11.4</ele>
        <time>2013-02-10T09:29:27Z</time>
      </trkpt>
      <trkpt lat="47.681" lon="-3.41321">
        <ele>-10.44</ele>
        <time>2013-02-10T09:29:35Z</time>
      </trkpt>
      <trkpt lat="47.68093" lon="-3.41293">
        <ele>-8.51</ele>
        <time>2013-02-10T09:29:42Z</time>
      </trkpt>
      <trkpt lat="47.68083" lon="-3.41252">
        <ele>-8.51</ele>
        <time>2013-02-10T09:29:52Z</time>
      </trkpt>
      <trkpt lat="47.68075" lon="-3.41216">
        <ele>-9</ele>
        <time>2013-02-10T09:30:00Z</time>
      </trkpt>
      <trkpt lat="47.6807" lon="-3.41188">
        <ele>-7.55</ele>
        <time>2013-02-10T09:30:06Z</time>
      </trkpt>
      <trkpt lat="47.68067" lon="-3.41159">
        <ele>-9</ele>
        <time>2013-02-10T09:30:12Z</time>
      </trkpt>
      <trkpt lat="47.68059" lon="-3.41133">
        <ele>-9.48</ele>
        <time>2013-02-10T09:30:18Z</time>
      </trkpt>
      <trkpt lat="47.68052" lon="-3.41098">
        <ele>-9</ele>
        <time>2013-02-10T09:30:25Z</time>
      </trkpt>
      <trkpt lat="47.68049" lon="-3.41072">
        <ele>-9</ele>
        <time>2013-02-10T09:30:31Z</time>
      </trkpt>
      <trkpt lat="47.68045" lon="-3.41041">
        <ele>-9.48</ele>
        <time>2013-02-10T09:30:38Z</time>
      </trkpt>
      <trkpt lat="47.68042" lon="-3.41014">
        <ele>-9.48</ele>
        <time>2013-02-10T09:30:44Z</time>
      </trkpt>
      <trkpt lat="47.68036" lon="-3.40988">
        <ele>-9.48</ele>
        <time>2013-02-10T09:30:50Z</time>
      </trkpt>
      <trkpt lat="47.68025" lon="-3.40953">
        <ele>-9.96</ele>
        <time>2013-02-10T09:30:58Z</time>
      </trkpt>
      <trkpt lat="47.68024" lon="-3.40929">
        <ele>-10.44</ele>
        <time>2013-02-10T09:31:02Z</time>
      </trkpt>
      <trkpt lat="47.6802" lon="-3.409">
        <ele>-13.32</ele>
        <time>2013-02-10T09:31:09Z</time>
      </trkpt>
      <trkpt lat="47.68016" lon="-3.40872">
        <ele>-15.24</ele>
        <time>2013-02-10T09:31:16Z</time>
      </trkpt>
      <trkpt lat="47.68013" lon="-3.40846">
        <ele>-14.28</ele>
        <time>2013-02-10T09:31:22Z</time>
      </trkpt>
      <trkpt lat="47.6801" lon="-3.4083">
        <ele>-12.84</ele>
        <time>2013-02-10T09:31:27Z</time>
      </trkpt>
      <trkpt lat="47.68007" lon="-3.40794">
        <ele>-11.88</ele>
        <time>2013-02-10T09:31:35Z</time>
      </trkpt>
      <trkpt lat="47.68003" lon="-3.40755">
        <ele>-11.4</ele>
        <time>2013-02-10T09:31:43Z</time>
      </trkpt>
      <trkpt lat="47.67998" lon="-3.40722">
        <ele>-10.92</ele>
        <time>2013-02-10T09:31:50Z</time>
      </trkpt>
      <trkpt lat="47.67995" lon="-3.40687">
        <ele>-9.96</ele>
        <time>2013-02-10T09:31:57Z</time>
      </trkpt>
      <trkpt lat="47.67991" lon="-3.40653">
        <ele>-10.44</ele>
        <time>2013-02-10T09:32:04Z</time>
      </trkpt>
      <trkpt lat="47.67989" lon="-3.40617">
        <ele>-9.96</ele>
        <time>2013-02-10T09:32:12Z</time>
      </trkpt>
      <trkpt lat="47.67985" lon="-3.4058">
        <ele>-9.96</ele>
        <time>2013-02-10T09:32:20Z</time>
      </trkpt>
      <trkpt lat="47.67983" lon="-3.40547">
        <ele>-9</ele>
        <time>2013-02-10T09:32:27Z</time>
      </trkpt>
      <trkpt lat="47.67981" lon="-3.40511">
        <ele>-9.48</ele>
        <time>2013-02-10T09:32:35Z</time>
      </trkpt>
      <trkpt lat="47.67976" lon="-3.40473">
        <ele>-9.48</ele>
        <time>2013-02-10T09:32:43Z</time>
      </trkpt>
      <trkpt lat="47.6797" lon="-3.40429">
        <ele>-9.48</ele>
        <time>2013-02-10T09:32:52Z</time>
      </trkpt>
      <trkpt lat="47.67966" lon="-3.40392">
        <ele>-9.48</ele>
        <time>2013-02-10T09:33:00Z</time>
      </trkpt>
      <trkpt lat="47.67965" lon="-3.40353">
        <ele>-9.48</ele>
        <time>2013-02-10T09:33:08Z</time>
      </trkpt>
      <trkpt lat="47.67962" lon="-3.40308">
        <ele>-9.48</ele>
        <time>2013-02-10T09:33:17Z</time>
      </trkpt>
      <trkpt lat="47.67961" lon="-3.4027">
        <ele>-9.48</ele>
        <time>2013-02-10T09:33:25Z</time>
      </trkpt>
      <trkpt lat="47.67959" lon="-3.40232">
        <ele>-9</ele>
        <time>2013-02-10T09:33:33Z</time>
      </trkpt>
      <trkpt lat="47.67959" lon="-3.40193">
        <ele>-9</ele>
        <time>2013-02-10T09:33:41Z</time>
      </trkpt>
      <trkpt lat="47.67952" lon="-3.40151">
        <ele>-8.51</ele>
        <time>2013-02-10T09:33:50Z</time>
      </trkpt>
      <trkpt lat="47.6795" lon="-3.4011">
        <ele>-8.03</ele>
        <time>2013-02-10T09:33:59Z</time>
      </trkpt>
      <trkpt lat="47.67947" lon="-3.40068">
        <ele>-7.55</ele>
        <time>2013-02-10T09:34:07Z</time>
      </trkpt>
      <trkpt lat="47.67943" lon="-3.40028">
        <ele>-8.51</ele>
        <time>2013-02-10T09:34:16Z</time>
      </trkpt>
      <trkpt lat="47.6794" lon="-3.39993">
        <ele>-8.03</ele>
        <time>2013-02-10T09:34:24Z</time>
      </trkpt>
      <trkpt lat="47.67936" lon="-3.39958">
        <ele>-7.55</ele>
        <time>2013-02-10T09:34:31Z</time>
      </trkpt>
      <trkpt lat="47.6793" lon="-3.3991">
        <ele>-7.55</ele>
        <time>2013-02-10T09:34:41Z</time>
      </trkpt>
      <trkpt lat="47.67923" lon="-3.39862">
        <ele>-7.55</ele>
        <time>2013-02-10T09:34:51Z</time>
      </trkpt>
      <trkpt lat="47.67918" lon="-3.39815">
        <ele>-7.55</ele>
        <time>2013-02-10T09:35:01Z</time>
      </trkpt>
      <trkpt lat="47.67916" lon="-3.39762">
        <ele>-8.03</ele>
        <time>2013-02-10T09:35:12Z</time>
      </trkpt>
      <trkpt lat="47.67914" lon="-3.39725">
        <ele>-7.55</ele>
        <time>2013-02-10T09:35:20Z</time>
      </trkpt>
      <trkpt lat="47.67912" lon="-3.39688">
        <ele>-7.55</ele>
        <time>2013-02-10T09:35:28Z</time>
      </trkpt>
      <trkpt lat="47.6791" lon="-3.39645">
        <ele>-7.07</ele>
        <time>2013-02-10T09:35:37Z</time>
      </trkpt>
      <trkpt lat="47.67906" lon="-3.3961">
        <ele>-7.55</ele>
        <time>2013-02-10T09:35:45Z</time>
      </trkpt>
      <trkpt lat="47.67904" lon="-3.39567">
        <ele>-7.07</ele>
        <time>2013-02-10T09:35:54Z</time>
      </trkpt>
      <trkpt lat="47.67899" lon="-3.39517">
        <ele>-7.07</ele>
        <time>2013-02-10T09:36:04Z</time>
      </trkpt>
      <trkpt lat="47.67895" lon="-3.39473">
        <ele>-8.03</ele>
        <time>2013-02-10T09:36:13Z</time>
      </trkpt>
      <trkpt lat="47.67892" lon="-3.39433">
        <ele>-9</ele>
        <time>2013-02-10T09:36:21Z</time>
      </trkpt>
      <trkpt lat="47.67889" lon="-3.3939">
        <ele>-8.51</ele>
        <time>2013-02-10T09:36:30Z</time>
      </trkpt>
      <trkpt lat="47.67888" lon="-3.39352">
        <ele>-9</ele>
        <time>2013-02-10T09:36:37Z</time>
      </trkpt>
      <trkpt lat="47.67887" lon="-3.39312">
        <ele>-9.48</ele>
        <time>2013-02-10T09:36:45Z</time>
      </trkpt>
      <trkpt lat="47.67883" lon="-3.39273">
        <ele>-9.48</ele>
        <time>2013-02-10T09:36:53Z</time>
      </trkpt>
      <trkpt lat="47.67878" lon="-3.39228">
        <ele>-9</ele>
        <time>2013-02-10T09:37:03Z</time>
      </trkpt>
      <trkpt lat="47.67876" lon="-3.3919">
        <ele>-9.48</ele>
        <time>2013-02-10T09:37:11Z</time>
      </trkpt>
      <trkpt lat="47.67883" lon="-3.39157">
        <ele>-9</ele>
        <time>2013-02-10T09:37:19Z</time>
      </trkpt>
      <trkpt lat="47.6788" lon="-3.39123">
        <ele>-9</ele>
        <time>2013-02-10T09:37:27Z</time>
      </trkpt>
      <trkpt lat="47.67877" lon="-3.39084">
        <ele>-8.51</ele>
        <time>2013-02-10T09:37:36Z</time>
      </trkpt>
      <trkpt lat="47.67877" lon="-3.39044">
        <ele>-9</ele>
        <time>2013-02-10T09:37:45Z</time>
      </trkpt>
      <trkpt lat="47.67876" lon="-3.39">
        <ele>-9</ele>
        <time>2013-02-10T09:37:55Z</time>
      </trkpt>
      <trkpt lat="47.67873" lon="-3.38961">
        <ele>-9.48</ele>
        <time>2013-02-10T09:38:03Z</time>
      </trkpt>
      <trkpt lat="47.67871" lon="-3.38924">
        <ele>-9</ele>
        <time>2013-02-10T09:38:11Z</time>
      </trkpt>
      <trkpt lat="47.67867" lon="-3.38889">
        <ele>-9</ele>
        <time>2013-02-10T09:38:19Z</time>
      </trkpt>
      <trkpt lat="47.67864" lon="-3.38849">
        <ele>-9</ele>
        <time>2013-02-10T09:38:28Z</time>
      </trkpt>
      <trkpt lat="47.67863" lon="-3.38799">
        <ele>-8.51</ele>
        <time>2013-02-10T09:38:39Z</time>
      </trkpt>
      <trkpt lat="47.67863" lon="-3.38753">
        <ele>-8.03</ele>
        <time>2013-02-10T09:38:49Z</time>
      </trkpt>
      <trkpt lat="47.67861" lon="-3.38718">
        <ele>-8.51</ele>
        <time>2013-02-10T09:38:57Z</time>
      </trkpt>
      <trkpt lat="47.6786" lon="-3.38689">
        <ele>-8.51</ele>
        <time>2013-02-10T09:39:04Z</time>
      </trkpt>
      <trkpt lat="47.67859" lon="-3.38659">
        <ele>-8.51</ele>
        <time>2013-02-10T09:39:11Z</time>
      </trkpt>
      <trkpt lat="47.67859" lon="-3.38628">
        <ele>-8.51</ele>
        <time>2013-02-10T09:39:18Z</time>
      </trkpt>
      <trkpt lat="47.67857" lon="-3.38598">
        <ele>-8.51</ele>
        <time>2013-02-10T09:39:25Z</time>
      </trkpt>
      <trkpt lat="47.67854" lon="-3.38552">
        <ele>-8.03</ele>
        <time>2013-02-10T09:39:35Z</time>
      </trkpt>
      <trkpt lat="47.67857" lon="-3.38516">
        <ele>-8.51</ele>
        <time>2013-02-10T09:39:42Z</time>
      </trkpt>
      <trkpt lat="47.67855" lon="-3.3847">
        <ele>-9</ele>
        <time>2013-02-10T09:39:52Z</time>
      </trkpt>
      <trkpt lat="47.67853" lon="-3.38444">
        <ele>-5.63</ele>
        <time>2013-02-10T09:39:57Z</time>
      </trkpt>
      <trkpt lat="47.67849" lon="-3.38411">
        <ele>-5.15</ele>
        <time>2013-02-10T09:40:04Z</time>
      </trkpt>
      <trkpt lat="47.67851" lon="-3.38371">
        <ele>-6.11</ele>
        <time>2013-02-10T09:40:13Z</time>
      </trkpt>
      <trkpt lat="47.67854" lon="-3.38344">
        <ele>-5.15</ele>
        <time>2013-02-10T09:40:19Z</time>
      </trkpt>
      <trkpt lat="47.67858" lon="-3.38309">
        <ele>-4.67</ele>
        <time>2013-02-10T09:40:27Z</time>
      </trkpt>
      <trkpt lat="47.67862" lon="-3.38274">
        <ele>-6.11</ele>
        <time>2013-02-10T09:40:35Z</time>
      </trkpt>
      <trkpt lat="47.67861" lon="-3.38241">
        <ele>-6.11</ele>
        <time>2013-02-10T09:40:43Z</time>
      </trkpt>
      <trkpt lat="47.6786" lon="-3.38216">
        <ele>-5.63</ele>
        <time>2013-02-10T09:40:49Z</time>
      </trkpt>
      <trkpt lat="47.67858" lon="-3.38179">
        <ele>-5.63</ele>
        <time>2013-02-10T09:40:57Z</time>
      </trkpt>
      <trkpt lat="47.67859" lon="-3.38147">
        <ele>-7.07</ele>
        <time>2013-02-10T09:41:04Z</time>
      </trkpt>
      <trkpt lat="47.67859" lon="-3.38111">
        <ele>-7.07</ele>
        <time>2013-02-10T09:41:12Z</time>
      </trkpt>
      <trkpt lat="47.67855" lon="-3.38067">
        <ele>-8.51</ele>
        <time>2013-02-10T09:41:21Z</time>
      </trkpt>
      <trkpt lat="47.67852" lon="-3.38036">
        <ele>-8.51</ele>
        <time>2013-02-10T09:41:27Z</time>
      </trkpt>
      <trkpt lat="47.6785" lon="-3.37994">
        <ele>-9</ele>
        <time>2013-02-10T09:41:36Z</time>
      </trkpt>
      <trkpt lat="47.67851" lon="-3.37964">
        <ele>-9.96</ele>
        <time>2013-02-10T09:41:43Z</time>
      </trkpt>
      <trkpt lat="47.6785" lon="-3.37944">
        <ele>-10.44</ele>
        <time>2013-02-10T09:41:48Z</time>
      </trkpt>
      <trkpt lat="47.67849" lon="-3.37905">
        <ele>-9.48</ele>
        <time>2013-02-10T09:41:56Z</time>
      </trkpt>
      <trkpt lat="47.67848" lon="-3.37859">
        <ele>-10.44</ele>
        <time>2013-02-10T09:42:06Z</time>
      </trkpt>
      <trkpt lat="47.67842" lon="-3.37826">
        <ele>-10.44</ele>
        <time>2013-02-10T09:42:13Z</time>
      </trkpt>
      <trkpt lat="47.67837" lon="-3.37791">
        <ele>-11.4</ele>
        <time>2013-02-10T09:42:20Z</time>
      </trkpt>
      <trkpt lat="47.67834" lon="-3.37761">
        <ele>-11.4</ele>
        <time>2013-02-10T09:42:27Z</time>
      </trkpt>
      <trkpt lat="47.67835" lon="-3.37725">
        <ele>-10.92</ele>
        <time>2013-02-10T09:42:35Z</time>
      </trkpt>
      <trkpt lat="47.6784" lon="-3.37695">
        <ele>-9.48</ele>
        <time>2013-02-10T09:42:42Z</time>
      </trkpt>
      <trkpt lat="47.67846" lon="-3.37668">
        <ele>-7.55</ele>
        <time>2013-02-10T09:42:49Z</time>
      </trkpt>
      <trkpt lat="47.67851" lon="-3.37636">
        <ele>-7.07</ele>
        <time>2013-02-10T09:42:57Z</time>
      </trkpt>
      <trkpt lat="47.67854" lon="-3.37606">
        <ele>-6.59</ele>
        <time>2013-02-10T09:43:04Z</time>
      </trkpt>
      <trkpt lat="47.67857" lon="-3.37573">
        <ele>-8.03</ele>
        <time>2013-02-10T09:43:12Z</time>
      </trkpt>
      <trkpt lat="47.67861" lon="-3.37536">
        <ele>-7.55</ele>
        <time>2013-02-10T09:43:21Z</time>
      </trkpt>
      <trkpt lat="47.67862" lon="-3.37507">
        <ele>-8.51</ele>
        <time>2013-02-10T09:43:27Z</time>
      </trkpt>
      <trkpt lat="47.67866" lon="-3.37479">
        <ele>-7.55</ele>
        <time>2013-02-10T09:43:33Z</time>
      </trkpt>
      <trkpt lat="47.6787" lon="-3.37455">
        <ele>-7.07</ele>
        <time>2013-02-10T09:43:39Z</time>
      </trkpt>
      <trkpt lat="47.67872" lon="-3.37441">
        <ele>-7.07</ele>
        <time>2013-02-10T09:43:42Z</time>
      </trkpt>
      <trkpt lat="47.67876" lon="-3.37414">
        <ele>-6.11</ele>
        <time>2013-02-10T09:43:49Z</time>
      </trkpt>
      <trkpt lat="47.67878" lon="-3.37386">
        <ele>-6.11</ele>
        <time>2013-02-10T09:43:54Z</time>
      </trkpt>
      <trkpt lat="47.67881" lon="-3.37356">
        <ele>-4.19</ele>
        <time>2013-02-10T09:44:01Z</time>
      </trkpt>
      <trkpt lat="47.67884" lon="-3.37323">
        <ele>-3.71</ele>
        <time>2013-02-10T09:44:09Z</time>
      </trkpt>
      <trkpt lat="47.67884" lon="-3.37304">
        <ele>-3.71</ele>
        <time>2013-02-10T09:44:14Z</time>
      </trkpt>
      <trkpt lat="47.67887" lon="-3.37264">
        <ele>-4.67</ele>
        <time>2013-02-10T09:44:23Z</time>
      </trkpt>
      <trkpt lat="47.67892" lon="-3.37229">
        <ele>-3.71</ele>
        <time>2013-02-10T09:44:31Z</time>
      </trkpt>
      <trkpt lat="47.67893" lon="-3.37209">
        <ele>-3.71</ele>
        <time>2013-02-10T09:44:36Z</time>
      </trkpt>
      <trkpt lat="47.67894" lon="-3.37175">
        <ele>-5.63</ele>
        <time>2013-02-10T09:44:43Z</time>
      </trkpt>
      <trkpt lat="47.67897" lon="-3.37142">
        <ele>-5.63</ele>
        <time>2013-02-10T09:44:50Z</time>
      </trkpt>
      <trkpt lat="47.679" lon="-3.3712">
        <ele>-6.59</ele>
        <time>2013-02-10T09:44:55Z</time>
      </trkpt>
      <trkpt lat="47.67904" lon="-3.37099">
        <ele>-6.59</ele>
        <time>2013-02-10T09:45:00Z</time>
      </trkpt>
      <trkpt lat="47.67909" lon="-3.37057">
        <ele>-4.19</ele>
        <time>2013-02-10T09:45:09Z</time>
      </trkpt>
      <trkpt lat="47.67914" lon="-3.3703">
        <ele>-4.67</ele>
        <time>2013-02-10T09:45:15Z</time>
      </trkpt>
      <trkpt lat="47.67918" lon="-3.37">
        <ele>-5.15</ele>
        <time>2013-02-10T09:45:22Z</time>
      </trkpt>
      <trkpt lat="47.67921" lon="-3.36967">
        <ele>-5.15</ele>
        <time>2013-02-10T09:45:29Z</time>
      </trkpt>
      <trkpt lat="47.67926" lon="-3.36929">
        <ele>-4.67</ele>
        <time>2013-02-10T09:45:37Z</time>
      </trkpt>
      <trkpt lat="47.67929" lon="-3.36891">
        <ele>-4.67</ele>
        <time>2013-02-10T09:45:45Z</time>
      </trkpt>
      <trkpt lat="47.67934" lon="-3.36841">
        <ele>-4.67</ele>
        <time>2013-02-10T09:45:56Z</time>
      </trkpt>
      <trkpt lat="47.67924" lon="-3.36809">
        <ele>-6.59</ele>
        <time>2013-02-10T09:46:04Z</time>
      </trkpt>
      <trkpt lat="47.67911" lon="-3.36806">
        <ele>-6.11</ele>
        <time>2013-02-10T09:46:09Z</time>
      </trkpt>
      <trkpt lat="47.67895" lon="-3.3681">
        <ele>-7.07</ele>
        <time>2013-02-10T09:46:17Z</time>
      </trkpt>
      <trkpt lat="47.67895" lon="-3.36811">
        <ele>-6.59</ele>
        <time>2013-02-10T09:46:18Z</time>
      </trkpt>
      <trkpt lat="47.67896" lon="-3.36819">
        <ele>-6.11</ele>
        <time>2013-02-10T09:46:23Z</time>
      </trkpt>
      <trkpt lat="47.679" lon="-3.36828">
        <ele>-6.11</ele>
        <time>2013-02-10T09:46:28Z</time>
      </trkpt>
      <trkpt lat="47.679" lon="-3.36845">
        <ele>-6.59</ele>
        <time>2013-02-10T09:46:35Z</time>
      </trkpt>
      <trkpt lat="47.679" lon="-3.36865">
        <ele>-6.59</ele>
        <time>2013-02-10T09:46:41Z</time>
      </trkpt>
      <trkpt lat="47.67902" lon="-3.36878">
        <ele>-7.07</ele>
        <time>2013-02-10T09:46:46Z</time>
      </trkpt>
      <trkpt lat="47.67905" lon="-3.36903">
        <ele>-7.07</ele>
        <time>2013-02-10T09:46:53Z</time>
      </trkpt>
      <trkpt lat="47.6791" lon="-3.36932">
        <ele>-6.11</ele>
        <time>2013-02-10T09:47:01Z</time>
      </trkpt>
      <trkpt lat="47.67912" lon="-3.36962">
        <ele>-4.67</ele>
        <time>2013-02-10T09:47:09Z</time>
      </trkpt>
      <trkpt lat="47.67911" lon="-3.36991">
        <ele>-6.11</ele>
        <time>2013-02-10T09:47:17Z</time>
      </trkpt>
      <trkpt lat="47.6791" lon="-3.37013">
        <ele>-7.07</ele>
        <time>2013-02-10T09:47:23Z</time>
      </trkpt>
      <trkpt lat="47.67911" lon="-3.37022">
        <ele>-6.11</ele>
        <time>2013-02-10T09:47:26Z</time>
      </trkpt>
      <trkpt lat="47.67913" lon="-3.37046">
        <ele>-8.03</ele>
        <time>2013-02-10T09:47:33Z</time>
      </trkpt>
      <trkpt lat="47.67913" lon="-3.37069">
        <ele>-9.48</ele>
        <time>2013-02-10T09:47:39Z</time>
      </trkpt>
      <trkpt lat="47.67911" lon="-3.37095">
        <ele>-7.55</ele>
        <time>2013-02-10T09:47:46Z</time>
      </trkpt>
      <trkpt lat="47.67917" lon="-3.37116">
        <ele>-9.48</ele>
        <time>2013-02-10T09:47:52Z</time>
      </trkpt>
      <trkpt lat="47.67916" lon="-3.37123">
        <ele>-10.44</ele>
        <time>2013-02-10T09:47:54Z</time>
      </trkpt>
      <trkpt lat="47.67919" lon="-3.3715">
        <ele>-9.96</ele>
        <time>2013-02-10T09:48:01Z</time>
      </trkpt>
      <trkpt lat="47.67924" lon="-3.37176">
        <ele>-8.03</ele>
        <time>2013-02-10T09:48:08Z</time>
      </trkpt>
      <trkpt lat="47.67928" lon="-3.37206">
        <ele>-5.63</ele>
        <time>2013-02-10T09:48:15Z</time>
      </trkpt>
      <trkpt lat="47.67926" lon="-3.37229">
        <ele>-3.71</ele>
        <time>2013-02-10T09:48:22Z</time>
      </trkpt>
      <trkpt lat="47.67928" lon="-3.37246">
        <ele>-4.67</ele>
        <time>2013-02-10T09:48:27Z</time>
      </trkpt>
      <trkpt lat="47.67929" lon="-3.37271">
        <ele>-2.75</ele>
        <time>2013-02-10T09:48:34Z</time>
      </trkpt>
      <trkpt lat="47.67937" lon="-3.37295">
        <ele>-3.23</ele>
        <time>2013-02-10T09:48:41Z</time>
      </trkpt>
      <trkpt lat="47.67945" lon="-3.37324">
        <ele>-4.67</ele>
        <time>2013-02-10T09:48:49Z</time>
      </trkpt>
      <trkpt lat="47.67957" lon="-3.37348">
        <ele>-6.59</ele>
        <time>2013-02-10T09:48:56Z</time>
      </trkpt>
      <trkpt lat="47.67961" lon="-3.37375">
        <ele>-7.07</ele>
        <time>2013-02-10T09:49:03Z</time>
      </trkpt>
      <trkpt lat="47.67963" lon="-3.37392">
        <ele>-8.03</ele>
        <time>2013-02-10T09:49:09Z</time>
      </trkpt>
      <trkpt lat="47.67966" lon="-3.3741">
        <ele>-7.55</ele>
        <time>2013-02-10T09:49:14Z</time>
      </trkpt>
      <trkpt lat="47.67968" lon="-3.37423">
        <ele>-7.55</ele>
        <time>2013-02-10T09:49:19Z</time>
      </trkpt>
      <trkpt lat="47.67972" lon="-3.37439">
        <ele>-8.03</ele>
        <time>2013-02-10T09:49:24Z</time>
      </trkpt>
      <trkpt lat="47.67976" lon="-3.37464">
        <ele>-9</ele>
        <time>2013-02-10T09:49:31Z</time>
      </trkpt>
      <trkpt lat="47.6798" lon="-3.37489">
        <ele>-9.96</ele>
        <time>2013-02-10T09:49:38Z</time>
      </trkpt>
      <trkpt lat="47.67982" lon="-3.37516">
        <ele>-8.51</ele>
        <time>2013-02-10T09:49:45Z</time>
      </trkpt>
      <trkpt lat="47.67985" lon="-3.3755">
        <ele>-7.55</ele>
        <time>2013-02-10T09:49:53Z</time>
      </trkpt>
      <trkpt lat="47.67991" lon="-3.37578">
        <ele>-8.03</ele>
        <time>2013-02-10T09:50:00Z</time>
      </trkpt>
      <trkpt lat="47.67995" lon="-3.37607">
        <ele>-8.03</ele>
        <time>2013-02-10T09:50:07Z</time>
      </trkpt>
      <trkpt lat="47.67997" lon="-3.3764">
        <ele>-9</ele>
        <time>2013-02-10T09:50:15Z</time>
      </trkpt>
      <trkpt lat="47.68001" lon="-3.37685">
        <ele>-8.51</ele>
        <time>2013-02-10T09:50:26Z</time>
      </trkpt>
      <trkpt lat="47.68004" lon="-3.37724">
        <ele>-8.51</ele>
        <time>2013-02-10T09:50:35Z</time>
      </trkpt>
      <trkpt lat="47.68007" lon="-3.37763">
        <ele>-8.51</ele>
        <time>2013-02-10T09:50:44Z</time>
      </trkpt>
      <trkpt lat="47.68011" lon="-3.37788">
        <ele>-8.03</ele>
        <time>2013-02-10T09:50:50Z</time>
      </trkpt>
      <trkpt lat="47.68015" lon="-3.37818">
        <ele>-8.03</ele>
        <time>2013-02-10T09:50:57Z</time>
      </trkpt>
      <trkpt lat="47.6802" lon="-3.37852">
        <ele>-8.51</ele>
        <time>2013-02-10T09:51:05Z</time>
      </trkpt>
      <trkpt lat="47.68027" lon="-3.3789">
        <ele>-8.51</ele>
        <time>2013-02-10T09:51:14Z</time>
      </trkpt>
      <trkpt lat="47.68036" lon="-3.37922">
        <ele>-8.51</ele>
        <time>2013-02-10T09:51:22Z</time>
      </trkpt>
      <trkpt lat="47.6804" lon="-3.37949">
        <ele>-8.51</ele>
        <time>2013-02-10T09:51:29Z</time>
      </trkpt>
      <trkpt lat="47.68044" lon="-3.37985">
        <ele>-7.55</ele>
        <time>2013-02-10T09:51:38Z</time>
      </trkpt>
      <trkpt lat="47.68052" lon="-3.38021">
        <ele>-7.55</ele>
        <time>2013-02-10T09:51:47Z</time>
      </trkpt>
      <trkpt lat="47.68059" lon="-3.38062">
        <ele>-7.55</ele>
        <time>2013-02-10T09:51:57Z</time>
      </trkpt>
      <trkpt lat="47.68066" lon="-3.38096">
        <ele>-7.55</ele>
        <time>2013-02-10T09:52:05Z</time>
      </trkpt>
      <trkpt lat="47.6807" lon="-3.3813">
        <ele>-7.07</ele>
        <time>2013-02-10T09:52:13Z</time>
      </trkpt>
      <trkpt lat="47.68075" lon="-3.38167">
        <ele>-7.55</ele>
        <time>2013-02-10T09:52:22Z</time>
      </trkpt>
      <trkpt lat="47.68079" lon="-3.38198">
        <ele>-7.07</ele>
        <time>2013-02-10T09:52:30Z</time>
      </trkpt>
      <trkpt lat="47.68084" lon="-3.38226">
        <ele>-7.55</ele>
        <time>2013-02-10T09:52:37Z</time>
      </trkpt>
      <trkpt lat="47.6809" lon="-3.38262">
        <ele>-7.07</ele>
        <time>2013-02-10T09:52:46Z</time>
      </trkpt>
      <trkpt lat="47.68097" lon="-3.38294">
        <ele>-7.07</ele>
        <time>2013-02-10T09:52:54Z</time>
      </trkpt>
      <trkpt lat="47.68103" lon="-3.38327">
        <ele>-7.55</ele>
        <time>2013-02-10T09:53:02Z</time>
      </trkpt>
      <trkpt lat="47.68111" lon="-3.38359">
        <ele>-7.07</ele>
        <time>2013-02-10T09:53:10Z</time>
      </trkpt>
      <trkpt lat="47.68115" lon="-3.38387">
        <ele>-5.63</ele>
        <time>2013-02-10T09:53:17Z</time>
      </trkpt>
      <trkpt lat="47.68122" lon="-3.38428">
        <ele>-6.11</ele>
        <time>2013-02-10T09:53:27Z</time>
      </trkpt>
      <trkpt lat="47.68128" lon="-3.38463">
        <ele>-6.11</ele>
        <time>2013-02-10T09:53:36Z</time>
      </trkpt>
      <trkpt lat="47.68133" lon="-3.38507">
        <ele>-6.59</ele>
        <time>2013-02-10T09:53:47Z</time>
      </trkpt>
      <trkpt lat="47.68135" lon="-3.38535">
        <ele>-7.55</ele>
        <time>2013-02-10T09:53:54Z</time>
      </trkpt>
      <trkpt lat="47.68137" lon="-3.38562">
        <ele>-7.07</ele>
        <time>2013-02-10T09:54:01Z</time>
      </trkpt>
      <trkpt lat="47.6814" lon="-3.38592">
        <ele>-7.55</ele>
        <time>2013-02-10T09:54:09Z</time>
      </trkpt>
      <trkpt lat="47.68146" lon="-3.38625">
        <ele>-8.03</ele>
        <time>2013-02-10T09:54:18Z</time>
      </trkpt>
      <trkpt lat="47.68151" lon="-3.38648">
        <ele>-8.51</ele>
        <time>2013-02-10T09:54:24Z</time>
      </trkpt>
      <trkpt lat="47.68157" lon="-3.38692">
        <ele>-7.55</ele>
        <time>2013-02-10T09:54:36Z</time>
      </trkpt>
      <trkpt lat="47.68161" lon="-3.38715">
        <ele>-8.03</ele>
        <time>2013-02-10T09:54:42Z</time>
      </trkpt>
      <trkpt lat="47.68163" lon="-3.38745">
        <ele>-8.03</ele>
        <time>2013-02-10T09:54:50Z</time>
      </trkpt>
      <trkpt lat="47.68165" lon="-3.38782">
        <ele>-9</ele>
        <time>2013-02-10T09:55:00Z</time>
      </trkpt>
      <trkpt lat="47.68168" lon="-3.38807">
        <ele>-8.03</ele>
        <time>2013-02-10T09:55:07Z</time>
      </trkpt>
      <trkpt lat="47.68171" lon="-3.38836">
        <ele>-8.03</ele>
        <time>2013-02-10T09:55:15Z</time>
      </trkpt>
      <trkpt lat="47.68173" lon="-3.38873">
        <ele>-7.55</ele>
        <time>2013-02-10T09:55:25Z</time>
      </trkpt>
      <trkpt lat="47.68175" lon="-3.38902">
        <ele>-8.03</ele>
        <time>2013-02-10T09:55:33Z</time>
      </trkpt>
      <trkpt lat="47.68177" lon="-3.38937">
        <ele>-8.03</ele>
        <time>2013-02-10T09:55:43Z</time>
      </trkpt>
      <trkpt lat="47.68181" lon="-3.38964">
        <ele>-8.51</ele>
        <time>2013-02-10T09:55:51Z</time>
      </trkpt>
      <trkpt lat="47.68186" lon="-3.38984">
        <ele>-9</ele>
        <time>2013-02-10T09:55:57Z</time>
      </trkpt>
      <trkpt lat="47.68186" lon="-3.39003">
        <ele>-8.03</ele>
        <time>2013-02-10T09:56:05Z</time>
      </trkpt>
      <trkpt lat="47.68193" lon="-3.39029">
        <ele>-8.03</ele>
        <time>2013-02-10T09:56:14Z</time>
      </trkpt>
      <trkpt lat="47.68197" lon="-3.39051">
        <ele>-8.03</ele>
        <time>2013-02-10T09:56:21Z</time>
      </trkpt>
      <trkpt lat="47.68201" lon="-3.39084">
        <ele>-8.51</ele>
        <time>2013-02-10T09:56:30Z</time>
      </trkpt>
      <trkpt lat="47.68204" lon="-3.39107">
        <ele>-8.03</ele>
        <time>2013-02-10T09:56:36Z</time>
      </trkpt>
      <trkpt lat="47.68209" lon="-3.39135">
        <ele>-8.03</ele>
        <time>2013-02-10T09:56:43Z</time>
      </trkpt>
      <trkpt lat="47.68211" lon="-3.39157">
        <ele>-7.55</ele>
        <time>2013-02-10T09:56:49Z</time>
      </trkpt>
      <trkpt lat="47.68216" lon="-3.39182">
        <ele>-8.03</ele>
        <time>2013-02-10T09:56:56Z</time>
      </trkpt>
      <trkpt lat="47.68219" lon="-3.39208">
        <ele>-7.55</ele>
        <time>2013-02-10T09:57:03Z</time>
      </trkpt>
      <trkpt lat="47.68223" lon="-3.39234">
        <ele>-8.03</ele>
        <time>2013-02-10T09:57:10Z</time>
      </trkpt>
      <trkpt lat="47.68228" lon="-3.39256">
        <ele>-7.55</ele>
        <time>2013-02-10T09:57:16Z</time>
      </trkpt>
      <trkpt lat="47.68231" lon="-3.39288">
        <ele>-7.55</ele>
        <time>2013-02-10T09:57:24Z</time>
      </trkpt>
      <trkpt lat="47.68233" lon="-3.3932">
        <ele>-8.03</ele>
        <time>2013-02-10T09:57:32Z</time>
      </trkpt>
      <trkpt lat="47.68236" lon="-3.39352">
        <ele>-7.07</ele>
        <time>2013-02-10T09:57:40Z</time>
      </trkpt>
      <trkpt lat="47.68239" lon="-3.39388">
        <ele>-7.55</ele>
        <time>2013-02-10T09:57:49Z</time>
      </trkpt>
      <trkpt lat="47.68244" lon="-3.39411">
        <ele>-7.07</ele>
        <time>2013-02-10T09:57:55Z</time>
      </trkpt>
      <trkpt lat="47.68246" lon="-3.39436">
        <ele>-7.07</ele>
        <time>2013-02-10T09:58:02Z</time>
      </trkpt>
      <trkpt lat="47.68248" lon="-3.39462">
        <ele>-7.07</ele>
        <time>2013-02-10T09:58:09Z</time>
      </trkpt>
      <trkpt lat="47.68252" lon="-3.39489">
        <ele>-6.59</ele>
        <time>2013-02-10T09:58:16Z</time>
      </trkpt>
      <trkpt lat="47.68256" lon="-3.39516">
        <ele>-6.59</ele>
        <time>2013-02-10T09:58:23Z</time>
      </trkpt>
      <trkpt lat="47.68261" lon="-3.39538">
        <ele>-6.59</ele>
        <time>2013-02-10T09:58:29Z</time>
      </trkpt>
      <trkpt lat="47.68266" lon="-3.39571">
        <ele>-6.59</ele>
        <time>2013-02-10T09:58:37Z</time>
      </trkpt>
      <trkpt lat="47.68267" lon="-3.39597">
        <ele>-7.07</ele>
        <time>2013-02-10T09:58:44Z</time>
      </trkpt>
      <trkpt lat="47.6827" lon="-3.39619">
        <ele>-6.11</ele>
        <time>2013-02-10T09:58:50Z</time>
      </trkpt>
      <trkpt lat="47.68275" lon="-3.39656">
        <ele>-6.59</ele>
        <time>2013-02-10T09:59:00Z</time>
      </trkpt>
      <trkpt lat="47.68277" lon="-3.39679">
        <ele>-6.59</ele>
        <time>2013-02-10T09:59:06Z</time>
      </trkpt>
      <trkpt lat="47.6828" lon="-3.39719">
        <ele>-7.07</ele>
        <time>2013-02-10T09:59:16Z</time>
      </trkpt>
      <trkpt lat="47.68284" lon="-3.39744">
        <ele>-7.07</ele>
        <time>2013-02-10T09:59:22Z</time>
      </trkpt>
      <trkpt lat="47.68287" lon="-3.39763">
        <ele>-6.11</ele>
        <time>2013-02-10T09:59:26Z</time>
      </trkpt>
      <trkpt lat="47.68294" lon="-3.39794">
        <ele>-7.07</ele>
        <time>2013-02-10T09:59:34Z</time>
      </trkpt>
      <trkpt lat="47.68299" lon="-3.39823">
        <ele>-6.11</ele>
        <time>2013-02-10T09:59:41Z</time>
      </trkpt>
      <trkpt lat="47.68295" lon="-3.39851">
        <ele>-7.55</ele>
        <time>2013-02-10T09:59:50Z</time>
      </trkpt>
      <trkpt lat="47.68284" lon="-3.39855">
        <ele>-8.51</ele>
        <time>2013-02-10T09:59:57Z</time>
      </trkpt>
      <trkpt lat="47.6827" lon="-3.39855">
        <ele>-9.48</ele>
        <time>2013-02-10T10:00:04Z</time>
      </trkpt>
      <trkpt lat="47.68257" lon="-3.39857">
        <ele>-8.51</ele>
        <time>2013-02-10T10:00:09Z</time>
      </trkpt>
      <trkpt lat="47.68247" lon="-3.39854">
        <ele>-9</ele>
        <time>2013-02-10T10:00:14Z</time>
      </trkpt>
      <trkpt lat="47.68232" lon="-3.39856">
        <ele>-9.48</ele>
        <time>2013-02-10T10:00:20Z</time>
      </trkpt>
      <trkpt lat="47.6821" lon="-3.39857">
        <ele>-8.03</ele>
        <time>2013-02-10T10:00:27Z</time>
      </trkpt>
      <trkpt lat="47.68187" lon="-3.39863">
        <ele>-9.48</ele>
        <time>2013-02-10T10:00:35Z</time>
      </trkpt>
      <trkpt lat="47.6816" lon="-3.3987">
        <ele>-8.51</ele>
        <time>2013-02-10T10:00:44Z</time>
      </trkpt>
      <trkpt lat="47.68133" lon="-3.39875">
        <ele>-7.55</ele>
        <time>2013-02-10T10:00:53Z</time>
      </trkpt>
      <trkpt lat="47.68111" lon="-3.39875">
        <ele>-7.55</ele>
        <time>2013-02-10T10:01:00Z</time>
      </trkpt>
      <trkpt lat="47.68089" lon="-3.39877">
        <ele>-8.03</ele>
        <time>2013-02-10T10:01:07Z</time>
      </trkpt>
      <trkpt lat="47.6808" lon="-3.39876">
        <ele>-8.03</ele>
        <time>2013-02-10T10:01:11Z</time>
      </trkpt>
      <trkpt lat="47.68052" lon="-3.39875">
        <ele>-8.03</ele>
        <time>2013-02-10T10:01:20Z</time>
      </trkpt>
      <trkpt lat="47.68029" lon="-3.39876">
        <ele>-7.55</ele>
        <time>2013-02-10T10:01:27Z</time>
      </trkpt>
      <trkpt lat="47.68004" lon="-3.39876">
        <ele>-7.07</ele>
        <time>2013-02-10T10:01:35Z</time>
      </trkpt>
      <trkpt lat="47.67981" lon="-3.39877">
        <ele>-7.07</ele>
        <time>2013-02-10T10:01:42Z</time>
      </trkpt>
      <trkpt lat="47.67962" lon="-3.39881">
        <ele>-7.55</ele>
        <time>2013-02-10T10:01:49Z</time>
      </trkpt>
      <trkpt lat="47.67931" lon="-3.39886">
        <ele>-7.55</ele>
        <time>2013-02-10T10:01:59Z</time>
      </trkpt>
      <trkpt lat="47.67903" lon="-3.39887">
        <ele>-8.51</ele>
        <time>2013-02-10T10:02:08Z</time>
      </trkpt>
      <trkpt lat="47.67879" lon="-3.39887">
        <ele>-9.48</ele>
        <time>2013-02-10T10:02:16Z</time>
      </trkpt>
      <trkpt lat="47.67854" lon="-3.39891">
        <ele>-8.51</ele>
        <time>2013-02-10T10:02:24Z</time>
      </trkpt>
      <trkpt lat="47.67834" lon="-3.39892">
        <ele>-9.48</ele>
        <time>2013-02-10T10:02:31Z</time>
      </trkpt>
      <trkpt lat="47.67812" lon="-3.3989">
        <ele>-9.48</ele>
        <time>2013-02-10T10:02:38Z</time>
      </trkpt>
      <trkpt lat="47.67791" lon="-3.39888">
        <ele>-11.4</ele>
        <time>2013-02-10T10:02:44Z</time>
      </trkpt>
      <trkpt lat="47.67767" lon="-3.39891">
        <ele>-9.48</ele>
        <time>2013-02-10T10:02:52Z</time>
      </trkpt>
      <trkpt lat="47.67741" lon="-3.39892">
        <ele>-7.07</ele>
        <time>2013-02-10T10:03:00Z</time>
      </trkpt>
      <trkpt lat="47.67726" lon="-3.39893">
        <ele>-8.03</ele>
        <time>2013-02-10T10:03:05Z</time>
      </trkpt>
      <trkpt lat="47.67704" lon="-3.39898">
        <ele>-6.59</ele>
        <time>2013-02-10T10:03:12Z</time>
      </trkpt>
      <trkpt lat="47.6769" lon="-3.39905">
        <ele>-5.15</ele>
        <time>2013-02-10T10:03:17Z</time>
      </trkpt>
      <trkpt lat="47.67685" lon="-3.39921">
        <ele>-5.63</ele>
        <time>2013-02-10T10:03:24Z</time>
      </trkpt>
      <trkpt lat="47.67688" lon="-3.39927">
        <ele>-4.67</ele>
        <time>2013-02-10T10:03:27Z</time>
      </trkpt>
      <trkpt lat="47.67691" lon="-3.3994">
        <ele>-4.67</ele>
        <time>2013-02-10T10:03:32Z</time>
      </trkpt>
      <trkpt lat="47.67695" lon="-3.39954">
        <ele>-5.63</ele>
        <time>2013-02-10T10:03:39Z</time>
      </trkpt>
      <trkpt lat="47.67703" lon="-3.39973">
        <ele>-7.07</ele>
        <time>2013-02-10T10:03:45Z</time>
      </trkpt>
      <trkpt lat="47.67712" lon="-3.39995">
        <ele>-9.96</ele>
        <time>2013-02-10T10:03:53Z</time>
      </trkpt>
      <trkpt lat="47.67719" lon="-3.40022">
        <ele>-8.51</ele>
        <time>2013-02-10T10:04:01Z</time>
      </trkpt>
      <trkpt lat="47.67728" lon="-3.40047">
        <ele>-9</ele>
        <time>2013-02-10T10:04:08Z</time>
      </trkpt>
      <trkpt lat="47.67734" lon="-3.40076">
        <ele>-8.51</ele>
        <time>2013-02-10T10:04:16Z</time>
      </trkpt>
      <trkpt lat="47.67739" lon="-3.40103">
        <ele>-8.03</ele>
        <time>2013-02-10T10:04:23Z</time>
      </trkpt>
      <trkpt lat="47.67739" lon="-3.40117">
        <ele>-7.55</ele>
        <time>2013-02-10T10:04:28Z</time>
      </trkpt>
      <trkpt lat="47.67744" lon="-3.40139">
        <ele>-7.07</ele>
        <time>2013-02-10T10:04:36Z</time>
      </trkpt>
      <trkpt lat="47.6775" lon="-3.40162">
        <ele>-7.07</ele>
        <time>2013-02-10T10:04:43Z</time>
      </trkpt>
      <trkpt lat="47.67753" lon="-3.40188">
        <ele>-6.59</ele>
        <time>2013-02-10T10:04:50Z</time>
      </trkpt>
      <trkpt lat="47.67756" lon="-3.40217">
        <ele>-6.11</ele>
        <time>2013-02-10T10:04:58Z</time>
      </trkpt>
      <trkpt lat="47.67762" lon="-3.4024">
        <ele>-6.11</ele>
        <time>2013-02-10T10:05:04Z</time>
      </trkpt>
      <trkpt lat="47.67769" lon="-3.40275">
        <ele>-4.19</ele>
        <time>2013-02-10T10:05:13Z</time>
      </trkpt>
      <trkpt lat="47.67774" lon="-3.40302">
        <ele>-5.15</ele>
        <time>2013-02-10T10:05:20Z</time>
      </trkpt>
      <trkpt lat="47.67781" lon="-3.40327">
        <ele>-5.63</ele>
        <time>2013-02-10T10:05:27Z</time>
      </trkpt>
      <trkpt lat="47.67786" lon="-3.40351">
        <ele>-6.11</ele>
        <time>2013-02-10T10:05:34Z</time>
      </trkpt>
      <trkpt lat="47.67791" lon="-3.40373">
        <ele>-8.03</ele>
        <time>2013-02-10T10:05:41Z</time>
      </trkpt>
      <trkpt lat="47.67797" lon="-3.40396">
        <ele>-9.48</ele>
        <time>2013-02-10T10:05:47Z</time>
      </trkpt>
      <trkpt lat="47.67802" lon="-3.40421">
        <ele>-8.51</ele>
        <time>2013-02-10T10:05:53Z</time>
      </trkpt>
      <trkpt lat="47.67812" lon="-3.40452">
        <ele>-7.55</ele>
        <time>2013-02-10T10:06:01Z</time>
      </trkpt>
      <trkpt lat="47.67815" lon="-3.40478">
        <ele>-8.03</ele>
        <time>2013-02-10T10:06:10Z</time>
      </trkpt>
      <trkpt lat="47.67824" lon="-3.40501">
        <ele>-9</ele>
        <time>2013-02-10T10:06:18Z</time>
      </trkpt>
      <trkpt lat="47.67833" lon="-3.40528">
        <ele>-8.51</ele>
        <time>2013-02-10T10:06:25Z</time>
      </trkpt>
      <trkpt lat="47.67845" lon="-3.40565">
        <ele>-9</ele>
        <time>2013-02-10T10:06:35Z</time>
      </trkpt>
      <trkpt lat="47.67854" lon="-3.40594">
        <ele>-10.44</ele>
        <time>2013-02-10T10:06:42Z</time>
      </trkpt>
      <trkpt lat="47.67861" lon="-3.40628">
        <ele>-9.96</ele>
        <time>2013-02-10T10:06:50Z</time>
      </trkpt>
      <trkpt lat="47.6787" lon="-3.40662">
        <ele>-9.48</ele>
        <time>2013-02-10T10:06:58Z</time>
      </trkpt>
      <trkpt lat="47.67881" lon="-3.40701">
        <ele>-8.03</ele>
        <time>2013-02-10T10:07:07Z</time>
      </trkpt>
      <trkpt lat="47.67891" lon="-3.4073">
        <ele>-9</ele>
        <time>2013-02-10T10:07:14Z</time>
      </trkpt>
      <trkpt lat="47.67898" lon="-3.40752">
        <ele>-8.03</ele>
        <time>2013-02-10T10:07:20Z</time>
      </trkpt>
      <trkpt lat="47.67909" lon="-3.40773">
        <ele>-6.59</ele>
        <time>2013-02-10T10:07:26Z</time>
      </trkpt>
      <trkpt lat="47.67921" lon="-3.40782">
        <ele>-6.59</ele>
        <time>2013-02-10T10:07:31Z</time>
      </trkpt>
      <trkpt lat="47.67937" lon="-3.40771">
        <ele>-5.63</ele>
        <time>2013-02-10T10:07:36Z</time>
      </trkpt>
      <trkpt lat="47.67939" lon="-3.40747">
        <ele>-5.15</ele>
        <time>2013-02-10T10:07:42Z</time>
      </trkpt>
      <trkpt lat="47.67936" lon="-3.40726">
        <ele>-6.59</ele>
        <time>2013-02-10T10:07:47Z</time>
      </trkpt>
      <trkpt lat="47.67932" lon="-3.40699">
        <ele>-5.63</ele>
        <time>2013-02-10T10:07:52Z</time>
      </trkpt>
      <trkpt lat="47.67928" lon="-3.4068">
        <ele>-3.23</ele>
        <time>2013-02-10T10:07:57Z</time>
      </trkpt>
      <trkpt lat="47.67925" lon="-3.40647">
        <ele>-5.15</ele>
        <time>2013-02-10T10:08:03Z</time>
      </trkpt>
      <trkpt lat="47.67923" lon="-3.40632">
        <ele>-6.59</ele>
        <time>2013-02-10T10:08:06Z</time>
      </trkpt>
      <trkpt lat="47.67919" lon="-3.40597">
        <ele>-8.51</ele>
        <time>2013-02-10T10:08:13Z</time>
      </trkpt>
      <trkpt lat="47.67916" lon="-3.40561">
        <ele>-8.51</ele>
        <time>2013-02-10T10:08:20Z</time>
      </trkpt>
      <trkpt lat="47.6791" lon="-3.40518">
        <ele>-9.48</ele>
        <time>2013-02-10T10:08:29Z</time>
      </trkpt>
      <trkpt lat="47.67908" lon="-3.40491">
        <ele>-9.48</ele>
        <time>2013-02-10T10:08:35Z</time>
      </trkpt>
      <trkpt lat="47.67905" lon="-3.40459">
        <ele>-10.44</ele>
        <time>2013-02-10T10:08:42Z</time>
      </trkpt>
      <trkpt lat="47.67903" lon="-3.40426">
        <ele>-10.44</ele>
        <time>2013-02-10T10:08:50Z</time>
      </trkpt>
      <trkpt lat="47.67899" lon="-3.40382">
        <ele>-9.96</ele>
        <time>2013-02-10T10:09:00Z</time>
      </trkpt>
      <trkpt lat="47.67897" lon="-3.40377">
        <ele>-9.96</ele>
        <time>2013-02-10T10:09:01Z</time>
      </trkpt>
      <trkpt lat="47.67894" lon="-3.40351">
        <ele>-10.92</ele>
        <time>2013-02-10T10:09:07Z</time>
      </trkpt>
      <trkpt lat="47.67895" lon="-3.40321">
        <ele>-10.92</ele>
        <time>2013-02-10T10:09:13Z</time>
      </trkpt>
      <trkpt lat="47.67886" lon="-3.40291">
        <ele>-9.96</ele>
        <time>2013-02-10T10:09:20Z</time>
      </trkpt>
      <trkpt lat="47.67882" lon="-3.40283">
        <ele>-9</ele>
        <time>2013-02-10T10:09:22Z</time>
      </trkpt>
      <trkpt lat="47.67875" lon="-3.40247">
        <ele>-7.55</ele>
        <time>2013-02-10T10:09:31Z</time>
      </trkpt>
      <trkpt lat="47.67877" lon="-3.4022">
        <ele>-8.03</ele>
        <time>2013-02-10T10:09:37Z</time>
      </trkpt>
      <trkpt lat="47.67878" lon="-3.40199">
        <ele>-8.03</ele>
        <time>2013-02-10T10:09:42Z</time>
      </trkpt>
      <trkpt lat="47.67882" lon="-3.40176">
        <ele>-8.03</ele>
        <time>2013-02-10T10:09:48Z</time>
      </trkpt>
      <trkpt lat="47.67883" lon="-3.40141">
        <ele>-7.55</ele>
        <time>2013-02-10T10:09:56Z</time>
      </trkpt>
      <trkpt lat="47.67885" lon="-3.40117">
        <ele>-8.03</ele>
        <time>2013-02-10T10:10:01Z</time>
      </trkpt>
      <trkpt lat="47.67882" lon="-3.40089">
        <ele>-7.07</ele>
        <time>2013-02-10T10:10:07Z</time>
      </trkpt>
      <trkpt lat="47.67878" lon="-3.40059">
        <ele>-6.59</ele>
        <time>2013-02-10T10:10:13Z</time>
      </trkpt>
      <trkpt lat="47.67876" lon="-3.40042">
        <ele>-7.07</ele>
        <time>2013-02-10T10:10:16Z</time>
      </trkpt>
      <trkpt lat="47.67871" lon="-3.40008">
        <ele>-6.11</ele>
        <time>2013-02-10T10:10:23Z</time>
      </trkpt>
      <trkpt lat="47.67869" lon="-3.39971">
        <ele>-5.63</ele>
        <time>2013-02-10T10:10:31Z</time>
      </trkpt>
      <trkpt lat="47.67871" lon="-3.3994">
        <ele>-7.07</ele>
        <time>2013-02-10T10:10:38Z</time>
      </trkpt>
      <trkpt lat="47.67871" lon="-3.39914">
        <ele>-6.11</ele>
        <time>2013-02-10T10:10:44Z</time>
      </trkpt>
      <trkpt lat="47.67867" lon="-3.39881">
        <ele>-7.07</ele>
        <time>2013-02-10T10:10:51Z</time>
      </trkpt>
      <trkpt lat="47.67864" lon="-3.39848">
        <ele>-5.63</ele>
        <time>2013-02-10T10:10:58Z</time>
      </trkpt>
      <trkpt lat="47.67861" lon="-3.3981">
        <ele>-4.67</ele>
        <time>2013-02-10T10:11:07Z</time>
      </trkpt>
      <trkpt lat="47.67857" lon="-3.39774">
        <ele>-4.19</ele>
        <time>2013-02-10T10:11:14Z</time>
      </trkpt>
      <trkpt lat="47.67858" lon="-3.39733">
        <ele>-2.27</ele>
        <time>2013-02-10T10:11:22Z</time>
      </trkpt>
      <trkpt lat="47.67856" lon="-3.39702">
        <ele>-1.79</ele>
        <time>2013-02-10T10:11:27Z</time>
      </trkpt>
      <trkpt lat="47.67855" lon="-3.39674">
        <ele>-0.82</ele>
        <time>2013-02-10T10:11:33Z</time>
      </trkpt>
      <trkpt lat="47.67853" lon="-3.39656">
        <ele>-1.79</ele>
        <time>2013-02-10T10:11:37Z</time>
      </trkpt>
      <trkpt lat="47.67848" lon="-3.39615">
        <ele>-2.27</ele>
        <time>2013-02-10T10:11:45Z</time>
      </trkpt>
      <trkpt lat="47.67845" lon="-3.39575">
        <ele>-3.71</ele>
        <time>2013-02-10T10:11:53Z</time>
      </trkpt>
      <trkpt lat="47.67843" lon="-3.39547">
        <ele>-5.15</ele>
        <time>2013-02-10T10:11:59Z</time>
      </trkpt>
      <trkpt lat="47.67843" lon="-3.39525">
        <ele>-6.59</ele>
        <time>2013-02-10T10:12:04Z</time>
      </trkpt>
      <trkpt lat="47.67843" lon="-3.39502">
        <ele>-6.59</ele>
        <time>2013-02-10T10:12:09Z</time>
      </trkpt>
      <trkpt lat="47.67843" lon="-3.3948">
        <ele>-6.11</ele>
        <time>2013-02-10T10:12:14Z</time>
      </trkpt>
      <trkpt lat="47.67843" lon="-3.39463">
        <ele>-7.07</ele>
        <time>2013-02-10T10:12:18Z</time>
      </trkpt>
      <trkpt lat="47.67841" lon="-3.39423">
        <ele>-6.59</ele>
        <time>2013-02-10T10:12:27Z</time>
      </trkpt>
      <trkpt lat="47.67838" lon="-3.39383">
        <ele>-8.03</ele>
        <time>2013-02-10T10:12:36Z</time>
      </trkpt>
      <trkpt lat="47.67839" lon="-3.39355">
        <ele>-7.07</ele>
        <time>2013-02-10T10:12:42Z</time>
      </trkpt>
      <trkpt lat="47.67839" lon="-3.39321">
        <ele>-6.59</ele>
        <time>2013-02-10T10:12:50Z</time>
      </trkpt>
      <trkpt lat="47.67838" lon="-3.39282">
        <ele>-5.63</ele>
        <time>2013-02-10T10:12:59Z</time>
      </trkpt>
      <trkpt lat="47.67837" lon="-3.39263">
        <ele>-6.11</ele>
        <time>2013-02-10T10:13:04Z</time>
      </trkpt>
      <trkpt lat="47.67835" lon="-3.3924">
        <ele>-2.27</ele>
        <time>2013-02-10T10:13:10Z</time>
      </trkpt>
      <trkpt lat="47.67835" lon="-3.39206">
        <ele>-2.27</ele>
        <time>2013-02-10T10:13:17Z</time>
      </trkpt>
      <trkpt lat="47.67836" lon="-3.39184">
        <ele>-3.71</ele>
        <time>2013-02-10T10:13:21Z</time>
      </trkpt>
      <trkpt lat="47.67834" lon="-3.39152">
        <ele>-3.23</ele>
        <time>2013-02-10T10:13:28Z</time>
      </trkpt>
      <trkpt lat="47.67832" lon="-3.3913">
        <ele>-4.67</ele>
        <time>2013-02-10T10:13:33Z</time>
      </trkpt>
      <trkpt lat="47.67829" lon="-3.39089">
        <ele>-4.67</ele>
        <time>2013-02-10T10:13:42Z</time>
      </trkpt>
      <trkpt lat="47.67824" lon="-3.39049">
        <ele>-4.67</ele>
        <time>2013-02-10T10:13:50Z</time>
      </trkpt>
      <trkpt lat="47.67822" lon="-3.39018">
        <ele>-3.23</ele>
        <time>2013-02-10T10:13:56Z</time>
      </trkpt>
      <trkpt lat="47.67824" lon="-3.38979">
        <ele>-3.71</ele>
        <time>2013-02-10T10:14:04Z</time>
      </trkpt>
      <trkpt lat="47.67824" lon="-3.38946">
        <ele>-3.71</ele>
        <time>2013-02-10T10:14:10Z</time>
      </trkpt>
      <trkpt lat="47.67826" lon="-3.38903">
        <ele>-0.82</ele>
        <time>2013-02-10T10:14:18Z</time>
      </trkpt>
      <trkpt lat="47.67831" lon="-3.38858">
        <ele>1.1</ele>
        <time>2013-02-10T10:14:27Z</time>
      </trkpt>
      <trkpt lat="47.67833" lon="-3.38809">
        <ele>0.62</ele>
        <time>2013-02-10T10:14:37Z</time>
      </trkpt>
      <trkpt lat="47.67833" lon="-3.38787">
        <ele>-1.3</ele>
        <time>2013-02-10T10:14:42Z</time>
      </trkpt>
      <trkpt lat="47.67834" lon="-3.38781">
        <ele>-1.3</ele>
        <time>2013-02-10T10:14:43Z</time>
      </trkpt>
      <trkpt lat="47.67833" lon="-3.38747">
        <ele>-3.71</ele>
        <time>2013-02-10T10:14:50Z</time>
      </trkpt>
      <trkpt lat="47.67832" lon="-3.38709">
        <ele>-4.19</ele>
        <time>2013-02-10T10:14:59Z</time>
      </trkpt>
      <trkpt lat="47.67837" lon="-3.38692">
        <ele>-5.15</ele>
        <time>2013-02-10T10:15:03Z</time>
      </trkpt>
      <trkpt lat="47.67841" lon="-3.38673">
        <ele>-5.63</ele>
        <time>2013-02-10T10:15:08Z</time>
      </trkpt>
      <trkpt lat="47.67849" lon="-3.3864">
        <ele>-5.15</ele>
        <time>2013-02-10T10:15:15Z</time>
      </trkpt>
      <trkpt lat="47.67854" lon="-3.38616">
        <ele>-6.59</ele>
        <time>2013-02-10T10:15:20Z</time>
      </trkpt>
      <trkpt lat="47.67857" lon="-3.38587">
        <ele>-7.07</ele>
        <time>2013-02-10T10:15:27Z</time>
      </trkpt>
      <trkpt lat="47.67857" lon="-3.38566">
        <ele>-4.67</ele>
        <time>2013-02-10T10:15:32Z</time>
      </trkpt>
      <trkpt lat="47.67859" lon="-3.38542">
        <ele>-6.59</ele>
        <time>2013-02-10T10:15:37Z</time>
      </trkpt>
      <trkpt lat="47.67861" lon="-3.38516">
        <ele>-8.51</ele>
        <time>2013-02-10T10:15:43Z</time>
      </trkpt>
      <trkpt lat="47.67861" lon="-3.38484">
        <ele>-7.55</ele>
        <time>2013-02-10T10:15:51Z</time>
      </trkpt>
      <trkpt lat="47.67858" lon="-3.38451">
        <ele>-7.07</ele>
        <time>2013-02-10T10:15:59Z</time>
      </trkpt>
      <trkpt lat="47.67857" lon="-3.38416">
        <ele>-5.15</ele>
        <time>2013-02-10T10:16:07Z</time>
      </trkpt>
      <trkpt lat="47.67858" lon="-3.38389">
        <ele>-3.23</ele>
        <time>2013-02-10T10:16:13Z</time>
      </trkpt>
      <trkpt lat="47.67858" lon="-3.38354">
        <ele>-3.23</ele>
        <time>2013-02-10T10:16:21Z</time>
      </trkpt>
      <trkpt lat="47.67857" lon="-3.38317">
        <ele>-1.79</ele>
        <time>2013-02-10T10:16:29Z</time>
      </trkpt>
      <trkpt lat="47.67854" lon="-3.38288">
        <ele>-1.3</ele>
        <time>2013-02-10T10:16:35Z</time>
      </trkpt>
      <trkpt lat="47.67858" lon="-3.3826">
        <ele>-1.79</ele>
        <time>2013-02-10T10:16:41Z</time>
      </trkpt>
      <trkpt lat="47.6786" lon="-3.38228">
        <ele>-2.75</ele>
        <time>2013-02-10T10:16:48Z</time>
      </trkpt>
      <trkpt lat="47.67861" lon="-3.38204">
        <ele>-4.67</ele>
        <time>2013-02-10T10:16:54Z</time>
      </trkpt>
      <trkpt lat="47.6786" lon="-3.38172">
        <ele>-4.19</ele>
        <time>2013-02-10T10:17:01Z</time>
      </trkpt>
      <trkpt lat="47.6786" lon="-3.38136">
        <ele>-4.19</ele>
        <time>2013-02-10T10:17:09Z</time>
      </trkpt>
      <trkpt lat="47.67861" lon="-3.38108">
        <ele>-4.67</ele>
        <time>2013-02-10T10:17:16Z</time>
      </trkpt>
      <trkpt lat="47.67861" lon="-3.38076">
        <ele>-3.71</ele>
        <time>2013-02-10T10:17:24Z</time>
      </trkpt>
      <trkpt lat="47.6786" lon="-3.38047">
        <ele>-4.19</ele>
        <time>2013-02-10T10:17:32Z</time>
      </trkpt>
      <trkpt lat="47.67859" lon="-3.38018">
        <ele>-4.19</ele>
        <time>2013-02-10T10:17:39Z</time>
      </trkpt>
      <trkpt lat="47.67861" lon="-3.3799">
        <ele>-6.59</ele>
        <time>2013-02-10T10:17:46Z</time>
      </trkpt>
      <trkpt lat="47.67862" lon="-3.37967">
        <ele>-7.07</ele>
        <time>2013-02-10T10:17:52Z</time>
      </trkpt>
      <trkpt lat="47.6786" lon="-3.37945">
        <ele>-5.63</ele>
        <time>2013-02-10T10:17:58Z</time>
      </trkpt>
      <trkpt lat="47.67857" lon="-3.37915">
        <ele>-6.11</ele>
        <time>2013-02-10T10:18:05Z</time>
      </trkpt>
      <trkpt lat="47.67856" lon="-3.37886">
        <ele>-7.55</ele>
        <time>2013-02-10T10:18:12Z</time>
      </trkpt>
      <trkpt lat="47.67854" lon="-3.37847">
        <ele>-6.11</ele>
        <time>2013-02-10T10:18:21Z</time>
      </trkpt>
      <trkpt lat="47.67854" lon="-3.37814">
        <ele>-5.15</ele>
        <time>2013-02-10T10:18:29Z</time>
      </trkpt>
      <trkpt lat="47.67854" lon="-3.37778">
        <ele>-5.15</ele>
        <time>2013-02-10T10:18:37Z</time>
      </trkpt>
      <trkpt lat="47.67854" lon="-3.37738">
        <ele>-4.19</ele>
        <time>2013-02-10T10:18:45Z</time>
      </trkpt>
      <trkpt lat="47.67858" lon="-3.37695">
        <ele>-4.19</ele>
        <time>2013-02-10T10:18:54Z</time>
      </trkpt>
      <trkpt lat="47.6786" lon="-3.37658">
        <ele>-2.75</ele>
        <time>2013-02-10T10:19:01Z</time>
      </trkpt>
      <trkpt lat="47.67858" lon="-3.37626">
        <ele>-4.19</ele>
        <time>2013-02-10T10:19:07Z</time>
      </trkpt>
      <trkpt lat="47.67863" lon="-3.37596">
        <ele>-3.23</ele>
        <time>2013-02-10T10:19:12Z</time>
      </trkpt>
      <trkpt lat="47.67864" lon="-3.37569">
        <ele>-4.67</ele>
        <time>2013-02-10T10:19:18Z</time>
      </trkpt>
      <trkpt lat="47.67864" lon="-3.37526">
        <ele>-6.59</ele>
        <time>2013-02-10T10:19:26Z</time>
      </trkpt>
      <trkpt lat="47.67864" lon="-3.37476">
        <ele>-7.07</ele>
        <time>2013-02-10T10:19:36Z</time>
      </trkpt>
      <trkpt lat="47.67864" lon="-3.37455">
        <ele>-7.55</ele>
        <time>2013-02-10T10:19:41Z</time>
      </trkpt>
      <trkpt lat="47.67866" lon="-3.37428">
        <ele>-7.07</ele>
        <time>2013-02-10T10:19:47Z</time>
      </trkpt>
      <trkpt lat="47.6787" lon="-3.37403">
        <ele>-8.03</ele>
        <time>2013-02-10T10:19:53Z</time>
      </trkpt>
      <trkpt lat="47.67872" lon="-3.37373">
        <ele>-9.48</ele>
        <time>2013-02-10T10:19:59Z</time>
      </trkpt>
      <trkpt lat="47.67874" lon="-3.37348">
        <ele>-9</ele>
        <time>2013-02-10T10:20:04Z</time>
      </trkpt>
      <trkpt lat="47.67878" lon="-3.37319">
        <ele>-9</ele>
        <time>2013-02-10T10:20:10Z</time>
      </trkpt>
      <trkpt lat="47.67882" lon="-3.37283">
        <ele>-8.51</ele>
        <time>2013-02-10T10:20:18Z</time>
      </trkpt>
      <trkpt lat="47.67882" lon="-3.37259">
        <ele>-8.51</ele>
        <time>2013-02-10T10:20:23Z</time>
      </trkpt>
      <trkpt lat="47.67883" lon="-3.3723">
        <ele>-9.96</ele>
        <time>2013-02-10T10:20:30Z</time>
      </trkpt>
      <trkpt lat="47.67888" lon="-3.37199">
        <ele>-4.67</ele>
        <time>2013-02-10T10:20:37Z</time>
      </trkpt>
      <trkpt lat="47.67892" lon="-3.37164">
        <ele>-4.67</ele>
        <time>2013-02-10T10:20:45Z</time>
      </trkpt>
      <trkpt lat="47.67896" lon="-3.37132">
        <ele>-5.63</ele>
        <time>2013-02-10T10:20:52Z</time>
      </trkpt>
      <trkpt lat="47.679" lon="-3.37099">
        <ele>-4.19</ele>
        <time>2013-02-10T10:20:59Z</time>
      </trkpt>
      <trkpt lat="47.67903" lon="-3.37072">
        <ele>-5.15</ele>
        <time>2013-02-10T10:21:05Z</time>
      </trkpt>
      <trkpt lat="47.67907" lon="-3.37035">
        <ele>-4.67</ele>
        <time>2013-02-10T10:21:13Z</time>
      </trkpt>
      <trkpt lat="47.67912" lon="-3.37">
        <ele>-4.19</ele>
        <time>2013-02-10T10:21:20Z</time>
      </trkpt>
      <trkpt lat="47.67917" lon="-3.36956">
        <ele>-3.23</ele>
        <time>2013-02-10T10:21:29Z</time>
      </trkpt>
      <trkpt lat="47.67925" lon="-3.36915">
        <ele>-5.15</ele>
        <time>2013-02-10T10:21:38Z</time>
      </trkpt>
      <trkpt lat="47.67931" lon="-3.36893">
        <ele>-4.19</ele>
        <time>2013-02-10T10:21:43Z</time>
      </trkpt>
      <trkpt lat="47.67934" lon="-3.36871">
        <ele>-3.23</ele>
        <time>2013-02-10T10:21:48Z</time>
      </trkpt>
      <trkpt lat="47.6794" lon="-3.36845">
        <ele>-2.27</ele>
        <time>2013-02-10T10:21:53Z</time>
      </trkpt>
      <trkpt lat="47.67942" lon="-3.36818">
        <ele>-1.3</ele>
        <time>2013-02-10T10:21:59Z</time>
      </trkpt>
      <trkpt lat="47.67935" lon="-3.36792">
        <ele>-3.23</ele>
        <time>2013-02-10T10:22:05Z</time>
      </trkpt>
      <trkpt lat="47.6792" lon="-3.36785">
        <ele>-3.23</ele>
        <time>2013-02-10T10:22:10Z</time>
      </trkpt>
      <trkpt lat="47.67907" lon="-3.36784">
        <ele>-5.15</ele>
        <time>2013-02-10T10:22:14Z</time>
      </trkpt>
      <trkpt lat="47.67889" lon="-3.36784">
        <ele>-6.11</ele>
        <time>2013-02-10T10:22:21Z</time>
      </trkpt>
      <trkpt lat="47.67874" lon="-3.36788">
        <ele>-5.63</ele>
        <time>2013-02-10T10:22:27Z</time>
      </trkpt>
      <trkpt lat="47.67847" lon="-3.36789">
        <ele>-7.07</ele>
        <time>2013-02-10T10:22:36Z</time>
      </trkpt>
      <trkpt lat="47.67834" lon="-3.36788">
        <ele>-7.07</ele>
        <time>2013-02-10T10:22:40Z</time>
      </trkpt>
      <trkpt lat="47.67814" lon="-3.36792">
        <ele>-8.51</ele>
        <time>2013-02-10T10:22:47Z</time>
      </trkpt>
      <trkpt lat="47.67801" lon="-3.36796">
        <ele>-5.63</ele>
        <time>2013-02-10T10:22:53Z</time>
      </trkpt>
      <trkpt lat="47.67783" lon="-3.36799">
        <ele>-6.11</ele>
        <time>2013-02-10T10:23:00Z</time>
      </trkpt>
      <trkpt lat="47.6776" lon="-3.36805">
        <ele>-3.23</ele>
        <time>2013-02-10T10:23:09Z</time>
      </trkpt>
      <trkpt lat="47.67746" lon="-3.36806">
        <ele>-1.3</ele>
        <time>2013-02-10T10:23:14Z</time>
      </trkpt>
      <trkpt lat="47.67728" lon="-3.36812">
        <ele>-2.27</ele>
        <time>2013-02-10T10:23:20Z</time>
      </trkpt>
      <trkpt lat="47.67714" lon="-3.36812">
        <ele>-2.27</ele>
        <time>2013-02-10T10:23:25Z</time>
      </trkpt>
      <trkpt lat="47.67686" lon="-3.36819">
        <ele>0.14</ele>
        <time>2013-02-10T10:23:34Z</time>
      </trkpt>
      <trkpt lat="47.67666" lon="-3.3683">
        <ele>-1.79</ele>
        <time>2013-02-10T10:23:41Z</time>
      </trkpt>
      <trkpt lat="47.6765" lon="-3.36838">
        <ele>-1.79</ele>
        <time>2013-02-10T10:23:47Z</time>
      </trkpt>
      <trkpt lat="47.67636" lon="-3.36846">
        <ele>-1.79</ele>
        <time>2013-02-10T10:23:52Z</time>
      </trkpt>
      <trkpt lat="47.67621" lon="-3.36852">
        <ele>-1.79</ele>
        <time>2013-02-10T10:23:57Z</time>
      </trkpt>
      <trkpt lat="47.67605" lon="-3.36859">
        <ele>-1.3</ele>
        <time>2013-02-10T10:24:03Z</time>
      </trkpt>
      <trkpt lat="47.67588" lon="-3.36865">
        <ele>-0.82</ele>
        <time>2013-02-10T10:24:09Z</time>
      </trkpt>
      <trkpt lat="47.67568" lon="-3.36872">
        <ele>-1.79</ele>
        <time>2013-02-10T10:24:16Z</time>
      </trkpt>
      <trkpt lat="47.67551" lon="-3.36882">
        <ele>-3.71</ele>
        <time>2013-02-10T10:24:22Z</time>
      </trkpt>
      <trkpt lat="47.67532" lon="-3.36893">
        <ele>-3.71</ele>
        <time>2013-02-10T10:24:28Z</time>
      </trkpt>
      <trkpt lat="47.6751" lon="-3.36903">
        <ele>-3.71</ele>
        <time>2013-02-10T10:24:35Z</time>
      </trkpt>
      <trkpt lat="47.67482" lon="-3.36915">
        <ele>-3.23</ele>
        <time>2013-02-10T10:24:44Z</time>
      </trkpt>
      <trkpt lat="47.67463" lon="-3.36922">
        <ele>-2.75</ele>
        <time>2013-02-10T10:24:50Z</time>
      </trkpt>
      <trkpt lat="47.67442" lon="-3.36933">
        <ele>-2.75</ele>
        <time>2013-02-10T10:24:57Z</time>
      </trkpt>
      <trkpt lat="47.67416" lon="-3.36948">
        <ele>-1.3</ele>
        <time>2013-02-10T10:25:06Z</time>
      </trkpt>
      <trkpt lat="47.67389" lon="-3.36962">
        <ele>-1.79</ele>
        <time>2013-02-10T10:25:15Z</time>
      </trkpt>
      <trkpt lat="47.67358" lon="-3.36979">
        <ele>-1.79</ele>
        <time>2013-02-10T10:25:27Z</time>
      </trkpt>
      <trkpt lat="47.67339" lon="-3.36988">
        <ele>-2.27</ele>
        <time>2013-02-10T10:25:35Z</time>
      </trkpt>
      <trkpt lat="47.67312" lon="-3.37005">
        <ele>-1.3</ele>
        <time>2013-02-10T10:25:45Z</time>
      </trkpt>
      <trkpt lat="47.6729" lon="-3.37018">
        <ele>-1.3</ele>
        <time>2013-02-10T10:25:53Z</time>
      </trkpt>
      <trkpt lat="47.67288" lon="-3.3703">
        <ele>-0.82</ele>
        <time>2013-02-10T10:25:58Z</time>
      </trkpt>
      <trkpt lat="47.67294" lon="-3.37041">
        <ele>-1.79</ele>
        <time>2013-02-10T10:26:04Z</time>
      </trkpt>
      <trkpt lat="47.67301" lon="-3.37056">
        <ele>-3.23</ele>
        <time>2013-02-10T10:26:11Z</time>
      </trkpt>
      <trkpt lat="47.67306" lon="-3.37076">
        <ele>-4.19</ele>
        <time>2013-02-10T10:26:19Z</time>
      </trkpt>
      <trkpt lat="47.67309" lon="-3.37093">
        <ele>-4.19</ele>
        <time>2013-02-10T10:26:24Z</time>
      </trkpt>
      <trkpt lat="47.6732" lon="-3.37119">
        <ele>-5.15</ele>
        <time>2013-02-10T10:26:31Z</time>
      </trkpt>
      <trkpt lat="47.67326" lon="-3.3714">
        <ele>-5.63</ele>
        <time>2013-02-10T10:26:37Z</time>
      </trkpt>
      <trkpt lat="47.67334" lon="-3.37164">
        <ele>-5.15</ele>
        <time>2013-02-10T10:26:44Z</time>
      </trkpt>
      <trkpt lat="47.67342" lon="-3.3719">
        <ele>-6.11</ele>
        <time>2013-02-10T10:26:52Z</time>
      </trkpt>
      <trkpt lat="47.67346" lon="-3.37216">
        <ele>-5.15</ele>
        <time>2013-02-10T10:26:59Z</time>
      </trkpt>
      <trkpt lat="47.67349" lon="-3.37241">
        <ele>-6.11</ele>
        <time>2013-02-10T10:27:06Z</time>
      </trkpt>
      <trkpt lat="47.67357" lon="-3.37275">
        <ele>-3.23</ele>
        <time>2013-02-10T10:27:16Z</time>
      </trkpt>
      <trkpt lat="47.67363" lon="-3.373">
        <ele>-1.79</ele>
        <time>2013-02-10T10:27:22Z</time>
      </trkpt>
      <trkpt lat="47.6737" lon="-3.37319">
        <ele>-1.79</ele>
        <time>2013-02-10T10:27:27Z</time>
      </trkpt>
      <trkpt lat="47.6738" lon="-3.37354">
        <ele>-3.23</ele>
        <time>2013-02-10T10:27:36Z</time>
      </trkpt>
      <trkpt lat="47.67389" lon="-3.37381">
        <ele>-4.19</ele>
        <time>2013-02-10T10:27:43Z</time>
      </trkpt>
      <trkpt lat="47.67402" lon="-3.37415">
        <ele>-4.67</ele>
        <time>2013-02-10T10:27:52Z</time>
      </trkpt>
      <trkpt lat="47.67411" lon="-3.37437">
        <ele>-5.15</ele>
        <time>2013-02-10T10:27:58Z</time>
      </trkpt>
      <trkpt lat="47.67421" lon="-3.37465">
        <ele>-5.63</ele>
        <time>2013-02-10T10:28:06Z</time>
      </trkpt>
      <trkpt lat="47.67429" lon="-3.37488">
        <ele>-5.63</ele>
        <time>2013-02-10T10:28:13Z</time>
      </trkpt>
      <trkpt lat="47.67439" lon="-3.37508">
        <ele>-5.63</ele>
        <time>2013-02-10T10:28:20Z</time>
      </trkpt>
      <trkpt lat="47.67447" lon="-3.37524">
        <ele>-3.23</ele>
        <time>2013-02-10T10:28:25Z</time>
      </trkpt>
      <trkpt lat="47.6745" lon="-3.37537">
        <ele>-2.75</ele>
        <time>2013-02-10T10:28:29Z</time>
      </trkpt>
      <trkpt lat="47.67459" lon="-3.37552">
        <ele>-1.3</ele>
        <time>2013-02-10T10:28:35Z</time>
      </trkpt>
      <trkpt lat="47.67469" lon="-3.37577">
        <ele>-2.27</ele>
        <time>2013-02-10T10:28:43Z</time>
      </trkpt>
      <trkpt lat="47.67474" lon="-3.37604">
        <ele>-2.27</ele>
        <time>2013-02-10T10:28:50Z</time>
      </trkpt>
      <trkpt lat="47.67479" lon="-3.37634">
        <ele>-2.75</ele>
        <time>2013-02-10T10:28:58Z</time>
      </trkpt>
      <trkpt lat="47.67487" lon="-3.37661">
        <ele>-2.75</ele>
        <time>2013-02-10T10:29:05Z</time>
      </trkpt>
      <trkpt lat="47.67496" lon="-3.37692">
        <ele>-2.75</ele>
        <time>2013-02-10T10:29:13Z</time>
      </trkpt>
      <trkpt lat="47.67504" lon="-3.37724">
        <ele>-3.23</ele>
        <time>2013-02-10T10:29:22Z</time>
      </trkpt>
      <trkpt lat="47.6751" lon="-3.37748">
        <ele>-3.23</ele>
        <time>2013-02-10T10:29:29Z</time>
      </trkpt>
      <trkpt lat="47.67516" lon="-3.37769">
        <ele>-4.19</ele>
        <time>2013-02-10T10:29:35Z</time>
      </trkpt>
      <trkpt lat="47.67522" lon="-3.37791">
        <ele>-4.19</ele>
        <time>2013-02-10T10:29:41Z</time>
      </trkpt>
      <trkpt lat="47.67533" lon="-3.37826">
        <ele>-4.19</ele>
        <time>2013-02-10T10:29:51Z</time>
      </trkpt>
      <trkpt lat="47.67537" lon="-3.37845">
        <ele>-4.19</ele>
        <time>2013-02-10T10:29:57Z</time>
      </trkpt>
      <trkpt lat="47.6754" lon="-3.37853">
        <ele>-4.19</ele>
        <time>2013-02-10T10:30:00Z</time>
      </trkpt>
      <trkpt lat="47.67551" lon="-3.37882">
        <ele>-4.19</ele>
        <time>2013-02-10T10:30:10Z</time>
      </trkpt>
      <trkpt lat="47.67562" lon="-3.37911">
        <ele>-4.19</ele>
        <time>2013-02-10T10:30:19Z</time>
      </trkpt>
      <trkpt lat="47.67572" lon="-3.37939">
        <ele>-4.19</ele>
        <time>2013-02-10T10:30:28Z</time>
      </trkpt>
      <trkpt lat="47.67584" lon="-3.37969">
        <ele>-5.15</ele>
        <time>2013-02-10T10:30:37Z</time>
      </trkpt>
      <trkpt lat="47.67592" lon="-3.37987">
        <ele>-5.63</ele>
        <time>2013-02-10T10:30:44Z</time>
      </trkpt>
      <trkpt lat="47.67591" lon="-3.37995">
        <ele>-5.15</ele>
        <time>2013-02-10T10:30:50Z</time>
      </trkpt>
      <trkpt lat="47.67582" lon="-3.37987">
        <ele>-4.67</ele>
        <time>2013-02-10T10:30:58Z</time>
      </trkpt>
      <trkpt lat="47.67575" lon="-3.37984">
        <ele>-6.11</ele>
        <time>2013-02-10T10:31:04Z</time>
      </trkpt>
      <trkpt lat="47.67563" lon="-3.37982">
        <ele>-7.55</ele>
        <time>2013-02-10T10:31:14Z</time>
      </trkpt>
      <trkpt lat="47.67549" lon="-3.37982">
        <ele>-8.03</ele>
        <time>2013-02-10T10:31:22Z</time>
      </trkpt>
      <trkpt lat="47.67534" lon="-3.37986">
        <ele>-7.07</ele>
        <time>2013-02-10T10:31:28Z</time>
      </trkpt>
      <trkpt lat="47.67511" lon="-3.37993">
        <ele>-6.11</ele>
        <time>2013-02-10T10:31:37Z</time>
      </trkpt>
      <trkpt lat="47.67486" lon="-3.38003">
        <ele>-6.11</ele>
        <time>2013-02-10T10:31:47Z</time>
      </trkpt>
      <trkpt lat="47.67452" lon="-3.38017">
        <ele>-6.11</ele>
        <time>2013-02-10T10:32:00Z</time>
      </trkpt>
      <trkpt lat="47.67427" lon="-3.38023">
        <ele>-6.11</ele>
        <time>2013-02-10T10:32:09Z</time>
      </trkpt>
      <trkpt lat="47.67405" lon="-3.38029">
        <ele>-6.11</ele>
        <time>2013-02-10T10:32:17Z</time>
      </trkpt>
      <trkpt lat="47.67378" lon="-3.38036">
        <ele>-5.63</ele>
        <time>2013-02-10T10:32:26Z</time>
      </trkpt>
      <trkpt lat="47.67344" lon="-3.38048">
        <ele>-5.63</ele>
        <time>2013-02-10T10:32:38Z</time>
      </trkpt>
      <trkpt lat="47.67314" lon="-3.38051">
        <ele>-6.11</ele>
        <time>2013-02-10T10:32:48Z</time>
      </trkpt>
      <trkpt lat="47.67296" lon="-3.38053">
        <ele>-6.11</ele>
        <time>2013-02-10T10:32:54Z</time>
      </trkpt>
      <trkpt lat="47.67272" lon="-3.38055">
        <ele>-6.11</ele>
        <time>2013-02-10T10:33:02Z</time>
      </trkpt>
      <trkpt lat="47.67246" lon="-3.38058">
        <ele>-6.59</ele>
        <time>2013-02-10T10:33:10Z</time>
      </trkpt>
      <trkpt lat="47.67219" lon="-3.38059">
        <ele>-6.59</ele>
        <time>2013-02-10T10:33:18Z</time>
      </trkpt>
      <trkpt lat="47.67199" lon="-3.38068">
        <ele>-5.63</ele>
        <time>2013-02-10T10:33:25Z</time>
      </trkpt>
      <trkpt lat="47.67172" lon="-3.38072">
        <ele>-5.15</ele>
        <time>2013-02-10T10:33:34Z</time>
      </trkpt>
      <trkpt lat="47.67162" lon="-3.38083">
        <ele>-5.63</ele>
        <time>2013-02-10T10:33:40Z</time>
      </trkpt>
      <trkpt lat="47.67161" lon="-3.38089">
        <ele>-5.15</ele>
        <time>2013-02-10T10:33:42Z</time>
      </trkpt>
      <trkpt lat="47.6717" lon="-3.38112">
        <ele>-5.63</ele>
        <time>2013-02-10T10:33:50Z</time>
      </trkpt>
      <trkpt lat="47.67177" lon="-3.38128">
        <ele>-6.59</ele>
        <time>2013-02-10T10:33:55Z</time>
      </trkpt>
      <trkpt lat="47.67184" lon="-3.38143">
        <ele>-6.59</ele>
        <time>2013-02-10T10:34:00Z</time>
      </trkpt>
      <trkpt lat="47.67191" lon="-3.3817">
        <ele>-5.63</ele>
        <time>2013-02-10T10:34:07Z</time>
      </trkpt>
      <trkpt lat="47.67195" lon="-3.38183">
        <ele>-6.59</ele>
        <time>2013-02-10T10:34:11Z</time>
      </trkpt>
      <trkpt lat="47.67207" lon="-3.38211">
        <ele>-3.23</ele>
        <time>2013-02-10T10:34:19Z</time>
      </trkpt>
      <trkpt lat="47.67214" lon="-3.38233">
        <ele>0.14</ele>
        <time>2013-02-10T10:34:25Z</time>
      </trkpt>
      <trkpt lat="47.67226" lon="-3.38259">
        <ele>-2.27</ele>
        <time>2013-02-10T10:34:33Z</time>
      </trkpt>
      <trkpt lat="47.67234" lon="-3.38282">
        <ele>-3.23</ele>
        <time>2013-02-10T10:34:40Z</time>
      </trkpt>
      <trkpt lat="47.67242" lon="-3.38303">
        <ele>-2.75</ele>
        <time>2013-02-10T10:34:46Z</time>
      </trkpt>
      <trkpt lat="47.67249" lon="-3.38325">
        <ele>-2.27</ele>
        <time>2013-02-10T10:34:52Z</time>
      </trkpt>
      <trkpt lat="47.67258" lon="-3.38353">
        <ele>-3.23</ele>
        <time>2013-02-10T10:35:00Z</time>
      </trkpt>
      <trkpt lat="47.67265" lon="-3.38378">
        <ele>-4.19</ele>
        <time>2013-02-10T10:35:07Z</time>
      </trkpt>
      <trkpt lat="47.67274" lon="-3.38411">
        <ele>-4.19</ele>
        <time>2013-02-10T10:35:16Z</time>
      </trkpt>
      <trkpt lat="47.67284" lon="-3.38441">
        <ele>-4.19</ele>
        <time>2013-02-10T10:35:24Z</time>
      </trkpt>
      <trkpt lat="47.67296" lon="-3.38477">
        <ele>-4.19</ele>
        <time>2013-02-10T10:35:33Z</time>
      </trkpt>
      <trkpt lat="47.67307" lon="-3.38512">
        <ele>-4.19</ele>
        <time>2013-02-10T10:35:42Z</time>
      </trkpt>
      <trkpt lat="47.67316" lon="-3.38545">
        <ele>-4.67</ele>
        <time>2013-02-10T10:35:50Z</time>
      </trkpt>
      <trkpt lat="47.67329" lon="-3.38578">
        <ele>-4.67</ele>
        <time>2013-02-10T10:35:59Z</time>
      </trkpt>
      <trkpt lat="47.67337" lon="-3.38599">
        <ele>-4.19</ele>
        <time>2013-02-10T10:36:05Z</time>
      </trkpt>
      <trkpt lat="47.67345" lon="-3.3863">
        <ele>-4.19</ele>
        <time>2013-02-10T10:36:14Z</time>
      </trkpt>
      <trkpt lat="47.67353" lon="-3.38658">
        <ele>-4.19</ele>
        <time>2013-02-10T10:36:22Z</time>
      </trkpt>
      <trkpt lat="47.67364" lon="-3.3869">
        <ele>-3.71</ele>
        <time>2013-02-10T10:36:31Z</time>
      </trkpt>
      <trkpt lat="47.67373" lon="-3.38714">
        <ele>-3.71</ele>
        <time>2013-02-10T10:36:38Z</time>
      </trkpt>
      <trkpt lat="47.67385" lon="-3.38735">
        <ele>-3.71</ele>
        <time>2013-02-10T10:36:45Z</time>
      </trkpt>
      <trkpt lat="47.67394" lon="-3.38761">
        <ele>-3.71</ele>
        <time>2013-02-10T10:36:52Z</time>
      </trkpt>
      <trkpt lat="47.67404" lon="-3.38792">
        <ele>-3.71</ele>
        <time>2013-02-10T10:37:00Z</time>
      </trkpt>
      <trkpt lat="47.67411" lon="-3.38819">
        <ele>-3.23</ele>
        <time>2013-02-10T10:37:07Z</time>
      </trkpt>
      <trkpt lat="47.6742" lon="-3.38852">
        <ele>-3.23</ele>
        <time>2013-02-10T10:37:16Z</time>
      </trkpt>
      <trkpt lat="47.67433" lon="-3.38893">
        <ele>-3.23</ele>
        <time>2013-02-10T10:37:27Z</time>
      </trkpt>
      <trkpt lat="47.67444" lon="-3.38935">
        <ele>-3.71</ele>
        <time>2013-02-10T10:37:38Z</time>
      </trkpt>
      <trkpt lat="47.67453" lon="-3.38966">
        <ele>-3.23</ele>
        <time>2013-02-10T10:37:46Z</time>
      </trkpt>
      <trkpt lat="47.67461" lon="-3.38995">
        <ele>-3.71</ele>
        <time>2013-02-10T10:37:54Z</time>
      </trkpt>
      <trkpt lat="47.67469" lon="-3.39025">
        <ele>-4.19</ele>
        <time>2013-02-10T10:38:02Z</time>
      </trkpt>
      <trkpt lat="47.6748" lon="-3.39056">
        <ele>-3.23</ele>
        <time>2013-02-10T10:38:11Z</time>
      </trkpt>
      <trkpt lat="47.67488" lon="-3.39081">
        <ele>-3.71</ele>
        <time>2013-02-10T10:38:18Z</time>
      </trkpt>
      <trkpt lat="47.67499" lon="-3.39115">
        <ele>-3.23</ele>
        <time>2013-02-10T10:38:27Z</time>
      </trkpt>
      <trkpt lat="47.67512" lon="-3.39159">
        <ele>-2.75</ele>
        <time>2013-02-10T10:38:38Z</time>
      </trkpt>
      <trkpt lat="47.67523" lon="-3.39189">
        <ele>-2.75</ele>
        <time>2013-02-10T10:38:46Z</time>
      </trkpt>
      <trkpt lat="47.67529" lon="-3.39213">
        <ele>-3.71</ele>
        <time>2013-02-10T10:38:53Z</time>
      </trkpt>
      <trkpt lat="47.67537" lon="-3.39233">
        <ele>-3.23</ele>
        <time>2013-02-10T10:38:59Z</time>
      </trkpt>
      <trkpt lat="47.67543" lon="-3.39257">
        <ele>-3.23</ele>
        <time>2013-02-10T10:39:06Z</time>
      </trkpt>
      <trkpt lat="47.67553" lon="-3.39294">
        <ele>-3.23</ele>
        <time>2013-02-10T10:39:16Z</time>
      </trkpt>
      <trkpt lat="47.67559" lon="-3.39315">
        <ele>-3.23</ele>
        <time>2013-02-10T10:39:22Z</time>
      </trkpt>
      <trkpt lat="47.67571" lon="-3.39348">
        <ele>-3.71</ele>
        <time>2013-02-10T10:39:31Z</time>
      </trkpt>
      <trkpt lat="47.67581" lon="-3.39386">
        <ele>-3.23</ele>
        <time>2013-02-10T10:39:41Z</time>
      </trkpt>
      <trkpt lat="47.67588" lon="-3.39412">
        <ele>-3.23</ele>
        <time>2013-02-10T10:39:48Z</time>
      </trkpt>
      <trkpt lat="47.67598" lon="-3.3945">
        <ele>-3.23</ele>
        <time>2013-02-10T10:39:58Z</time>
      </trkpt>
      <trkpt lat="47.67607" lon="-3.39476">
        <ele>-3.71</ele>
        <time>2013-02-10T10:40:05Z</time>
      </trkpt>
      <trkpt lat="47.67613" lon="-3.39498">
        <ele>-3.23</ele>
        <time>2013-02-10T10:40:11Z</time>
      </trkpt>
      <trkpt lat="47.67625" lon="-3.39549">
        <ele>-3.23</ele>
        <time>2013-02-10T10:40:24Z</time>
      </trkpt>
      <trkpt lat="47.67633" lon="-3.39585">
        <ele>-3.23</ele>
        <time>2013-02-10T10:40:33Z</time>
      </trkpt>
      <trkpt lat="47.6764" lon="-3.39607">
        <ele>-3.23</ele>
        <time>2013-02-10T10:40:39Z</time>
      </trkpt>
      <trkpt lat="47.67653" lon="-3.39642">
        <ele>-3.23</ele>
        <time>2013-02-10T10:40:48Z</time>
      </trkpt>
      <trkpt lat="47.67658" lon="-3.39672">
        <ele>-3.71</ele>
        <time>2013-02-10T10:40:56Z</time>
      </trkpt>
      <trkpt lat="47.67662" lon="-3.39698">
        <ele>-3.23</ele>
        <time>2013-02-10T10:41:03Z</time>
      </trkpt>
      <trkpt lat="47.67667" lon="-3.39725">
        <ele>-3.23</ele>
        <time>2013-02-10T10:41:11Z</time>
      </trkpt>
      <trkpt lat="47.67673" lon="-3.39752">
        <ele>-3.71</ele>
        <time>2013-02-10T10:41:19Z</time>
      </trkpt>
      <trkpt lat="47.67682" lon="-3.39781">
        <ele>-4.19</ele>
        <time>2013-02-10T10:41:27Z</time>
      </trkpt>
      <trkpt lat="47.67692" lon="-3.39814">
        <ele>-4.19</ele>
        <time>2013-02-10T10:41:36Z</time>
      </trkpt>
      <trkpt lat="47.677" lon="-3.39841">
        <ele>-3.71</ele>
        <time>2013-02-10T10:41:43Z</time>
      </trkpt>
      <trkpt lat="47.67708" lon="-3.39871">
        <ele>-3.71</ele>
        <time>2013-02-10T10:41:51Z</time>
      </trkpt>
      <trkpt lat="47.67719" lon="-3.39913">
        <ele>-3.71</ele>
        <time>2013-02-10T10:42:02Z</time>
      </trkpt>
      <trkpt lat="47.67728" lon="-3.3994">
        <ele>-3.23</ele>
        <time>2013-02-10T10:42:09Z</time>
      </trkpt>
      <trkpt lat="47.67737" lon="-3.39973">
        <ele>-2.75</ele>
        <time>2013-02-10T10:42:18Z</time>
      </trkpt>
      <trkpt lat="47.67747" lon="-3.40015">
        <ele>-2.75</ele>
        <time>2013-02-10T10:42:29Z</time>
      </trkpt>
      <trkpt lat="47.67756" lon="-3.40048">
        <ele>-2.75</ele>
        <time>2013-02-10T10:42:38Z</time>
      </trkpt>
      <trkpt lat="47.67765" lon="-3.40076">
        <ele>-2.75</ele>
        <time>2013-02-10T10:42:46Z</time>
      </trkpt>
      <trkpt lat="47.67776" lon="-3.40117">
        <ele>-3.23</ele>
        <time>2013-02-10T10:42:58Z</time>
      </trkpt>
      <trkpt lat="47.67785" lon="-3.40157">
        <ele>-2.75</ele>
        <time>2013-02-10T10:43:09Z</time>
      </trkpt>
      <trkpt lat="47.67793" lon="-3.40196">
        <ele>-4.19</ele>
        <time>2013-02-10T10:43:20Z</time>
      </trkpt>
      <trkpt lat="47.67795" lon="-3.40221">
        <ele>-3.23</ele>
        <time>2013-02-10T10:43:27Z</time>
      </trkpt>
      <trkpt lat="47.67802" lon="-3.40244">
        <ele>-2.27</ele>
        <time>2013-02-10T10:43:34Z</time>
      </trkpt>
      <trkpt lat="47.67809" lon="-3.40269">
        <ele>-2.27</ele>
        <time>2013-02-10T10:43:41Z</time>
      </trkpt>
      <trkpt lat="47.67817" lon="-3.40315">
        <ele>-2.75</ele>
        <time>2013-02-10T10:43:53Z</time>
      </trkpt>
      <trkpt lat="47.67825" lon="-3.40351">
        <ele>-2.75</ele>
        <time>2013-02-10T10:44:03Z</time>
      </trkpt>
      <trkpt lat="47.67834" lon="-3.40387">
        <ele>-0.82</ele>
        <time>2013-02-10T10:44:13Z</time>
      </trkpt>
      <trkpt lat="47.67841" lon="-3.40416">
        <ele>-0.34</ele>
        <time>2013-02-10T10:44:21Z</time>
      </trkpt>
      <trkpt lat="47.67848" lon="-3.4045">
        <ele>1.1</ele>
        <time>2013-02-10T10:44:30Z</time>
      </trkpt>
      <trkpt lat="47.67856" lon="-3.40485">
        <ele>2.06</ele>
        <time>2013-02-10T10:44:40Z</time>
      </trkpt>
      <trkpt lat="47.67864" lon="-3.40516">
        <ele>0.14</ele>
        <time>2013-02-10T10:44:49Z</time>
      </trkpt>
      <trkpt lat="47.6787" lon="-3.40545">
        <ele>1.58</ele>
        <time>2013-02-10T10:44:57Z</time>
      </trkpt>
      <trkpt lat="47.67879" lon="-3.40575">
        <ele>0.62</ele>
        <time>2013-02-10T10:45:06Z</time>
      </trkpt>
      <trkpt lat="47.67883" lon="-3.40594">
        <ele>1.1</ele>
        <time>2013-02-10T10:45:12Z</time>
      </trkpt>
      <trkpt lat="47.67888" lon="-3.40616">
        <ele>0.62</ele>
        <time>2013-02-10T10:45:19Z</time>
      </trkpt>
      <trkpt lat="47.67891" lon="-3.40636">
        <ele>0.62</ele>
        <time>2013-02-10T10:45:26Z</time>
      </trkpt>
      <trkpt lat="47.67897" lon="-3.40658">
        <ele>0.62</ele>
        <time>2013-02-10T10:45:34Z</time>
      </trkpt>
      <trkpt lat="47.67903" lon="-3.40683">
        <ele>0.14</ele>
        <time>2013-02-10T10:45:42Z</time>
      </trkpt>
      <trkpt lat="47.67906" lon="-3.40705">
        <ele>-0.82</ele>
        <time>2013-02-10T10:45:49Z</time>
      </trkpt>
      <trkpt lat="47.6791" lon="-3.40727">
        <ele>0.62</ele>
        <time>2013-02-10T10:45:58Z</time>
      </trkpt>
      <trkpt lat="47.6791" lon="-3.4074">
        <ele>0.14</ele>
        <time>2013-02-10T10:46:04Z</time>
      </trkpt>
      <trkpt lat="47.67915" lon="-3.40754">
        <ele>0.14</ele>
        <time>2013-02-10T10:46:11Z</time>
      </trkpt>
      <trkpt lat="47.67932" lon="-3.40757">
        <ele>-0.82</ele>
        <time>2013-02-10T10:46:17Z</time>
      </trkpt>
      <trkpt lat="47.67958" lon="-3.40738">
        <ele>-1.79</ele>
        <time>2013-02-10T10:46:27Z</time>
      </trkpt>
      <trkpt lat="47.67972" lon="-3.40719">
        <ele>0.62</ele>
        <time>2013-02-10T10:46:34Z</time>
      </trkpt>
      <trkpt lat="47.67983" lon="-3.40701">
        <ele>0.62</ele>
        <time>2013-02-10T10:46:41Z</time>
      </trkpt>
      <trkpt lat="47.67993" lon="-3.40686">
        <ele>-0.82</ele>
        <time>2013-02-10T10:46:47Z</time>
      </trkpt>
      <trkpt lat="47.68005" lon="-3.40665">
        <ele>0.62</ele>
        <time>2013-02-10T10:46:55Z</time>
      </trkpt>
      <trkpt lat="47.68022" lon="-3.40648">
        <ele>-1.3</ele>
        <time>2013-02-10T10:47:04Z</time>
      </trkpt>
      <trkpt lat="47.68036" lon="-3.40628">
        <ele>0.14</ele>
        <time>2013-02-10T10:47:12Z</time>
      </trkpt>
      <trkpt lat="47.68053" lon="-3.40607">
        <ele>-0.34</ele>
        <time>2013-02-10T10:47:21Z</time>
      </trkpt>
      <trkpt lat="47.68064" lon="-3.4059">
        <ele>-1.79</ele>
        <time>2013-02-10T10:47:28Z</time>
      </trkpt>
      <trkpt lat="47.68072" lon="-3.40573">
        <ele>-0.82</ele>
        <time>2013-02-10T10:47:34Z</time>
      </trkpt>
      <trkpt lat="47.68079" lon="-3.4056">
        <ele>1.1</ele>
        <time>2013-02-10T10:47:39Z</time>
      </trkpt>
      <trkpt lat="47.68086" lon="-3.40545">
        <ele>2.54</ele>
        <time>2013-02-10T10:47:45Z</time>
      </trkpt>
      <trkpt lat="47.68095" lon="-3.40524">
        <ele>1.58</ele>
        <time>2013-02-10T10:47:52Z</time>
      </trkpt>
      <trkpt lat="47.68099" lon="-3.40519">
        <ele>0.14</ele>
        <time>2013-02-10T10:47:56Z</time>
      </trkpt>
      <trkpt lat="47.68109" lon="-3.40507">
        <ele>-2.75</ele>
        <time>2013-02-10T10:48:01Z</time>
      </trkpt>
      <trkpt lat="47.68117" lon="-3.405">
        <ele>-2.27</ele>
        <time>2013-02-10T10:48:05Z</time>
      </trkpt>
      <trkpt lat="47.6813" lon="-3.40477">
        <ele>-3.71</ele>
        <time>2013-02-10T10:48:13Z</time>
      </trkpt>
      <trkpt lat="47.68142" lon="-3.40452">
        <ele>-2.27</ele>
        <time>2013-02-10T10:48:21Z</time>
      </trkpt>
      <trkpt lat="47.68149" lon="-3.40435">
        <ele>-1.79</ele>
        <time>2013-02-10T10:48:27Z</time>
      </trkpt>
      <trkpt lat="47.68163" lon="-3.40416">
        <ele>-2.27</ele>
        <time>2013-02-10T10:48:35Z</time>
      </trkpt>
      <trkpt lat="47.68175" lon="-3.40395">
        <ele>-2.27</ele>
        <time>2013-02-10T10:48:42Z</time>
      </trkpt>
      <trkpt lat="47.68185" lon="-3.40385">
        <ele>-1.79</ele>
        <time>2013-02-10T10:48:47Z</time>
      </trkpt>
      <trkpt lat="47.68195" lon="-3.40371">
        <ele>-0.82</ele>
        <time>2013-02-10T10:48:52Z</time>
      </trkpt>
      <trkpt lat="47.6821" lon="-3.40353">
        <ele>-1.3</ele>
        <time>2013-02-10T10:48:59Z</time>
      </trkpt>
      <trkpt lat="47.68219" lon="-3.40339">
        <ele>-0.82</ele>
        <time>2013-02-10T10:49:03Z</time>
      </trkpt>
      <trkpt lat="47.68229" lon="-3.40321">
        <ele>-0.34</ele>
        <time>2013-02-10T10:49:09Z</time>
      </trkpt>
      <trkpt lat="47.68239" lon="-3.40305">
        <ele>-0.82</ele>
        <time>2013-02-10T10:49:15Z</time>
      </trkpt>
      <trkpt lat="47.68255" lon="-3.40287">
        <ele>-2.27</ele>
        <time>2013-02-10T10:49:22Z</time>
      </trkpt>
      <trkpt lat="47.68265" lon="-3.4027">
        <ele>-3.71</ele>
        <time>2013-02-10T10:49:27Z</time>
      </trkpt>
      <trkpt lat="47.68277" lon="-3.40253">
        <ele>-4.19</ele>
        <time>2013-02-10T10:49:33Z</time>
      </trkpt>
      <trkpt lat="47.68279" lon="-3.4025">
        <ele>-5.15</ele>
        <time>2013-02-10T10:49:34Z</time>
      </trkpt>
      <trkpt lat="47.68288" lon="-3.40238">
        <ele>-4.19</ele>
        <time>2013-02-10T10:49:39Z</time>
      </trkpt>
      <trkpt lat="47.68302" lon="-3.40215">
        <ele>-3.71</ele>
        <time>2013-02-10T10:49:47Z</time>
      </trkpt>
      <trkpt lat="47.68303" lon="-3.40212">
        <ele>-3.71</ele>
        <time>2013-02-10T10:49:48Z</time>
      </trkpt>
      <trkpt lat="47.68317" lon="-3.40185">
        <ele>-3.23</ele>
        <time>2013-02-10T10:49:58Z</time>
      </trkpt>
      <trkpt lat="47.68327" lon="-3.40164">
        <ele>-3.71</ele>
        <time>2013-02-10T10:50:05Z</time>
      </trkpt>
      <trkpt lat="47.68328" lon="-3.40161">
        <ele>-3.23</ele>
        <time>2013-02-10T10:50:06Z</time>
      </trkpt>
      <trkpt lat="47.68342" lon="-3.40138">
        <ele>-2.75</ele>
        <time>2013-02-10T10:50:15Z</time>
      </trkpt>
      <trkpt lat="47.68357" lon="-3.4012">
        <ele>-1.79</ele>
        <time>2013-02-10T10:50:23Z</time>
      </trkpt>
      <trkpt lat="47.68373" lon="-3.40098">
        <ele>-1.79</ele>
        <time>2013-02-10T10:50:32Z</time>
      </trkpt>
      <trkpt lat="47.68389" lon="-3.40075">
        <ele>-1.3</ele>
        <time>2013-02-10T10:50:40Z</time>
      </trkpt>
      <trkpt lat="47.68395" lon="-3.40065">
        <ele>-1.3</ele>
        <time>2013-02-10T10:50:43Z</time>
      </trkpt>
      <trkpt lat="47.68407" lon="-3.40051">
        <ele>-3.71</ele>
        <time>2013-02-10T10:50:49Z</time>
      </trkpt>
      <trkpt lat="47.68418" lon="-3.40034">
        <ele>-5.15</ele>
        <time>2013-02-10T10:50:55Z</time>
      </trkpt>
      <trkpt lat="47.68428" lon="-3.40016">
        <ele>-5.15</ele>
        <time>2013-02-10T10:51:01Z</time>
      </trkpt>
      <trkpt lat="47.68439" lon="-3.39994">
        <ele>-3.71</ele>
        <time>2013-02-10T10:51:09Z</time>
      </trkpt>
      <trkpt lat="47.68448" lon="-3.39979">
        <ele>-3.23</ele>
        <time>2013-02-10T10:51:14Z</time>
      </trkpt>
      <trkpt lat="47.6846" lon="-3.39959">
        <ele>-3.23</ele>
        <time>2013-02-10T10:51:21Z</time>
      </trkpt>
      <trkpt lat="47.68474" lon="-3.39935">
        <ele>-4.67</ele>
        <time>2013-02-10T10:51:29Z</time>
      </trkpt>
      <trkpt lat="47.68486" lon="-3.39916">
        <ele>-5.15</ele>
        <time>2013-02-10T10:51:36Z</time>
      </trkpt>
      <trkpt lat="47.68507" lon="-3.3989">
        <ele>-3.23</ele>
        <time>2013-02-10T10:51:46Z</time>
      </trkpt>
      <trkpt lat="47.68525" lon="-3.39858">
        <ele>-2.75</ele>
        <time>2013-02-10T10:51:56Z</time>
      </trkpt>
      <trkpt lat="47.68541" lon="-3.39836">
        <ele>-2.75</ele>
        <time>2013-02-10T10:52:04Z</time>
      </trkpt>
      <trkpt lat="47.68557" lon="-3.39815">
        <ele>-3.23</ele>
        <time>2013-02-10T10:52:12Z</time>
      </trkpt>
      <trkpt lat="47.68571" lon="-3.39797">
        <ele>-3.71</ele>
        <time>2013-02-10T10:52:19Z</time>
      </trkpt>
      <trkpt lat="47.68584" lon="-3.39779">
        <ele>-2.75</ele>
        <time>2013-02-10T10:52:25Z</time>
      </trkpt>
      <trkpt lat="47.68597" lon="-3.39756">
        <ele>-2.27</ele>
        <time>2013-02-10T10:52:32Z</time>
      </trkpt>
      <trkpt lat="47.68611" lon="-3.39737">
        <ele>-3.23</ele>
        <time>2013-02-10T10:52:39Z</time>
      </trkpt>
      <trkpt lat="47.68626" lon="-3.39706">
        <ele>-3.23</ele>
        <time>2013-02-10T10:52:48Z</time>
      </trkpt>
      <trkpt lat="47.68641" lon="-3.39691">
        <ele>-3.23</ele>
        <time>2013-02-10T10:52:55Z</time>
      </trkpt>
      <trkpt lat="47.68659" lon="-3.39673">
        <ele>-1.79</ele>
        <time>2013-02-10T10:53:02Z</time>
      </trkpt>
      <trkpt lat="47.68668" lon="-3.39663">
        <ele>-1.3</ele>
        <time>2013-02-10T10:53:06Z</time>
      </trkpt>
      <trkpt lat="47.68674" lon="-3.39652">
        <ele>1.1</ele>
        <time>2013-02-10T10:53:10Z</time>
      </trkpt>
      <trkpt lat="47.68695" lon="-3.39624">
        <ele>1.1</ele>
        <time>2013-02-10T10:53:18Z</time>
      </trkpt>
      <trkpt lat="47.68706" lon="-3.39606">
        <ele>1.1</ele>
        <time>2013-02-10T10:53:23Z</time>
      </trkpt>
      <trkpt lat="47.68719" lon="-3.39586">
        <ele>1.1</ele>
        <time>2013-02-10T10:53:30Z</time>
      </trkpt>
      <trkpt lat="47.68732" lon="-3.39556">
        <ele>2.06</ele>
        <time>2013-02-10T10:53:38Z</time>
      </trkpt>
      <trkpt lat="47.68744" lon="-3.39535">
        <ele>0.62</ele>
        <time>2013-02-10T10:53:44Z</time>
      </trkpt>
      <trkpt lat="47.68762" lon="-3.39504">
        <ele>-0.82</ele>
        <time>2013-02-10T10:53:53Z</time>
      </trkpt>
      <trkpt lat="47.68774" lon="-3.39481">
        <ele>-0.82</ele>
        <time>2013-02-10T10:54:00Z</time>
      </trkpt>
      <trkpt lat="47.68779" lon="-3.3947">
        <ele>-1.3</ele>
        <time>2013-02-10T10:54:03Z</time>
      </trkpt>
      <trkpt lat="47.68789" lon="-3.39443">
        <ele>-2.27</ele>
        <time>2013-02-10T10:54:10Z</time>
      </trkpt>
      <trkpt lat="47.68798" lon="-3.39417">
        <ele>1.1</ele>
        <time>2013-02-10T10:54:17Z</time>
      </trkpt>
      <trkpt lat="47.68805" lon="-3.39397">
        <ele>-0.34</ele>
        <time>2013-02-10T10:54:23Z</time>
      </trkpt>
      <trkpt lat="47.68812" lon="-3.39379">
        <ele>0.62</ele>
        <time>2013-02-10T10:54:29Z</time>
      </trkpt>
      <trkpt lat="47.68819" lon="-3.39362">
        <ele>1.58</ele>
        <time>2013-02-10T10:54:34Z</time>
      </trkpt>
      <trkpt lat="47.68827" lon="-3.39341">
        <ele>3.5</ele>
        <time>2013-02-10T10:54:40Z</time>
      </trkpt>
      <trkpt lat="47.68833" lon="-3.39324">
        <ele>5.42</ele>
        <time>2013-02-10T10:54:45Z</time>
      </trkpt>
      <trkpt lat="47.68839" lon="-3.39306">
        <ele>9.75</ele>
        <time>2013-02-10T10:54:50Z</time>
      </trkpt>
      <trkpt lat="47.6885" lon="-3.39286">
        <ele>8.79</ele>
        <time>2013-02-10T10:54:57Z</time>
      </trkpt>
      <trkpt lat="47.68862" lon="-3.39261">
        <ele>5.91</ele>
        <time>2013-02-10T10:55:03Z</time>
      </trkpt>
      <trkpt lat="47.68872" lon="-3.39232">
        <ele>4.46</ele>
        <time>2013-02-10T10:55:11Z</time>
      </trkpt>
      <trkpt lat="47.68882" lon="-3.39202">
        <ele>5.42</ele>
        <time>2013-02-10T10:55:17Z</time>
      </trkpt>
      <trkpt lat="47.68893" lon="-3.39178">
        <ele>5.42</ele>
        <time>2013-02-10T10:55:23Z</time>
      </trkpt>
      <trkpt lat="47.68904" lon="-3.39156">
        <ele>6.87</ele>
        <time>2013-02-10T10:55:28Z</time>
      </trkpt>
      <trkpt lat="47.68911" lon="-3.39137">
        <ele>8.31</ele>
        <time>2013-02-10T10:55:33Z</time>
      </trkpt>
      <trkpt lat="47.68919" lon="-3.39117">
        <ele>6.87</ele>
        <time>2013-02-10T10:55:38Z</time>
      </trkpt>
      <trkpt lat="47.68927" lon="-3.39091">
        <ele>3.98</ele>
        <time>2013-02-10T10:55:44Z</time>
      </trkpt>
      <trkpt lat="47.68934" lon="-3.39066">
        <ele>3.98</ele>
        <time>2013-02-10T10:55:49Z</time>
      </trkpt>
      <trkpt lat="47.68942" lon="-3.39048">
        <ele>3.02</ele>
        <time>2013-02-10T10:55:54Z</time>
      </trkpt>
      <trkpt lat="47.68951" lon="-3.3902">
        <ele>2.06</ele>
        <time>2013-02-10T10:56:00Z</time>
      </trkpt>
      <trkpt lat="47.68956" lon="-3.39005">
        <ele>-0.34</ele>
        <time>2013-02-10T10:56:04Z</time>
      </trkpt>
      <trkpt lat="47.68969" lon="-3.38975">
        <ele>-1.79</ele>
        <time>2013-02-10T10:56:11Z</time>
      </trkpt>
      <trkpt lat="47.68975" lon="-3.38961">
        <ele>-0.34</ele>
        <time>2013-02-10T10:56:15Z</time>
      </trkpt>
      <trkpt lat="47.6898" lon="-3.38952">
        <ele>-0.34</ele>
        <time>2013-02-10T10:56:17Z</time>
      </trkpt>
      <trkpt lat="47.68993" lon="-3.38924">
        <ele>-0.82</ele>
        <time>2013-02-10T10:56:23Z</time>
      </trkpt>
      <trkpt lat="47.69003" lon="-3.38902">
        <ele>-1.3</ele>
        <time>2013-02-10T10:56:29Z</time>
      </trkpt>
      <trkpt lat="47.69014" lon="-3.3887">
        <ele>-3.23</ele>
        <time>2013-02-10T10:56:36Z</time>
      </trkpt>
      <trkpt lat="47.69026" lon="-3.38836">
        <ele>-3.23</ele>
        <time>2013-02-10T10:56:44Z</time>
      </trkpt>
      <trkpt lat="47.69035" lon="-3.38814">
        <ele>-4.19</ele>
        <time>2013-02-10T10:56:50Z</time>
      </trkpt>
      <trkpt lat="47.69043" lon="-3.38789">
        <ele>-4.19</ele>
        <time>2013-02-10T10:56:56Z</time>
      </trkpt>
      <trkpt lat="47.69063" lon="-3.38736">
        <ele>-3.71</ele>
        <time>2013-02-10T10:57:09Z</time>
      </trkpt>
      <trkpt lat="47.69076" lon="-3.387">
        <ele>-2.27</ele>
        <time>2013-02-10T10:57:17Z</time>
      </trkpt>
      <trkpt lat="47.69088" lon="-3.38666">
        <ele>-1.3</ele>
        <time>2013-02-10T10:57:25Z</time>
      </trkpt>
      <trkpt lat="47.69102" lon="-3.3863">
        <ele>0.14</ele>
        <time>2013-02-10T10:57:33Z</time>
      </trkpt>
      <trkpt lat="47.69116" lon="-3.38592">
        <ele>0.62</ele>
        <time>2013-02-10T10:57:42Z</time>
      </trkpt>
      <trkpt lat="47.69125" lon="-3.38572">
        <ele>1.58</ele>
        <time>2013-02-10T10:57:48Z</time>
      </trkpt>
      <trkpt lat="47.69135" lon="-3.38547">
        <ele>0.62</ele>
        <time>2013-02-10T10:57:53Z</time>
      </trkpt>
      <trkpt lat="47.69146" lon="-3.3852">
        <ele>1.58</ele>
        <time>2013-02-10T10:58:00Z</time>
      </trkpt>
      <trkpt lat="47.69164" lon="-3.38496">
        <ele>0.62</ele>
        <time>2013-02-10T10:58:07Z</time>
      </trkpt>
      <trkpt lat="47.6918" lon="-3.38465">
        <ele>0.62</ele>
        <time>2013-02-10T10:58:14Z</time>
      </trkpt>
      <trkpt lat="47.69192" lon="-3.38435">
        <ele>1.1</ele>
        <time>2013-02-10T10:58:21Z</time>
      </trkpt>
      <trkpt lat="47.69193" lon="-3.38431">
        <ele>1.1</ele>
        <time>2013-02-10T10:58:22Z</time>
      </trkpt>
      <trkpt lat="47.69196" lon="-3.38414">
        <ele>0.62</ele>
        <time>2013-02-10T10:58:25Z</time>
      </trkpt>
      <trkpt lat="47.69205" lon="-3.38385">
        <ele>-0.82</ele>
        <time>2013-02-10T10:58:32Z</time>
      </trkpt>
      <trkpt lat="47.69221" lon="-3.38346">
        <ele>-1.3</ele>
        <time>2013-02-10T10:58:41Z</time>
      </trkpt>
      <trkpt lat="47.69235" lon="-3.38316">
        <ele>-0.34</ele>
        <time>2013-02-10T10:58:49Z</time>
      </trkpt>
      <trkpt lat="47.69248" lon="-3.3828">
        <ele>0.14</ele>
        <time>2013-02-10T10:58:58Z</time>
      </trkpt>
      <trkpt lat="47.69264" lon="-3.38246">
        <ele>0.62</ele>
        <time>2013-02-10T10:59:07Z</time>
      </trkpt>
      <trkpt lat="47.69276" lon="-3.38221">
        <ele>0.14</ele>
        <time>2013-02-10T10:59:14Z</time>
      </trkpt>
      <trkpt lat="47.69299" lon="-3.38173">
        <ele>0.62</ele>
        <time>2013-02-10T10:59:26Z</time>
      </trkpt>
      <trkpt lat="47.69318" lon="-3.38127">
        <ele>0.14</ele>
        <time>2013-02-10T10:59:37Z</time>
      </trkpt>
      <trkpt lat="47.69335" lon="-3.38089">
        <ele>-0.34</ele>
        <time>2013-02-10T10:59:46Z</time>
      </trkpt>
      <trkpt lat="47.69354" lon="-3.38046">
        <ele>0.62</ele>
        <time>2013-02-10T10:59:56Z</time>
      </trkpt>
      <trkpt lat="47.69368" lon="-3.38007">
        <ele>0.14</ele>
        <time>2013-02-10T11:00:05Z</time>
      </trkpt>
      <trkpt lat="47.69382" lon="-3.37968">
        <ele>0.14</ele>
        <time>2013-02-10T11:00:14Z</time>
      </trkpt>
      <trkpt lat="47.69403" lon="-3.37923">
        <ele>1.1</ele>
        <time>2013-02-10T11:00:24Z</time>
      </trkpt>
      <trkpt lat="47.69419" lon="-3.37889">
        <ele>1.58</ele>
        <time>2013-02-10T11:00:32Z</time>
      </trkpt>
      <trkpt lat="47.69435" lon="-3.37846">
        <ele>1.58</ele>
        <time>2013-02-10T11:00:41Z</time>
      </trkpt>
      <trkpt lat="47.69452" lon="-3.37813">
        <ele>2.06</ele>
        <time>2013-02-10T11:00:49Z</time>
      </trkpt>
      <trkpt lat="47.69467" lon="-3.37788">
        <ele>2.06</ele>
        <time>2013-02-10T11:00:55Z</time>
      </trkpt>
      <trkpt lat="47.69486" lon="-3.37757">
        <ele>2.54</ele>
        <time>2013-02-10T11:01:03Z</time>
      </trkpt>
      <trkpt lat="47.69513" lon="-3.37727">
        <ele>3.02</ele>
        <time>2013-02-10T11:01:12Z</time>
      </trkpt>
      <trkpt lat="47.69525" lon="-3.37717">
        <ele>3.02</ele>
        <time>2013-02-10T11:01:16Z</time>
      </trkpt>
      <trkpt lat="47.69556" lon="-3.37702">
        <ele>3.02</ele>
        <time>2013-02-10T11:01:25Z</time>
      </trkpt>
      <trkpt lat="47.69586" lon="-3.37684">
        <ele>3.5</ele>
        <time>2013-02-10T11:01:34Z</time>
      </trkpt>
      <trkpt lat="47.69618" lon="-3.37661">
        <ele>3.02</ele>
        <time>2013-02-10T11:01:44Z</time>
      </trkpt>
      <trkpt lat="47.69651" lon="-3.37639">
        <ele>2.06</ele>
        <time>2013-02-10T11:01:53Z</time>
      </trkpt>
      <trkpt lat="47.6967" lon="-3.37628">
        <ele>1.58</ele>
        <time>2013-02-10T11:01:58Z</time>
      </trkpt>
      <trkpt lat="47.69694" lon="-3.37617">
        <ele>-0.34</ele>
        <time>2013-02-10T11:02:04Z</time>
      </trkpt>
      <trkpt lat="47.69715" lon="-3.37608">
        <ele>0.14</ele>
        <time>2013-02-10T11:02:10Z</time>
      </trkpt>
      <trkpt lat="47.69744" lon="-3.37592">
        <ele>1.58</ele>
        <time>2013-02-10T11:02:18Z</time>
      </trkpt>
      <trkpt lat="47.69767" lon="-3.3758">
        <ele>2.54</ele>
        <time>2013-02-10T11:02:25Z</time>
      </trkpt>
      <trkpt lat="47.69797" lon="-3.37559">
        <ele>3.5</ele>
        <time>2013-02-10T11:02:34Z</time>
      </trkpt>
      <trkpt lat="47.69835" lon="-3.37538">
        <ele>4.46</ele>
        <time>2013-02-10T11:02:45Z</time>
      </trkpt>
      <trkpt lat="47.69871" lon="-3.37521">
        <ele>4.46</ele>
        <time>2013-02-10T11:02:55Z</time>
      </trkpt>
      <trkpt lat="47.69901" lon="-3.37512">
        <ele>3.98</ele>
        <time>2013-02-10T11:03:03Z</time>
      </trkpt>
      <trkpt lat="47.69937" lon="-3.37495">
        <ele>3.98</ele>
        <time>2013-02-10T11:03:13Z</time>
      </trkpt>
      <trkpt lat="47.69973" lon="-3.37474">
        <ele>3.5</ele>
        <time>2013-02-10T11:03:23Z</time>
      </trkpt>
      <trkpt lat="47.70004" lon="-3.37452">
        <ele>3.98</ele>
        <time>2013-02-10T11:03:32Z</time>
      </trkpt>
      <trkpt lat="47.70033" lon="-3.37431">
        <ele>4.46</ele>
        <time>2013-02-10T11:03:40Z</time>
      </trkpt>
      <trkpt lat="47.70088" lon="-3.37397">
        <ele>4.94</ele>
        <time>2013-02-10T11:03:55Z</time>
      </trkpt>
      <trkpt lat="47.7012" lon="-3.37379">
        <ele>4.46</ele>
        <time>2013-02-10T11:04:04Z</time>
      </trkpt>
      <trkpt lat="47.70151" lon="-3.37359">
        <ele>4.94</ele>
        <time>2013-02-10T11:04:13Z</time>
      </trkpt>
      <trkpt lat="47.7018" lon="-3.37339">
        <ele>4.46</ele>
        <time>2013-02-10T11:04:22Z</time>
      </trkpt>
      <trkpt lat="47.70217" lon="-3.37311">
        <ele>4.46</ele>
        <time>2013-02-10T11:04:33Z</time>
      </trkpt>
      <trkpt lat="47.70261" lon="-3.37276">
        <ele>4.46</ele>
        <time>2013-02-10T11:04:46Z</time>
      </trkpt>
      <trkpt lat="47.70284" lon="-3.37259">
        <ele>3.98</ele>
        <time>2013-02-10T11:04:53Z</time>
      </trkpt>
      <trkpt lat="47.70306" lon="-3.37238">
        <ele>3.5</ele>
        <time>2013-02-10T11:05:00Z</time>
      </trkpt>
      <trkpt lat="47.7034" lon="-3.37212">
        <ele>3.5</ele>
        <time>2013-02-10T11:05:10Z</time>
      </trkpt>
      <trkpt lat="47.70369" lon="-3.37188">
        <ele>3.5</ele>
        <time>2013-02-10T11:05:19Z</time>
      </trkpt>
      <trkpt lat="47.70389" lon="-3.37173">
        <ele>3.02</ele>
        <time>2013-02-10T11:05:25Z</time>
      </trkpt>
      <trkpt lat="47.70424" lon="-3.37141">
        <ele>2.06</ele>
        <time>2013-02-10T11:05:36Z</time>
      </trkpt>
      <trkpt lat="47.70451" lon="-3.37116">
        <ele>1.58</ele>
        <time>2013-02-10T11:05:45Z</time>
      </trkpt>
      <trkpt lat="47.70473" lon="-3.37094">
        <ele>1.1</ele>
        <time>2013-02-10T11:05:52Z</time>
      </trkpt>
      <trkpt lat="47.70501" lon="-3.37067">
        <ele>2.06</ele>
        <time>2013-02-10T11:06:01Z</time>
      </trkpt>
      <trkpt lat="47.70549" lon="-3.37021">
        <ele>2.54</ele>
        <time>2013-02-10T11:06:16Z</time>
      </trkpt>
      <trkpt lat="47.70583" lon="-3.36991">
        <ele>3.02</ele>
        <time>2013-02-10T11:06:27Z</time>
      </trkpt>
      <trkpt lat="47.70615" lon="-3.36963">
        <ele>3.02</ele>
        <time>2013-02-10T11:06:37Z</time>
      </trkpt>
      <trkpt lat="47.70663" lon="-3.36929">
        <ele>3.02</ele>
        <time>2013-02-10T11:06:51Z</time>
      </trkpt>
      <trkpt lat="47.70692" lon="-3.36912">
        <ele>3.5</ele>
        <time>2013-02-10T11:06:59Z</time>
      </trkpt>
      <trkpt lat="47.70707" lon="-3.36901">
        <ele>2.06</ele>
        <time>2013-02-10T11:07:05Z</time>
      </trkpt>
      <trkpt lat="47.70725" lon="-3.36873">
        <ele>1.58</ele>
        <time>2013-02-10T11:07:13Z</time>
      </trkpt>
      <trkpt lat="47.70739" lon="-3.36856">
        <ele>0.14</ele>
        <time>2013-02-10T11:07:19Z</time>
      </trkpt>
      <trkpt lat="47.70749" lon="-3.36848">
        <ele>-1.3</ele>
        <time>2013-02-10T11:07:23Z</time>
      </trkpt>
      <trkpt lat="47.70771" lon="-3.36832">
        <ele>-1.3</ele>
        <time>2013-02-10T11:07:30Z</time>
      </trkpt>
      <trkpt lat="47.70787" lon="-3.36821">
        <ele>-0.34</ele>
        <time>2013-02-10T11:07:35Z</time>
      </trkpt>
      <trkpt lat="47.70804" lon="-3.36809">
        <ele>0.14</ele>
        <time>2013-02-10T11:07:41Z</time>
      </trkpt>
      <trkpt lat="47.70835" lon="-3.368">
        <ele>0.62</ele>
        <time>2013-02-10T11:07:51Z</time>
      </trkpt>
      <trkpt lat="47.70857" lon="-3.36795">
        <ele>0.62</ele>
        <time>2013-02-10T11:07:58Z</time>
      </trkpt>
      <trkpt lat="47.70868" lon="-3.36788">
        <ele>0.62</ele>
        <time>2013-02-10T11:08:02Z</time>
      </trkpt>
      <trkpt lat="47.70885" lon="-3.36777">
        <ele>0.14</ele>
        <time>2013-02-10T11:08:07Z</time>
      </trkpt>
      <trkpt lat="47.709" lon="-3.36769">
        <ele>-1.3</ele>
        <time>2013-02-10T11:08:12Z</time>
      </trkpt>
      <trkpt lat="47.70918" lon="-3.36762">
        <ele>-0.34</ele>
        <time>2013-02-10T11:08:18Z</time>
      </trkpt>
      <trkpt lat="47.70933" lon="-3.36759">
        <ele>-0.34</ele>
        <time>2013-02-10T11:08:23Z</time>
      </trkpt>
      <trkpt lat="47.7095" lon="-3.3675">
        <ele>1.1</ele>
        <time>2013-02-10T11:08:28Z</time>
      </trkpt>
      <trkpt lat="47.70966" lon="-3.36738">
        <ele>1.58</ele>
        <time>2013-02-10T11:08:35Z</time>
      </trkpt>
      <trkpt lat="47.70986" lon="-3.36724">
        <ele>2.54</ele>
        <time>2013-02-10T11:08:42Z</time>
      </trkpt>
      <trkpt lat="47.71001" lon="-3.36715">
        <ele>4.46</ele>
        <time>2013-02-10T11:08:47Z</time>
      </trkpt>
      <trkpt lat="47.7102" lon="-3.36709">
        <ele>4.46</ele>
        <time>2013-02-10T11:08:53Z</time>
      </trkpt>
      <trkpt lat="47.71041" lon="-3.36698">
        <ele>3.5</ele>
        <time>2013-02-10T11:09:00Z</time>
      </trkpt>
      <trkpt lat="47.71061" lon="-3.36687">
        <ele>3.02</ele>
        <time>2013-02-10T11:09:07Z</time>
      </trkpt>
      <trkpt lat="47.71083" lon="-3.36669">
        <ele>2.54</ele>
        <time>2013-02-10T11:09:16Z</time>
      </trkpt>
      <trkpt lat="47.71088" lon="-3.36666">
        <ele>2.06</ele>
        <time>2013-02-10T11:09:18Z</time>
      </trkpt>
      <trkpt lat="47.71112" lon="-3.36649">
        <ele>2.54</ele>
        <time>2013-02-10T11:09:28Z</time>
      </trkpt>
      <trkpt lat="47.71137" lon="-3.36631">
        <ele>1.58</ele>
        <time>2013-02-10T11:09:39Z</time>
      </trkpt>
      <trkpt lat="47.71161" lon="-3.36614">
        <ele>-0.34</ele>
        <time>2013-02-10T11:09:50Z</time>
      </trkpt>
      <trkpt lat="47.7118" lon="-3.36606">
        <ele>-0.82</ele>
        <time>2013-02-10T11:09:59Z</time>
      </trkpt>
      <trkpt lat="47.7121" lon="-3.36595">
        <ele>2.54</ele>
        <time>2013-02-10T11:10:12Z</time>
      </trkpt>
      <trkpt lat="47.7122" lon="-3.36592">
        <ele>1.58</ele>
        <time>2013-02-10T11:10:16Z</time>
      </trkpt>
      <trkpt lat="47.71231" lon="-3.3659">
        <ele>3.02</ele>
        <time>2013-02-10T11:10:21Z</time>
      </trkpt>
      <trkpt lat="47.71251" lon="-3.36585">
        <ele>3.98</ele>
        <time>2013-02-10T11:10:29Z</time>
      </trkpt>
      <trkpt lat="47.71264" lon="-3.3658">
        <ele>4.46</ele>
        <time>2013-02-10T11:10:34Z</time>
      </trkpt>
      <trkpt lat="47.71281" lon="-3.3657">
        <ele>4.46</ele>
        <time>2013-02-10T11:10:41Z</time>
      </trkpt>
      <trkpt lat="47.71295" lon="-3.36562">
        <ele>4.94</ele>
        <time>2013-02-10T11:10:47Z</time>
      </trkpt>
      <trkpt lat="47.71298" lon="-3.36559">
        <ele>4.94</ele>
        <time>2013-02-10T11:10:49Z</time>
      </trkpt>
      <trkpt lat="47.71314" lon="-3.36549">
        <ele>4.46</ele>
        <time>2013-02-10T11:10:57Z</time>
      </trkpt>
      <trkpt lat="47.71327" lon="-3.36538">
        <ele>5.91</ele>
        <time>2013-02-10T11:11:03Z</time>
      </trkpt>
      <trkpt lat="47.71334" lon="-3.36534">
        <ele>5.91</ele>
        <time>2013-02-10T11:11:07Z</time>
      </trkpt>
      <trkpt lat="47.71353" lon="-3.36527">
        <ele>8.31</ele>
        <time>2013-02-10T11:11:16Z</time>
      </trkpt>
      <trkpt lat="47.71375" lon="-3.36522">
        <ele>6.39</ele>
        <time>2013-02-10T11:11:25Z</time>
      </trkpt>
      <trkpt lat="47.71377" lon="-3.36522">
        <ele>4.94</ele>
        <time>2013-02-10T11:11:26Z</time>
      </trkpt>
      <trkpt lat="47.71399" lon="-3.36516">
        <ele>4.46</ele>
        <time>2013-02-10T11:11:36Z</time>
      </trkpt>
      <trkpt lat="47.71415" lon="-3.3651">
        <ele>3.98</ele>
        <time>2013-02-10T11:11:43Z</time>
      </trkpt>
      <trkpt lat="47.71434" lon="-3.36503">
        <ele>2.06</ele>
        <time>2013-02-10T11:11:51Z</time>
      </trkpt>
      <trkpt lat="47.7145" lon="-3.36494">
        <ele>3.5</ele>
        <time>2013-02-10T11:11:58Z</time>
      </trkpt>
      <trkpt lat="47.71459" lon="-3.3649">
        <ele>2.54</ele>
        <time>2013-02-10T11:12:02Z</time>
      </trkpt>
      <trkpt lat="47.71471" lon="-3.36489">
        <ele>3.02</ele>
        <time>2013-02-10T11:12:07Z</time>
      </trkpt>
      <trkpt lat="47.71482" lon="-3.36489">
        <ele>2.06</ele>
        <time>2013-02-10T11:12:12Z</time>
      </trkpt>
      <trkpt lat="47.71504" lon="-3.36492">
        <ele>0.14</ele>
        <time>2013-02-10T11:12:22Z</time>
      </trkpt>
      <trkpt lat="47.71515" lon="-3.36496">
        <ele>0.62</ele>
        <time>2013-02-10T11:12:27Z</time>
      </trkpt>
      <trkpt lat="47.71536" lon="-3.36503">
        <ele>1.1</ele>
        <time>2013-02-10T11:12:36Z</time>
      </trkpt>
      <trkpt lat="47.71555" lon="-3.36512">
        <ele>-0.34</ele>
        <time>2013-02-10T11:12:45Z</time>
      </trkpt>
      <trkpt lat="47.71571" lon="-3.36515">
        <ele>-0.82</ele>
        <time>2013-02-10T11:12:53Z</time>
      </trkpt>
      <trkpt lat="47.71585" lon="-3.36517">
        <ele>-1.79</ele>
        <time>2013-02-10T11:12:59Z</time>
      </trkpt>
      <trkpt lat="47.71604" lon="-3.36519">
        <ele>-1.3</ele>
        <time>2013-02-10T11:13:07Z</time>
      </trkpt>
      <trkpt lat="47.71624" lon="-3.36522">
        <ele>-1.3</ele>
        <time>2013-02-10T11:13:15Z</time>
      </trkpt>
      <trkpt lat="47.71643" lon="-3.36524">
        <ele>-0.34</ele>
        <time>2013-02-10T11:13:22Z</time>
      </trkpt>
      <trkpt lat="47.71668" lon="-3.36525">
        <ele>2.06</ele>
        <time>2013-02-10T11:13:32Z</time>
      </trkpt>
      <trkpt lat="47.71683" lon="-3.3652">
        <ele>1.1</ele>
        <time>2013-02-10T11:13:40Z</time>
      </trkpt>
      <trkpt lat="47.71706" lon="-3.36517">
        <ele>-0.82</ele>
        <time>2013-02-10T11:13:50Z</time>
      </trkpt>
      <trkpt lat="47.7172" lon="-3.36514">
        <ele>-0.82</ele>
        <time>2013-02-10T11:13:56Z</time>
      </trkpt>
    </trkseg>
  </trk>
</gpx>